<?xml version="1.0" encoding="UTF-8" standalone="no" ?>
<gpx xmlns="http://www.topografix.com/GPX/1/1" xmlns:xsi="http://www.w3.org/2001/XMLSchema-instance" xsi:schemaLocation="http://www.topografix.com/GPX/1/1 http://www.topografix.com/GPX/1/1/gpx.xsd" version="1.1" creator="VisuGPX - https://www.visugpx.com">
  <metadata>
    <name>La Chapelle-de-Guinchay VTT</name>
  </metadata>
  <trk>
    <name><![CDATA[La Chapelle-de-Guinchay VTT]]></name>
    <extensions>
      <line xmlns="http://www.topografix.com/GPX/gpx_style/0/2">
        <color>0000FF</color>
        <width>4</width>
      </line>
    </extensions>
    <trkseg>
      <trkpt lat="46.21429" lon="4.75491">
        <ele>192.39999389648</ele>
        <time>2021-04-25T12:37:33.000Z</time>
      </trkpt>
      <trkpt lat="46.21429" lon="4.75491">
        <ele>192.39999389648</ele>
        <time>2021-04-25T12:37:34.000Z</time>
      </trkpt>
      <trkpt lat="46.21429" lon="4.7549">
        <ele>192.39999389648</ele>
        <time>2021-04-25T12:38:02.000Z</time>
      </trkpt>
      <trkpt lat="46.21421" lon="4.75492">
        <ele>192.19999694824</ele>
        <time>2021-04-25T12:41:59.000Z</time>
      </trkpt>
      <trkpt lat="46.21418" lon="4.75495">
        <ele>191.80000305176</ele>
        <time>2021-04-25T12:42:01.000Z</time>
      </trkpt>
      <trkpt lat="46.21416" lon="4.75497">
        <ele>191.80000305176</ele>
        <time>2021-04-25T12:42:02.000Z</time>
      </trkpt>
      <trkpt lat="46.21391" lon="4.75535">
        <ele>189.19999694824</ele>
        <time>2021-04-25T12:42:14.000Z</time>
      </trkpt>
      <trkpt lat="46.2139" lon="4.75537">
        <ele>189.19999694824</ele>
        <time>2021-04-25T12:42:15.000Z</time>
      </trkpt>
      <trkpt lat="46.21396" lon="4.75533">
        <ele>189.19999694824</ele>
        <time>2021-04-25T12:42:20.000Z</time>
      </trkpt>
      <trkpt lat="46.21401" lon="4.75525">
        <ele>189.80000305176</ele>
        <time>2021-04-25T12:42:23.000Z</time>
      </trkpt>
      <trkpt lat="46.21404" lon="4.75525">
        <ele>189.80000305176</ele>
        <time>2021-04-25T12:42:24.000Z</time>
      </trkpt>
      <trkpt lat="46.21409" lon="4.7553">
        <ele>189.80000305176</ele>
        <time>2021-04-25T12:42:26.000Z</time>
      </trkpt>
      <trkpt lat="46.21427" lon="4.75552">
        <ele>190.39999389648</ele>
        <time>2021-04-25T12:42:32.000Z</time>
      </trkpt>
      <trkpt lat="46.21447" lon="4.75575">
        <ele>191.39999389648</ele>
        <time>2021-04-25T12:42:38.000Z</time>
      </trkpt>
      <trkpt lat="46.21486" lon="4.75618">
        <ele>193.60000610352</ele>
        <time>2021-04-25T12:42:50.000Z</time>
      </trkpt>
      <trkpt lat="46.21498" lon="4.75608">
        <ele>194.39999389648</ele>
        <time>2021-04-25T12:42:56.000Z</time>
      </trkpt>
      <trkpt lat="46.21527" lon="4.75572">
        <ele>196.39999389648</ele>
        <time>2021-04-25T12:43:04.000Z</time>
      </trkpt>
      <trkpt lat="46.21538" lon="4.75548">
        <ele>197.19999694824</ele>
        <time>2021-04-25T12:43:08.000Z</time>
      </trkpt>
      <trkpt lat="46.21544" lon="4.7552">
        <ele>197.19999694824</ele>
        <time>2021-04-25T12:43:12.000Z</time>
      </trkpt>
      <trkpt lat="46.2156" lon="4.7541">
        <ele>196.39999389648</ele>
        <time>2021-04-25T12:43:26.000Z</time>
      </trkpt>
      <trkpt lat="46.21584" lon="4.7534">
        <ele>196</ele>
        <time>2021-04-25T12:43:36.000Z</time>
      </trkpt>
      <trkpt lat="46.21652" lon="4.75254">
        <ele>197</ele>
        <time>2021-04-25T12:43:53.000Z</time>
      </trkpt>
      <trkpt lat="46.21659" lon="4.75244">
        <ele>197.19999694824</ele>
        <time>2021-04-25T12:43:55.000Z</time>
      </trkpt>
      <trkpt lat="46.21696" lon="4.75137">
        <ele>197</ele>
        <time>2021-04-25T12:44:11.000Z</time>
      </trkpt>
      <trkpt lat="46.2172" lon="4.75089">
        <ele>197.19999694824</ele>
        <time>2021-04-25T12:44:19.000Z</time>
      </trkpt>
      <trkpt lat="46.21724" lon="4.75075">
        <ele>197.39999389648</ele>
        <time>2021-04-25T12:44:21.000Z</time>
      </trkpt>
      <trkpt lat="46.21729" lon="4.75062">
        <ele>197.80000305176</ele>
        <time>2021-04-25T12:44:23.000Z</time>
      </trkpt>
      <trkpt lat="46.21755" lon="4.75006">
        <ele>199</ele>
        <time>2021-04-25T12:44:32.000Z</time>
      </trkpt>
      <trkpt lat="46.21802" lon="4.74892">
        <ele>199.60000610352</ele>
        <time>2021-04-25T12:44:50.000Z</time>
      </trkpt>
      <trkpt lat="46.21812" lon="4.74868">
        <ele>200</ele>
        <time>2021-04-25T12:44:54.000Z</time>
      </trkpt>
      <trkpt lat="46.21832" lon="4.74855">
        <ele>200.39999389648</ele>
        <time>2021-04-25T12:44:59.000Z</time>
      </trkpt>
      <trkpt lat="46.21842" lon="4.74857">
        <ele>200.80000305176</ele>
        <time>2021-04-25T12:45:01.000Z</time>
      </trkpt>
      <trkpt lat="46.2191" lon="4.74891">
        <ele>203.19999694824</ele>
        <time>2021-04-25T12:45:17.000Z</time>
      </trkpt>
      <trkpt lat="46.21929" lon="4.74888">
        <ele>204.19999694824</ele>
        <time>2021-04-25T12:45:22.000Z</time>
      </trkpt>
      <trkpt lat="46.21961" lon="4.74846">
        <ele>204.80000305176</ele>
        <time>2021-04-25T12:45:33.000Z</time>
      </trkpt>
      <trkpt lat="46.22009" lon="4.7475">
        <ele>206.39999389648</ele>
        <time>2021-04-25T12:45:51.000Z</time>
      </trkpt>
      <trkpt lat="46.22026" lon="4.74722">
        <ele>206.60000610352</ele>
        <time>2021-04-25T12:45:57.000Z</time>
      </trkpt>
      <trkpt lat="46.22044" lon="4.74695">
        <ele>206.80000305176</ele>
        <time>2021-04-25T12:46:03.000Z</time>
      </trkpt>
      <trkpt lat="46.22062" lon="4.74679">
        <ele>207.39999389648</ele>
        <time>2021-04-25T12:46:08.000Z</time>
      </trkpt>
      <trkpt lat="46.22088" lon="4.74627">
        <ele>208.60000610352</ele>
        <time>2021-04-25T12:46:18.000Z</time>
      </trkpt>
      <trkpt lat="46.22105" lon="4.74619">
        <ele>210</ele>
        <time>2021-04-25T12:46:23.000Z</time>
      </trkpt>
      <trkpt lat="46.22143" lon="4.74679">
        <ele>215.19999694824</ele>
        <time>2021-04-25T12:46:35.000Z</time>
      </trkpt>
      <trkpt lat="46.22151" lon="4.74668">
        <ele>215.39999389648</ele>
        <time>2021-04-25T12:46:40.000Z</time>
      </trkpt>
      <trkpt lat="46.22157" lon="4.74646">
        <ele>215</ele>
        <time>2021-04-25T12:46:44.000Z</time>
      </trkpt>
      <trkpt lat="46.22166" lon="4.74617">
        <ele>215</ele>
        <time>2021-04-25T12:46:50.000Z</time>
      </trkpt>
      <trkpt lat="46.22158" lon="4.74597">
        <ele>213</ele>
        <time>2021-04-25T12:46:54.000Z</time>
      </trkpt>
      <trkpt lat="46.22144" lon="4.74537">
        <ele>208</ele>
        <time>2021-04-25T12:47:01.000Z</time>
      </trkpt>
      <trkpt lat="46.22145" lon="4.74493">
        <ele>206.39999389648</ele>
        <time>2021-04-25T12:47:05.000Z</time>
      </trkpt>
      <trkpt lat="46.22143" lon="4.74471">
        <ele>205.60000610352</ele>
        <time>2021-04-25T12:47:08.000Z</time>
      </trkpt>
      <trkpt lat="46.2213" lon="4.74451">
        <ele>204.60000610352</ele>
        <time>2021-04-25T12:47:12.000Z</time>
      </trkpt>
      <trkpt lat="46.22112" lon="4.74441">
        <ele>204.39999389648</ele>
        <time>2021-04-25T12:47:15.000Z</time>
      </trkpt>
      <trkpt lat="46.22061" lon="4.74409">
        <ele>203.60000610352</ele>
        <time>2021-04-25T12:47:24.000Z</time>
      </trkpt>
      <trkpt lat="46.22069" lon="4.74389">
        <ele>204</ele>
        <time>2021-04-25T12:47:30.000Z</time>
      </trkpt>
      <trkpt lat="46.22103" lon="4.74332">
        <ele>203.60000610352</ele>
        <time>2021-04-25T12:47:40.000Z</time>
      </trkpt>
      <trkpt lat="46.22141" lon="4.74232">
        <ele>203</ele>
        <time>2021-04-25T12:47:55.000Z</time>
      </trkpt>
      <trkpt lat="46.22189" lon="4.7411">
        <ele>203.80000305176</ele>
        <time>2021-04-25T12:48:15.000Z</time>
      </trkpt>
      <trkpt lat="46.22192" lon="4.74104">
        <ele>203.80000305176</ele>
        <time>2021-04-25T12:48:16.000Z</time>
      </trkpt>
      <trkpt lat="46.22219" lon="4.7403">
        <ele>205.39999389648</ele>
        <time>2021-04-25T12:48:30.000Z</time>
      </trkpt>
      <trkpt lat="46.22213" lon="4.73987">
        <ele>206.39999389648</ele>
        <time>2021-04-25T12:48:37.000Z</time>
      </trkpt>
      <trkpt lat="46.22168" lon="4.73907">
        <ele>209.39999389648</ele>
        <time>2021-04-25T12:48:54.000Z</time>
      </trkpt>
      <trkpt lat="46.22121" lon="4.73849">
        <ele>214.19999694824</ele>
        <time>2021-04-25T12:49:10.000Z</time>
      </trkpt>
      <trkpt lat="46.22114" lon="4.73838">
        <ele>215.60000610352</ele>
        <time>2021-04-25T12:49:13.000Z</time>
      </trkpt>
      <trkpt lat="46.22102" lon="4.73842">
        <ele>215.60000610352</ele>
        <time>2021-04-25T12:49:17.000Z</time>
      </trkpt>
      <trkpt lat="46.22081" lon="4.73867">
        <ele>213.80000305176</ele>
        <time>2021-04-25T12:49:23.000Z</time>
      </trkpt>
      <trkpt lat="46.22034" lon="4.73914">
        <ele>213.39999389648</ele>
        <time>2021-04-25T12:49:35.000Z</time>
      </trkpt>
      <trkpt lat="46.22018" lon="4.7393">
        <ele>212.80000305176</ele>
        <time>2021-04-25T12:49:39.000Z</time>
      </trkpt>
      <trkpt lat="46.21991" lon="4.7397">
        <ele>211</ele>
        <time>2021-04-25T12:49:48.000Z</time>
      </trkpt>
      <trkpt lat="46.21983" lon="4.73962">
        <ele>211.60000610352</ele>
        <time>2021-04-25T12:49:52.000Z</time>
      </trkpt>
      <trkpt lat="46.21976" lon="4.73869">
        <ele>220.39999389648</ele>
        <time>2021-04-25T12:50:06.000Z</time>
      </trkpt>
      <trkpt lat="46.21975" lon="4.73828">
        <ele>225.39999389648</ele>
        <time>2021-04-25T12:50:13.000Z</time>
      </trkpt>
      <trkpt lat="46.21975" lon="4.73822">
        <ele>226</ele>
        <time>2021-04-25T12:50:14.000Z</time>
      </trkpt>
      <trkpt lat="46.21974" lon="4.73795">
        <ele>229.39999389648</ele>
        <time>2021-04-25T12:50:19.000Z</time>
      </trkpt>
      <trkpt lat="46.21973" lon="4.73764">
        <ele>232</ele>
        <time>2021-04-25T12:50:25.000Z</time>
      </trkpt>
      <trkpt lat="46.2197" lon="4.73735">
        <ele>234.19999694824</ele>
        <time>2021-04-25T12:50:31.000Z</time>
      </trkpt>
      <trkpt lat="46.21968" lon="4.73711">
        <ele>236</ele>
        <time>2021-04-25T12:50:36.000Z</time>
      </trkpt>
      <trkpt lat="46.21967" lon="4.73708">
        <ele>236.19999694824</ele>
        <time>2021-04-25T12:50:37.000Z</time>
      </trkpt>
      <trkpt lat="46.21954" lon="4.73701">
        <ele>237.19999694824</ele>
        <time>2021-04-25T12:50:41.000Z</time>
      </trkpt>
      <trkpt lat="46.21946" lon="4.73702">
        <ele>237.60000610352</ele>
        <time>2021-04-25T12:50:43.000Z</time>
      </trkpt>
      <trkpt lat="46.21922" lon="4.73709">
        <ele>238.39999389648</ele>
        <time>2021-04-25T12:50:49.000Z</time>
      </trkpt>
      <trkpt lat="46.21839" lon="4.73724">
        <ele>239.39999389648</ele>
        <time>2021-04-25T12:51:07.000Z</time>
      </trkpt>
      <trkpt lat="46.21773" lon="4.73704">
        <ele>241</ele>
        <time>2021-04-25T12:51:22.000Z</time>
      </trkpt>
      <trkpt lat="46.21764" lon="4.73701">
        <ele>241</ele>
        <time>2021-04-25T12:51:24.000Z</time>
      </trkpt>
      <trkpt lat="46.21751" lon="4.73692">
        <ele>241.19999694824</ele>
        <time>2021-04-25T12:51:28.000Z</time>
      </trkpt>
      <trkpt lat="46.21716" lon="4.7367">
        <ele>240.80000305176</ele>
        <time>2021-04-25T12:51:38.000Z</time>
      </trkpt>
      <trkpt lat="46.21631" lon="4.7362">
        <ele>237.19999694824</ele>
        <time>2021-04-25T12:51:53.000Z</time>
      </trkpt>
      <trkpt lat="46.21533" lon="4.73558">
        <ele>230.80000305176</ele>
        <time>2021-04-25T12:52:09.000Z</time>
      </trkpt>
      <trkpt lat="46.21502" lon="4.73543">
        <ele>229.19999694824</ele>
        <time>2021-04-25T12:52:15.000Z</time>
      </trkpt>
      <trkpt lat="46.21498" lon="4.73543">
        <ele>229</ele>
        <time>2021-04-25T12:52:16.000Z</time>
      </trkpt>
      <trkpt lat="46.21485" lon="4.73561">
        <ele>228.60000610352</ele>
        <time>2021-04-25T12:52:20.000Z</time>
      </trkpt>
      <trkpt lat="46.21475" lon="4.73574">
        <ele>228.19999694824</ele>
        <time>2021-04-25T12:52:23.000Z</time>
      </trkpt>
      <trkpt lat="46.21441" lon="4.7356">
        <ele>226</ele>
        <time>2021-04-25T12:52:31.000Z</time>
      </trkpt>
      <trkpt lat="46.21417" lon="4.73555">
        <ele>224.60000610352</ele>
        <time>2021-04-25T12:52:36.000Z</time>
      </trkpt>
      <trkpt lat="46.21393" lon="4.73563">
        <ele>222.60000610352</ele>
        <time>2021-04-25T12:52:44.000Z</time>
      </trkpt>
      <trkpt lat="46.21311" lon="4.73598">
        <ele>218</ele>
        <time>2021-04-25T12:53:02.000Z</time>
      </trkpt>
      <trkpt lat="46.21306" lon="4.736">
        <ele>217.80000305176</ele>
        <time>2021-04-25T12:53:03.000Z</time>
      </trkpt>
      <trkpt lat="46.21249" lon="4.7364">
        <ele>216.80000305176</ele>
        <time>2021-04-25T12:53:19.000Z</time>
      </trkpt>
      <trkpt lat="46.21239" lon="4.73651">
        <ele>216.60000610352</ele>
        <time>2021-04-25T12:53:22.000Z</time>
      </trkpt>
      <trkpt lat="46.2122" lon="4.73704">
        <ele>216.39999389648</ele>
        <time>2021-04-25T12:53:34.000Z</time>
      </trkpt>
      <trkpt lat="46.21214" lon="4.73694">
        <ele>216.39999389648</ele>
        <time>2021-04-25T12:53:39.000Z</time>
      </trkpt>
      <trkpt lat="46.21201" lon="4.73608">
        <ele>215.80000305176</ele>
        <time>2021-04-25T12:53:50.000Z</time>
      </trkpt>
      <trkpt lat="46.21196" lon="4.73589">
        <ele>216</ele>
        <time>2021-04-25T12:53:53.000Z</time>
      </trkpt>
      <trkpt lat="46.21174" lon="4.73568">
        <ele>216</ele>
        <time>2021-04-25T12:53:58.000Z</time>
      </trkpt>
      <trkpt lat="46.21113" lon="4.73538">
        <ele>218.60000610352</ele>
        <time>2021-04-25T12:54:10.000Z</time>
      </trkpt>
      <trkpt lat="46.21083" lon="4.73528">
        <ele>221.39999389648</ele>
        <time>2021-04-25T12:54:17.000Z</time>
      </trkpt>
      <trkpt lat="46.21079" lon="4.73526">
        <ele>221.80000305176</ele>
        <time>2021-04-25T12:54:18.000Z</time>
      </trkpt>
      <trkpt lat="46.21069" lon="4.73506">
        <ele>222.80000305176</ele>
        <time>2021-04-25T12:54:23.000Z</time>
      </trkpt>
      <trkpt lat="46.21071" lon="4.73487">
        <ele>222.80000305176</ele>
        <time>2021-04-25T12:54:26.000Z</time>
      </trkpt>
      <trkpt lat="46.21064" lon="4.73447">
        <ele>224</ele>
        <time>2021-04-25T12:54:32.000Z</time>
      </trkpt>
      <trkpt lat="46.21055" lon="4.73361">
        <ele>227.80000305176</ele>
        <time>2021-04-25T12:54:45.000Z</time>
      </trkpt>
      <trkpt lat="46.21047" lon="4.7333">
        <ele>229.39999389648</ele>
        <time>2021-04-25T12:54:50.000Z</time>
      </trkpt>
      <trkpt lat="46.21034" lon="4.7329">
        <ele>231.60000610352</ele>
        <time>2021-04-25T12:54:57.000Z</time>
      </trkpt>
      <trkpt lat="46.2103" lon="4.73227">
        <ele>232.80000305176</ele>
        <time>2021-04-25T12:55:07.000Z</time>
      </trkpt>
      <trkpt lat="46.21018" lon="4.73122">
        <ele>234.80000305176</ele>
        <time>2021-04-25T12:55:23.000Z</time>
      </trkpt>
      <trkpt lat="46.21005" lon="4.73092">
        <ele>236.39999389648</ele>
        <time>2021-04-25T12:55:29.000Z</time>
      </trkpt>
      <trkpt lat="46.20998" lon="4.731">
        <ele>237.19999694824</ele>
        <time>2021-04-25T12:55:34.000Z</time>
      </trkpt>
      <trkpt lat="46.20989" lon="4.73125">
        <ele>237.80000305176</ele>
        <time>2021-04-25T12:55:39.000Z</time>
      </trkpt>
      <trkpt lat="46.20943" lon="4.73145">
        <ele>239.80000305176</ele>
        <time>2021-04-25T12:55:50.000Z</time>
      </trkpt>
      <trkpt lat="46.20892" lon="4.73167">
        <ele>239.39999389648</ele>
        <time>2021-04-25T12:56:04.000Z</time>
      </trkpt>
      <trkpt lat="46.20871" lon="4.73182">
        <ele>238.80000305176</ele>
        <time>2021-04-25T12:56:09.000Z</time>
      </trkpt>
      <trkpt lat="46.2086" lon="4.73192">
        <ele>238.80000305176</ele>
        <time>2021-04-25T12:56:12.000Z</time>
      </trkpt>
      <trkpt lat="46.20796" lon="4.73231">
        <ele>238</ele>
        <time>2021-04-25T12:56:26.000Z</time>
      </trkpt>
      <trkpt lat="46.20759" lon="4.73231">
        <ele>237</ele>
        <time>2021-04-25T12:56:33.000Z</time>
      </trkpt>
      <trkpt lat="46.20738" lon="4.73231">
        <ele>236.60000610352</ele>
        <time>2021-04-25T12:56:37.000Z</time>
      </trkpt>
      <trkpt lat="46.20715" lon="4.73213">
        <ele>236.19999694824</ele>
        <time>2021-04-25T12:56:43.000Z</time>
      </trkpt>
      <trkpt lat="46.20689" lon="4.73167">
        <ele>236</ele>
        <time>2021-04-25T12:56:54.000Z</time>
      </trkpt>
      <trkpt lat="46.20689" lon="4.73144">
        <ele>236.60000610352</ele>
        <time>2021-04-25T12:56:58.000Z</time>
      </trkpt>
      <trkpt lat="46.20694" lon="4.73122">
        <ele>237.39999389648</ele>
        <time>2021-04-25T12:57:01.000Z</time>
      </trkpt>
      <trkpt lat="46.20726" lon="4.7301">
        <ele>242.39999389648</ele>
        <time>2021-04-25T12:57:18.000Z</time>
      </trkpt>
      <trkpt lat="46.2075" lon="4.72904">
        <ele>246.60000610352</ele>
        <time>2021-04-25T12:57:34.000Z</time>
      </trkpt>
      <trkpt lat="46.20753" lon="4.72878">
        <ele>247.60000610352</ele>
        <time>2021-04-25T12:57:38.000Z</time>
      </trkpt>
      <trkpt lat="46.20763" lon="4.7283">
        <ele>250.19999694824</ele>
        <time>2021-04-25T12:57:47.000Z</time>
      </trkpt>
      <trkpt lat="46.20772" lon="4.72778">
        <ele>252.80000305176</ele>
        <time>2021-04-25T12:57:56.000Z</time>
      </trkpt>
      <trkpt lat="46.20773" lon="4.72772">
        <ele>253</ele>
        <time>2021-04-25T12:57:57.000Z</time>
      </trkpt>
      <trkpt lat="46.20794" lon="4.7274">
        <ele>254.39999389648</ele>
        <time>2021-04-25T12:58:07.000Z</time>
      </trkpt>
      <trkpt lat="46.20797" lon="4.7274">
        <ele>254.60000610352</ele>
        <time>2021-04-25T12:58:08.000Z</time>
      </trkpt>
      <trkpt lat="46.2082" lon="4.7267">
        <ele>256.60000610352</ele>
        <time>2021-04-25T12:58:20.000Z</time>
      </trkpt>
      <trkpt lat="46.2083" lon="4.72632">
        <ele>257.39999389648</ele>
        <time>2021-04-25T12:58:26.000Z</time>
      </trkpt>
      <trkpt lat="46.20846" lon="4.72556">
        <ele>259.79998779297</ele>
        <time>2021-04-25T12:58:38.000Z</time>
      </trkpt>
      <trkpt lat="46.20858" lon="4.72502">
        <ele>261.39999389648</ele>
        <time>2021-04-25T12:58:47.000Z</time>
      </trkpt>
      <trkpt lat="46.20865" lon="4.7247">
        <ele>262.20001220703</ele>
        <time>2021-04-25T12:58:53.000Z</time>
      </trkpt>
      <trkpt lat="46.20855" lon="4.7246">
        <ele>262.39999389648</ele>
        <time>2021-04-25T12:58:58.000Z</time>
      </trkpt>
      <trkpt lat="46.20829" lon="4.72459">
        <ele>262</ele>
        <time>2021-04-25T12:59:05.000Z</time>
      </trkpt>
      <trkpt lat="46.20825" lon="4.72434">
        <ele>263.60000610352</ele>
        <time>2021-04-25T12:59:11.000Z</time>
      </trkpt>
      <trkpt lat="46.20843" lon="4.72355">
        <ele>267.79998779297</ele>
        <time>2021-04-25T12:59:26.000Z</time>
      </trkpt>
      <trkpt lat="46.2083" lon="4.72338">
        <ele>269.20001220703</ele>
        <time>2021-04-25T12:59:31.000Z</time>
      </trkpt>
      <trkpt lat="46.208" lon="4.72316">
        <ele>271.39999389648</ele>
        <time>2021-04-25T12:59:40.000Z</time>
      </trkpt>
      <trkpt lat="46.20809" lon="4.72273">
        <ele>273.60000610352</ele>
        <time>2021-04-25T12:59:50.000Z</time>
      </trkpt>
      <trkpt lat="46.20809" lon="4.72269">
        <ele>273.79998779297</ele>
        <time>2021-04-25T12:59:51.000Z</time>
      </trkpt>
      <trkpt lat="46.20798" lon="4.72262">
        <ele>274.39999389648</ele>
        <time>2021-04-25T12:59:55.000Z</time>
      </trkpt>
      <trkpt lat="46.20717" lon="4.72251">
        <ele>275.79998779297</ele>
        <time>2021-04-25T13:00:13.000Z</time>
      </trkpt>
      <trkpt lat="46.20682" lon="4.72239">
        <ele>275.79998779297</ele>
        <time>2021-04-25T13:00:20.000Z</time>
      </trkpt>
      <trkpt lat="46.20626" lon="4.72207">
        <ele>274.39999389648</ele>
        <time>2021-04-25T13:00:33.000Z</time>
      </trkpt>
      <trkpt lat="46.20569" lon="4.72162">
        <ele>268.39999389648</ele>
        <time>2021-04-25T13:00:42.000Z</time>
      </trkpt>
      <trkpt lat="46.20536" lon="4.72136">
        <ele>265.39999389648</ele>
        <time>2021-04-25T13:00:46.000Z</time>
      </trkpt>
      <trkpt lat="46.20528" lon="4.72129">
        <ele>264.60000610352</ele>
        <time>2021-04-25T13:00:47.000Z</time>
      </trkpt>
      <trkpt lat="46.2049" lon="4.7211">
        <ele>261.39999389648</ele>
        <time>2021-04-25T13:00:51.000Z</time>
      </trkpt>
      <trkpt lat="46.20463" lon="4.7209">
        <ele>260.39999389648</ele>
        <time>2021-04-25T13:00:54.000Z</time>
      </trkpt>
      <trkpt lat="46.20447" lon="4.72074">
        <ele>260.20001220703</ele>
        <time>2021-04-25T13:00:56.000Z</time>
      </trkpt>
      <trkpt lat="46.20424" lon="4.72048">
        <ele>260</ele>
        <time>2021-04-25T13:00:59.000Z</time>
      </trkpt>
      <trkpt lat="46.20417" lon="4.7204">
        <ele>260</ele>
        <time>2021-04-25T13:01:00.000Z</time>
      </trkpt>
      <trkpt lat="46.20402" lon="4.72026">
        <ele>260</ele>
        <time>2021-04-25T13:01:02.000Z</time>
      </trkpt>
      <trkpt lat="46.20377" lon="4.72013">
        <ele>259.39999389648</ele>
        <time>2021-04-25T13:01:05.000Z</time>
      </trkpt>
      <trkpt lat="46.20358" lon="4.72006">
        <ele>258.60000610352</ele>
        <time>2021-04-25T13:01:07.000Z</time>
      </trkpt>
      <trkpt lat="46.2028" lon="4.71944">
        <ele>256.39999389648</ele>
        <time>2021-04-25T13:01:17.000Z</time>
      </trkpt>
      <trkpt lat="46.20175" lon="4.71864">
        <ele>250.80000305176</ele>
        <time>2021-04-25T13:01:29.000Z</time>
      </trkpt>
      <trkpt lat="46.20134" lon="4.71844">
        <ele>250.39999389648</ele>
        <time>2021-04-25T13:01:34.000Z</time>
      </trkpt>
      <trkpt lat="46.2012" lon="4.71848">
        <ele>249.80000305176</ele>
        <time>2021-04-25T13:01:36.000Z</time>
      </trkpt>
      <trkpt lat="46.20081" lon="4.71837">
        <ele>249.39999389648</ele>
        <time>2021-04-25T13:01:43.000Z</time>
      </trkpt>
      <trkpt lat="46.20054" lon="4.71818">
        <ele>249.80000305176</ele>
        <time>2021-04-25T13:01:49.000Z</time>
      </trkpt>
      <trkpt lat="46.19978" lon="4.7176">
        <ele>251</ele>
        <time>2021-04-25T13:02:02.000Z</time>
      </trkpt>
      <trkpt lat="46.19931" lon="4.71745">
        <ele>251.39999389648</ele>
        <time>2021-04-25T13:02:10.000Z</time>
      </trkpt>
      <trkpt lat="46.19893" lon="4.71721">
        <ele>252.60000610352</ele>
        <time>2021-04-25T13:02:18.000Z</time>
      </trkpt>
      <trkpt lat="46.19857" lon="4.71688">
        <ele>253.80000305176</ele>
        <time>2021-04-25T13:02:26.000Z</time>
      </trkpt>
      <trkpt lat="46.19792" lon="4.71625">
        <ele>257.60000610352</ele>
        <time>2021-04-25T13:02:42.000Z</time>
      </trkpt>
      <trkpt lat="46.19772" lon="4.71607">
        <ele>260.20001220703</ele>
        <time>2021-04-25T13:02:47.000Z</time>
      </trkpt>
      <trkpt lat="46.19779" lon="4.71583">
        <ele>262.20001220703</ele>
        <time>2021-04-25T13:02:53.000Z</time>
      </trkpt>
      <trkpt lat="46.19832" lon="4.7151">
        <ele>268.79998779297</ele>
        <time>2021-04-25T13:03:08.000Z</time>
      </trkpt>
      <trkpt lat="46.19851" lon="4.7148">
        <ele>271.79998779297</ele>
        <time>2021-04-25T13:03:14.000Z</time>
      </trkpt>
      <trkpt lat="46.19865" lon="4.71464">
        <ele>273.79998779297</ele>
        <time>2021-04-25T13:03:18.000Z</time>
      </trkpt>
      <trkpt lat="46.19891" lon="4.7144">
        <ele>276.60000610352</ele>
        <time>2021-04-25T13:03:25.000Z</time>
      </trkpt>
      <trkpt lat="46.19902" lon="4.7143">
        <ele>277.39999389648</ele>
        <time>2021-04-25T13:03:28.000Z</time>
      </trkpt>
      <trkpt lat="46.19912" lon="4.71419">
        <ele>278</ele>
        <time>2021-04-25T13:03:31.000Z</time>
      </trkpt>
      <trkpt lat="46.19942" lon="4.7138">
        <ele>281.39999389648</ele>
        <time>2021-04-25T13:03:40.000Z</time>
      </trkpt>
      <trkpt lat="46.19976" lon="4.71333">
        <ele>286.60000610352</ele>
        <time>2021-04-25T13:03:51.000Z</time>
      </trkpt>
      <trkpt lat="46.19979" lon="4.7133">
        <ele>286.79998779297</ele>
        <time>2021-04-25T13:03:52.000Z</time>
      </trkpt>
      <trkpt lat="46.19996" lon="4.71304">
        <ele>289</ele>
        <time>2021-04-25T13:03:58.000Z</time>
      </trkpt>
      <trkpt lat="46.20016" lon="4.71268">
        <ele>293.60000610352</ele>
        <time>2021-04-25T13:04:06.000Z</time>
      </trkpt>
      <trkpt lat="46.20026" lon="4.71252">
        <ele>296.39999389648</ele>
        <time>2021-04-25T13:04:10.000Z</time>
      </trkpt>
      <trkpt lat="46.20046" lon="4.71232">
        <ele>297.20001220703</ele>
        <time>2021-04-25T13:04:17.000Z</time>
      </trkpt>
      <trkpt lat="46.20058" lon="4.71229">
        <ele>296</ele>
        <time>2021-04-25T13:04:20.000Z</time>
      </trkpt>
      <trkpt lat="46.20081" lon="4.71223">
        <ele>296.20001220703</ele>
        <time>2021-04-25T13:04:25.000Z</time>
      </trkpt>
      <trkpt lat="46.2012" lon="4.71205">
        <ele>295.60000610352</ele>
        <time>2021-04-25T13:04:35.000Z</time>
      </trkpt>
      <trkpt lat="46.2017" lon="4.71223">
        <ele>291.20001220703</ele>
        <time>2021-04-25T13:04:46.000Z</time>
      </trkpt>
      <trkpt lat="46.20181" lon="4.71211">
        <ele>292</ele>
        <time>2021-04-25T13:04:50.000Z</time>
      </trkpt>
      <trkpt lat="46.20211" lon="4.71127">
        <ele>299.79998779297</ele>
        <time>2021-04-25T13:05:05.000Z</time>
      </trkpt>
      <trkpt lat="46.2022" lon="4.71099">
        <ele>302.60000610352</ele>
        <time>2021-04-25T13:05:10.000Z</time>
      </trkpt>
      <trkpt lat="46.20232" lon="4.7106">
        <ele>305.79998779297</ele>
        <time>2021-04-25T13:05:17.000Z</time>
      </trkpt>
      <trkpt lat="46.20242" lon="4.71028">
        <ele>308.20001220703</ele>
        <time>2021-04-25T13:05:23.000Z</time>
      </trkpt>
      <trkpt lat="46.20252" lon="4.70995">
        <ele>311.79998779297</ele>
        <time>2021-04-25T13:05:29.000Z</time>
      </trkpt>
      <trkpt lat="46.20256" lon="4.70979">
        <ele>313.60000610352</ele>
        <time>2021-04-25T13:05:32.000Z</time>
      </trkpt>
      <trkpt lat="46.20266" lon="4.70946">
        <ele>315.20001220703</ele>
        <time>2021-04-25T13:05:38.000Z</time>
      </trkpt>
      <trkpt lat="46.20278" lon="4.70908">
        <ele>317</ele>
        <time>2021-04-25T13:05:45.000Z</time>
      </trkpt>
      <trkpt lat="46.20285" lon="4.70874">
        <ele>318.79998779297</ele>
        <time>2021-04-25T13:05:51.000Z</time>
      </trkpt>
      <trkpt lat="46.20288" lon="4.70827">
        <ele>322.20001220703</ele>
        <time>2021-04-25T13:05:59.000Z</time>
      </trkpt>
      <trkpt lat="46.20286" lon="4.70792">
        <ele>325.79998779297</ele>
        <time>2021-04-25T13:06:05.000Z</time>
      </trkpt>
      <trkpt lat="46.20281" lon="4.70755">
        <ele>328.20001220703</ele>
        <time>2021-04-25T13:06:12.000Z</time>
      </trkpt>
      <trkpt lat="46.20278" lon="4.70724">
        <ele>331.20001220703</ele>
        <time>2021-04-25T13:06:18.000Z</time>
      </trkpt>
      <trkpt lat="46.20277" lon="4.70713">
        <ele>332</ele>
        <time>2021-04-25T13:06:20.000Z</time>
      </trkpt>
      <trkpt lat="46.20272" lon="4.7069">
        <ele>333</ele>
        <time>2021-04-25T13:06:25.000Z</time>
      </trkpt>
      <trkpt lat="46.2026" lon="4.70662">
        <ele>334</ele>
        <time>2021-04-25T13:06:32.000Z</time>
      </trkpt>
      <trkpt lat="46.20238" lon="4.70604">
        <ele>336.39999389648</ele>
        <time>2021-04-25T13:06:44.000Z</time>
      </trkpt>
      <trkpt lat="46.20232" lon="4.70525">
        <ele>335.79998779297</ele>
        <time>2021-04-25T13:06:58.000Z</time>
      </trkpt>
      <trkpt lat="46.20241" lon="4.70423">
        <ele>337</ele>
        <time>2021-04-25T13:07:13.000Z</time>
      </trkpt>
      <trkpt lat="46.20246" lon="4.70363">
        <ele>338.20001220703</ele>
        <time>2021-04-25T13:07:24.000Z</time>
      </trkpt>
      <trkpt lat="46.20274" lon="4.70374">
        <ele>338.79998779297</ele>
        <time>2021-04-25T13:07:33.000Z</time>
      </trkpt>
      <trkpt lat="46.20278" lon="4.70376">
        <ele>338.79998779297</ele>
        <time>2021-04-25T13:07:34.000Z</time>
      </trkpt>
      <trkpt lat="46.20312" lon="4.70391">
        <ele>338.79998779297</ele>
        <time>2021-04-25T13:07:43.000Z</time>
      </trkpt>
      <trkpt lat="46.20335" lon="4.70401">
        <ele>337.60000610352</ele>
        <time>2021-04-25T13:07:48.000Z</time>
      </trkpt>
      <trkpt lat="46.20349" lon="4.7039">
        <ele>338.39999389648</ele>
        <time>2021-04-25T13:07:52.000Z</time>
      </trkpt>
      <trkpt lat="46.20368" lon="4.70336">
        <ele>341.20001220703</ele>
        <time>2021-04-25T13:08:02.000Z</time>
      </trkpt>
      <trkpt lat="46.20376" lon="4.70295">
        <ele>344.39999389648</ele>
        <time>2021-04-25T13:08:09.000Z</time>
      </trkpt>
      <trkpt lat="46.2038" lon="4.7027">
        <ele>345.39999389648</ele>
        <time>2021-04-25T13:08:14.000Z</time>
      </trkpt>
      <trkpt lat="46.204" lon="4.70271">
        <ele>346.60000610352</ele>
        <time>2021-04-25T13:08:20.000Z</time>
      </trkpt>
      <trkpt lat="46.20489" lon="4.70309">
        <ele>345</ele>
        <time>2021-04-25T13:08:34.000Z</time>
      </trkpt>
      <trkpt lat="46.20545" lon="4.70327">
        <ele>350</ele>
        <time>2021-04-25T13:08:44.000Z</time>
      </trkpt>
      <trkpt lat="46.20558" lon="4.70353">
        <ele>351.39999389648</ele>
        <time>2021-04-25T13:08:49.000Z</time>
      </trkpt>
      <trkpt lat="46.2056" lon="4.70414">
        <ele>350.60000610352</ele>
        <time>2021-04-25T13:08:58.000Z</time>
      </trkpt>
      <trkpt lat="46.2056" lon="4.7042">
        <ele>350.39999389648</ele>
        <time>2021-04-25T13:08:59.000Z</time>
      </trkpt>
      <trkpt lat="46.20575" lon="4.7045">
        <ele>352.39999389648</ele>
        <time>2021-04-25T13:09:05.000Z</time>
      </trkpt>
      <trkpt lat="46.20632" lon="4.70492">
        <ele>359.60000610352</ele>
        <time>2021-04-25T13:09:19.000Z</time>
      </trkpt>
      <trkpt lat="46.20654" lon="4.70511">
        <ele>361.79998779297</ele>
        <time>2021-04-25T13:09:25.000Z</time>
      </trkpt>
      <trkpt lat="46.20669" lon="4.70524">
        <ele>363.20001220703</ele>
        <time>2021-04-25T13:09:29.000Z</time>
      </trkpt>
      <trkpt lat="46.20697" lon="4.70548">
        <ele>365.79998779297</ele>
        <time>2021-04-25T13:09:36.000Z</time>
      </trkpt>
      <trkpt lat="46.20706" lon="4.70554">
        <ele>366.79998779297</ele>
        <time>2021-04-25T13:09:38.000Z</time>
      </trkpt>
      <trkpt lat="46.20716" lon="4.70559">
        <ele>367.79998779297</ele>
        <time>2021-04-25T13:09:40.000Z</time>
      </trkpt>
      <trkpt lat="46.20735" lon="4.7059">
        <ele>369.20001220703</ele>
        <time>2021-04-25T13:09:46.000Z</time>
      </trkpt>
      <trkpt lat="46.20767" lon="4.70647">
        <ele>371.39999389648</ele>
        <time>2021-04-25T13:09:59.000Z</time>
      </trkpt>
      <trkpt lat="46.20775" lon="4.70654">
        <ele>372.20001220703</ele>
        <time>2021-04-25T13:10:02.000Z</time>
      </trkpt>
      <trkpt lat="46.20785" lon="4.70653">
        <ele>374.39999389648</ele>
        <time>2021-04-25T13:10:06.000Z</time>
      </trkpt>
      <trkpt lat="46.20791" lon="4.70641">
        <ele>376.79998779297</ele>
        <time>2021-04-25T13:10:10.000Z</time>
      </trkpt>
      <trkpt lat="46.20794" lon="4.70635">
        <ele>378</ele>
        <time>2021-04-25T13:10:12.000Z</time>
      </trkpt>
      <trkpt lat="46.20805" lon="4.70614">
        <ele>381.79998779297</ele>
        <time>2021-04-25T13:10:19.000Z</time>
      </trkpt>
      <trkpt lat="46.20813" lon="4.70598">
        <ele>384.60000610352</ele>
        <time>2021-04-25T13:10:24.000Z</time>
      </trkpt>
      <trkpt lat="46.20819" lon="4.70587">
        <ele>385.79998779297</ele>
        <time>2021-04-25T13:10:28.000Z</time>
      </trkpt>
      <trkpt lat="46.20826" lon="4.70574">
        <ele>387.20001220703</ele>
        <time>2021-04-25T13:10:33.000Z</time>
      </trkpt>
      <trkpt lat="46.2084" lon="4.70561">
        <ele>389</ele>
        <time>2021-04-25T13:10:39.000Z</time>
      </trkpt>
      <trkpt lat="46.20853" lon="4.7055">
        <ele>392</ele>
        <time>2021-04-25T13:10:45.000Z</time>
      </trkpt>
      <trkpt lat="46.20856" lon="4.70548">
        <ele>392.39999389648</ele>
        <time>2021-04-25T13:10:46.000Z</time>
      </trkpt>
      <trkpt lat="46.20872" lon="4.70532">
        <ele>395.60000610352</ele>
        <time>2021-04-25T13:10:53.000Z</time>
      </trkpt>
      <trkpt lat="46.20892" lon="4.70515">
        <ele>398.60000610352</ele>
        <time>2021-04-25T13:11:01.000Z</time>
      </trkpt>
      <trkpt lat="46.20924" lon="4.70469">
        <ele>400.20001220703</ele>
        <time>2021-04-25T13:11:16.000Z</time>
      </trkpt>
      <trkpt lat="46.20944" lon="4.70451">
        <ele>401.60000610352</ele>
        <time>2021-04-25T13:11:24.000Z</time>
      </trkpt>
      <trkpt lat="46.20973" lon="4.70426">
        <ele>403</ele>
        <time>2021-04-25T13:11:34.000Z</time>
      </trkpt>
      <trkpt lat="46.2097" lon="4.70356">
        <ele>408.60000610352</ele>
        <time>2021-04-25T13:11:46.000Z</time>
      </trkpt>
      <trkpt lat="46.20971" lon="4.70268">
        <ele>422.20001220703</ele>
        <time>2021-04-25T13:12:02.000Z</time>
      </trkpt>
      <trkpt lat="46.2097" lon="4.70241">
        <ele>427</ele>
        <time>2021-04-25T13:12:07.000Z</time>
      </trkpt>
      <trkpt lat="46.2097" lon="4.70216">
        <ele>431.39999389648</ele>
        <time>2021-04-25T13:12:12.000Z</time>
      </trkpt>
      <trkpt lat="46.20972" lon="4.70183">
        <ele>435.39999389648</ele>
        <time>2021-04-25T13:12:19.000Z</time>
      </trkpt>
      <trkpt lat="46.20971" lon="4.70154">
        <ele>438.79998779297</ele>
        <time>2021-04-25T13:12:25.000Z</time>
      </trkpt>
      <trkpt lat="46.20969" lon="4.70126">
        <ele>441.39999389648</ele>
        <time>2021-04-25T13:12:31.000Z</time>
      </trkpt>
      <trkpt lat="46.20966" lon="4.70104">
        <ele>443</ele>
        <time>2021-04-25T13:12:36.000Z</time>
      </trkpt>
      <trkpt lat="46.20968" lon="4.70093">
        <ele>444.79998779297</ele>
        <time>2021-04-25T13:12:41.000Z</time>
      </trkpt>
      <trkpt lat="46.20984" lon="4.70107">
        <ele>447.20001220703</ele>
        <time>2021-04-25T13:12:48.000Z</time>
      </trkpt>
      <trkpt lat="46.21012" lon="4.70124">
        <ele>449.60000610352</ele>
        <time>2021-04-25T13:12:58.000Z</time>
      </trkpt>
      <trkpt lat="46.2105" lon="4.70115">
        <ele>457.39999389648</ele>
        <time>2021-04-25T13:13:10.000Z</time>
      </trkpt>
      <trkpt lat="46.21085" lon="4.70132">
        <ele>456.39999389648</ele>
        <time>2021-04-25T13:13:21.000Z</time>
      </trkpt>
      <trkpt lat="46.21121" lon="4.70136">
        <ele>455.79998779297</ele>
        <time>2021-04-25T13:13:33.000Z</time>
      </trkpt>
      <trkpt lat="46.21163" lon="4.70121">
        <ele>456.20001220703</ele>
        <time>2021-04-25T13:13:43.000Z</time>
      </trkpt>
      <trkpt lat="46.21202" lon="4.70085">
        <ele>454.60000610352</ele>
        <time>2021-04-25T13:13:56.000Z</time>
      </trkpt>
      <trkpt lat="46.21224" lon="4.7004">
        <ele>458.39999389648</ele>
        <time>2021-04-25T13:14:07.000Z</time>
      </trkpt>
      <trkpt lat="46.21234" lon="4.70013">
        <ele>461</ele>
        <time>2021-04-25T13:14:13.000Z</time>
      </trkpt>
      <trkpt lat="46.21242" lon="4.69998">
        <ele>461.60000610352</ele>
        <time>2021-04-25T13:14:17.000Z</time>
      </trkpt>
      <trkpt lat="46.21257" lon="4.69957">
        <ele>465.79998779297</ele>
        <time>2021-04-25T13:14:28.000Z</time>
      </trkpt>
      <trkpt lat="46.21261" lon="4.6995">
        <ele>466.20001220703</ele>
        <time>2021-04-25T13:14:30.000Z</time>
      </trkpt>
      <trkpt lat="46.21268" lon="4.69923">
        <ele>468.39999389648</ele>
        <time>2021-04-25T13:14:36.000Z</time>
      </trkpt>
      <trkpt lat="46.21275" lon="4.69905">
        <ele>469.79998779297</ele>
        <time>2021-04-25T13:14:40.000Z</time>
      </trkpt>
      <trkpt lat="46.21292" lon="4.69849">
        <ele>474</ele>
        <time>2021-04-25T13:14:51.000Z</time>
      </trkpt>
      <trkpt lat="46.21302" lon="4.69832">
        <ele>474.60000610352</ele>
        <time>2021-04-25T13:14:55.000Z</time>
      </trkpt>
      <trkpt lat="46.2132" lon="4.69798">
        <ele>475.39999389648</ele>
        <time>2021-04-25T13:15:04.000Z</time>
      </trkpt>
      <trkpt lat="46.21346" lon="4.69755">
        <ele>476.60000610352</ele>
        <time>2021-04-25T13:15:14.000Z</time>
      </trkpt>
      <trkpt lat="46.21372" lon="4.69707">
        <ele>476.79998779297</ele>
        <time>2021-04-25T13:15:25.000Z</time>
      </trkpt>
      <trkpt lat="46.21401" lon="4.69668">
        <ele>475.79998779297</ele>
        <time>2021-04-25T13:15:34.000Z</time>
      </trkpt>
      <trkpt lat="46.21412" lon="4.69652">
        <ele>476.79998779297</ele>
        <time>2021-04-25T13:15:38.000Z</time>
      </trkpt>
      <trkpt lat="46.21429" lon="4.69628">
        <ele>480</ele>
        <time>2021-04-25T13:15:43.000Z</time>
      </trkpt>
      <trkpt lat="46.21471" lon="4.69598">
        <ele>482.20001220703</ele>
        <time>2021-04-25T13:15:54.000Z</time>
      </trkpt>
      <trkpt lat="46.21502" lon="4.69575">
        <ele>485</ele>
        <time>2021-04-25T13:16:03.000Z</time>
      </trkpt>
      <trkpt lat="46.21543" lon="4.6957">
        <ele>484.39999389648</ele>
        <time>2021-04-25T13:16:14.000Z</time>
      </trkpt>
      <trkpt lat="46.21581" lon="4.69575">
        <ele>483.79998779297</ele>
        <time>2021-04-25T13:16:21.000Z</time>
      </trkpt>
      <trkpt lat="46.21598" lon="4.69584">
        <ele>483.39999389648</ele>
        <time>2021-04-25T13:16:25.000Z</time>
      </trkpt>
      <trkpt lat="46.21645" lon="4.69619">
        <ele>480.20001220703</ele>
        <time>2021-04-25T13:16:36.000Z</time>
      </trkpt>
      <trkpt lat="46.21661" lon="4.69653">
        <ele>477.39999389648</ele>
        <time>2021-04-25T13:16:43.000Z</time>
      </trkpt>
      <trkpt lat="46.21672" lon="4.69666">
        <ele>476.60000610352</ele>
        <time>2021-04-25T13:16:46.000Z</time>
      </trkpt>
      <trkpt lat="46.21727" lon="4.69697">
        <ele>476.39999389648</ele>
        <time>2021-04-25T13:16:58.000Z</time>
      </trkpt>
      <trkpt lat="46.2174" lon="4.69727">
        <ele>474.79998779297</ele>
        <time>2021-04-25T13:17:05.000Z</time>
      </trkpt>
      <trkpt lat="46.21742" lon="4.69729">
        <ele>474.79998779297</ele>
        <time>2021-04-25T13:17:06.000Z</time>
      </trkpt>
      <trkpt lat="46.21747" lon="4.69726">
        <ele>475</ele>
        <time>2021-04-25T13:17:08.000Z</time>
      </trkpt>
      <trkpt lat="46.21749" lon="4.69723">
        <ele>475.20001220703</ele>
        <time>2021-04-25T13:17:09.000Z</time>
      </trkpt>
      <trkpt lat="46.21752" lon="4.6972">
        <ele>474.79998779297</ele>
        <time>2021-04-25T13:17:10.000Z</time>
      </trkpt>
      <trkpt lat="46.21787" lon="4.69677">
        <ele>472.79998779297</ele>
        <time>2021-04-25T13:17:23.000Z</time>
      </trkpt>
      <trkpt lat="46.21822" lon="4.69638">
        <ele>467.39999389648</ele>
        <time>2021-04-25T13:17:36.000Z</time>
      </trkpt>
      <trkpt lat="46.21837" lon="4.69611">
        <ele>463.60000610352</ele>
        <time>2021-04-25T13:17:43.000Z</time>
      </trkpt>
      <trkpt lat="46.21838" lon="4.69598">
        <ele>463.79998779297</ele>
        <time>2021-04-25T13:17:45.000Z</time>
      </trkpt>
      <trkpt lat="46.21835" lon="4.69555">
        <ele>464.39999389648</ele>
        <time>2021-04-25T13:17:52.000Z</time>
      </trkpt>
      <trkpt lat="46.21835" lon="4.69542">
        <ele>462.60000610352</ele>
        <time>2021-04-25T13:17:54.000Z</time>
      </trkpt>
      <trkpt lat="46.21832" lon="4.69471">
        <ele>453.20001220703</ele>
        <time>2021-04-25T13:18:06.000Z</time>
      </trkpt>
      <trkpt lat="46.21831" lon="4.69465">
        <ele>452.60000610352</ele>
        <time>2021-04-25T13:18:11.000Z</time>
      </trkpt>
      <trkpt lat="46.21826" lon="4.69457">
        <ele>453</ele>
        <time>2021-04-25T13:20:02.000Z</time>
      </trkpt>
      <trkpt lat="46.21823" lon="4.6945">
        <ele>453.20001220703</ele>
        <time>2021-04-25T13:20:04.000Z</time>
      </trkpt>
      <trkpt lat="46.21792" lon="4.69385">
        <ele>456.79998779297</ele>
        <time>2021-04-25T13:20:18.000Z</time>
      </trkpt>
      <trkpt lat="46.21771" lon="4.69326">
        <ele>455.79998779297</ele>
        <time>2021-04-25T13:20:29.000Z</time>
      </trkpt>
      <trkpt lat="46.21769" lon="4.69312">
        <ele>455.79998779297</ele>
        <time>2021-04-25T13:20:31.000Z</time>
      </trkpt>
      <trkpt lat="46.21769" lon="4.6929">
        <ele>454.79998779297</ele>
        <time>2021-04-25T13:20:34.000Z</time>
      </trkpt>
      <trkpt lat="46.21769" lon="4.69275">
        <ele>453</ele>
        <time>2021-04-25T13:20:36.000Z</time>
      </trkpt>
      <trkpt lat="46.21742" lon="4.69233">
        <ele>452</ele>
        <time>2021-04-25T13:20:43.000Z</time>
      </trkpt>
      <trkpt lat="46.21712" lon="4.6922">
        <ele>453.60000610352</ele>
        <time>2021-04-25T13:20:49.000Z</time>
      </trkpt>
      <trkpt lat="46.2166" lon="4.69206">
        <ele>454.60000610352</ele>
        <time>2021-04-25T13:20:58.000Z</time>
      </trkpt>
      <trkpt lat="46.21634" lon="4.69196">
        <ele>455.39999389648</ele>
        <time>2021-04-25T13:21:03.000Z</time>
      </trkpt>
      <trkpt lat="46.21624" lon="4.69193">
        <ele>456.60000610352</ele>
        <time>2021-04-25T13:21:05.000Z</time>
      </trkpt>
      <trkpt lat="46.21609" lon="4.69186">
        <ele>457.79998779297</ele>
        <time>2021-04-25T13:21:08.000Z</time>
      </trkpt>
      <trkpt lat="46.21575" lon="4.69138">
        <ele>455</ele>
        <time>2021-04-25T13:21:16.000Z</time>
      </trkpt>
      <trkpt lat="46.21569" lon="4.69125">
        <ele>453.79998779297</ele>
        <time>2021-04-25T13:21:18.000Z</time>
      </trkpt>
      <trkpt lat="46.21557" lon="4.69096">
        <ele>451.60000610352</ele>
        <time>2021-04-25T13:21:22.000Z</time>
      </trkpt>
      <trkpt lat="46.21553" lon="4.69082">
        <ele>450.60000610352</ele>
        <time>2021-04-25T13:21:24.000Z</time>
      </trkpt>
      <trkpt lat="46.21542" lon="4.69056">
        <ele>449.79998779297</ele>
        <time>2021-04-25T13:21:28.000Z</time>
      </trkpt>
      <trkpt lat="46.21512" lon="4.68962">
        <ele>445.20001220703</ele>
        <time>2021-04-25T13:21:41.000Z</time>
      </trkpt>
      <trkpt lat="46.21506" lon="4.68944">
        <ele>444</ele>
        <time>2021-04-25T13:21:43.000Z</time>
      </trkpt>
      <trkpt lat="46.21491" lon="4.68912">
        <ele>442</ele>
        <time>2021-04-25T13:21:47.000Z</time>
      </trkpt>
      <trkpt lat="46.21477" lon="4.68895">
        <ele>442.79998779297</ele>
        <time>2021-04-25T13:21:50.000Z</time>
      </trkpt>
      <trkpt lat="46.21468" lon="4.68888">
        <ele>443.39999389648</ele>
        <time>2021-04-25T13:21:52.000Z</time>
      </trkpt>
      <trkpt lat="46.21454" lon="4.68878">
        <ele>444.20001220703</ele>
        <time>2021-04-25T13:21:55.000Z</time>
      </trkpt>
      <trkpt lat="46.21438" lon="4.68865">
        <ele>445</ele>
        <time>2021-04-25T13:21:58.000Z</time>
      </trkpt>
      <trkpt lat="46.21399" lon="4.68812">
        <ele>446.60000610352</ele>
        <time>2021-04-25T13:22:07.000Z</time>
      </trkpt>
      <trkpt lat="46.21392" lon="4.68784">
        <ele>444.79998779297</ele>
        <time>2021-04-25T13:22:11.000Z</time>
      </trkpt>
      <trkpt lat="46.21389" lon="4.6875">
        <ele>445.20001220703</ele>
        <time>2021-04-25T13:22:15.000Z</time>
      </trkpt>
      <trkpt lat="46.21394" lon="4.68722">
        <ele>443.39999389648</ele>
        <time>2021-04-25T13:22:19.000Z</time>
      </trkpt>
      <trkpt lat="46.21395" lon="4.68683">
        <ele>442.20001220703</ele>
        <time>2021-04-25T13:22:24.000Z</time>
      </trkpt>
      <trkpt lat="46.21394" lon="4.68667">
        <ele>442</ele>
        <time>2021-04-25T13:22:26.000Z</time>
      </trkpt>
      <trkpt lat="46.21382" lon="4.68613">
        <ele>442</ele>
        <time>2021-04-25T13:22:33.000Z</time>
      </trkpt>
      <trkpt lat="46.21367" lon="4.68518">
        <ele>440.39999389648</ele>
        <time>2021-04-25T13:22:45.000Z</time>
      </trkpt>
      <trkpt lat="46.2136" lon="4.68487">
        <ele>438.20001220703</ele>
        <time>2021-04-25T13:22:49.000Z</time>
      </trkpt>
      <trkpt lat="46.21354" lon="4.68473">
        <ele>437.60000610352</ele>
        <time>2021-04-25T13:22:51.000Z</time>
      </trkpt>
      <trkpt lat="46.21304" lon="4.68421">
        <ele>437.20001220703</ele>
        <time>2021-04-25T13:23:02.000Z</time>
      </trkpt>
      <trkpt lat="46.21225" lon="4.68318">
        <ele>432.79998779297</ele>
        <time>2021-04-25T13:23:21.000Z</time>
      </trkpt>
      <trkpt lat="46.2121" lon="4.68297">
        <ele>431.39999389648</ele>
        <time>2021-04-25T13:23:25.000Z</time>
      </trkpt>
      <trkpt lat="46.21181" lon="4.68285">
        <ele>430.79998779297</ele>
        <time>2021-04-25T13:23:31.000Z</time>
      </trkpt>
      <trkpt lat="46.21133" lon="4.68289">
        <ele>431.20001220703</ele>
        <time>2021-04-25T13:23:39.000Z</time>
      </trkpt>
      <trkpt lat="46.21031" lon="4.68338">
        <ele>429</ele>
        <time>2021-04-25T13:23:58.000Z</time>
      </trkpt>
      <trkpt lat="46.20951" lon="4.68404">
        <ele>431.20001220703</ele>
        <time>2021-04-25T13:24:15.000Z</time>
      </trkpt>
      <trkpt lat="46.20938" lon="4.68414">
        <ele>430.79998779297</ele>
        <time>2021-04-25T13:24:18.000Z</time>
      </trkpt>
      <trkpt lat="46.20929" lon="4.68419">
        <ele>430.39999389648</ele>
        <time>2021-04-25T13:24:20.000Z</time>
      </trkpt>
      <trkpt lat="46.20865" lon="4.68433">
        <ele>428</ele>
        <time>2021-04-25T13:24:32.000Z</time>
      </trkpt>
      <trkpt lat="46.20842" lon="4.68427">
        <ele>427.20001220703</ele>
        <time>2021-04-25T13:24:37.000Z</time>
      </trkpt>
      <trkpt lat="46.20822" lon="4.6841">
        <ele>425.60000610352</ele>
        <time>2021-04-25T13:24:41.000Z</time>
      </trkpt>
      <trkpt lat="46.20778" lon="4.68363">
        <ele>426</ele>
        <time>2021-04-25T13:24:51.000Z</time>
      </trkpt>
      <trkpt lat="46.2071" lon="4.68297">
        <ele>430.60000610352</ele>
        <time>2021-04-25T13:25:07.000Z</time>
      </trkpt>
      <trkpt lat="46.20694" lon="4.68288">
        <ele>432.20001220703</ele>
        <time>2021-04-25T13:25:12.000Z</time>
      </trkpt>
      <trkpt lat="46.20676" lon="4.68286">
        <ele>434.20001220703</ele>
        <time>2021-04-25T13:25:16.000Z</time>
      </trkpt>
      <trkpt lat="46.20675" lon="4.68273">
        <ele>434.79998779297</ele>
        <time>2021-04-25T13:25:20.000Z</time>
      </trkpt>
      <trkpt lat="46.20697" lon="4.68227">
        <ele>433.20001220703</ele>
        <time>2021-04-25T13:25:28.000Z</time>
      </trkpt>
      <trkpt lat="46.20688" lon="4.68176">
        <ele>436.60000610352</ele>
        <time>2021-04-25T13:25:36.000Z</time>
      </trkpt>
      <trkpt lat="46.20683" lon="4.68172">
        <ele>437.20001220703</ele>
        <time>2021-04-25T13:25:37.000Z</time>
      </trkpt>
      <trkpt lat="46.2067" lon="4.68162">
        <ele>439.60000610352</ele>
        <time>2021-04-25T13:25:40.000Z</time>
      </trkpt>
      <trkpt lat="46.20636" lon="4.68138">
        <ele>444.60000610352</ele>
        <time>2021-04-25T13:25:48.000Z</time>
      </trkpt>
      <trkpt lat="46.20616" lon="4.68124">
        <ele>447.20001220703</ele>
        <time>2021-04-25T13:25:53.000Z</time>
      </trkpt>
      <trkpt lat="46.20589" lon="4.68111">
        <ele>450.60000610352</ele>
        <time>2021-04-25T13:25:59.000Z</time>
      </trkpt>
      <trkpt lat="46.20549" lon="4.68091">
        <ele>456.20001220703</ele>
        <time>2021-04-25T13:26:08.000Z</time>
      </trkpt>
      <trkpt lat="46.20541" lon="4.68088">
        <ele>457.39999389648</ele>
        <time>2021-04-25T13:26:10.000Z</time>
      </trkpt>
      <trkpt lat="46.20514" lon="4.68076">
        <ele>461.20001220703</ele>
        <time>2021-04-25T13:26:17.000Z</time>
      </trkpt>
      <trkpt lat="46.20494" lon="4.6807">
        <ele>463.39999389648</ele>
        <time>2021-04-25T13:26:22.000Z</time>
      </trkpt>
      <trkpt lat="46.20479" lon="4.68064">
        <ele>465.39999389648</ele>
        <time>2021-04-25T13:26:26.000Z</time>
      </trkpt>
      <trkpt lat="46.20461" lon="4.68052">
        <ele>465.79998779297</ele>
        <time>2021-04-25T13:26:31.000Z</time>
      </trkpt>
      <trkpt lat="46.20445" lon="4.68036">
        <ele>466.60000610352</ele>
        <time>2021-04-25T13:26:36.000Z</time>
      </trkpt>
      <trkpt lat="46.20432" lon="4.68019">
        <ele>466.60000610352</ele>
        <time>2021-04-25T13:26:40.000Z</time>
      </trkpt>
      <trkpt lat="46.20418" lon="4.67997">
        <ele>467</ele>
        <time>2021-04-25T13:26:45.000Z</time>
      </trkpt>
      <trkpt lat="46.20382" lon="4.67894">
        <ele>469.60000610352</ele>
        <time>2021-04-25T13:27:01.000Z</time>
      </trkpt>
      <trkpt lat="46.20368" lon="4.67852">
        <ele>471.20001220703</ele>
        <time>2021-04-25T13:27:07.000Z</time>
      </trkpt>
      <trkpt lat="46.20342" lon="4.67822">
        <ele>471.20001220703</ele>
        <time>2021-04-25T13:27:13.000Z</time>
      </trkpt>
      <trkpt lat="46.20302" lon="4.67802">
        <ele>468.39999389648</ele>
        <time>2021-04-25T13:27:23.000Z</time>
      </trkpt>
      <trkpt lat="46.20241" lon="4.67745">
        <ele>469.39999389648</ele>
        <time>2021-04-25T13:27:39.000Z</time>
      </trkpt>
      <trkpt lat="46.20203" lon="4.6769">
        <ele>469.39999389648</ele>
        <time>2021-04-25T13:27:49.000Z</time>
      </trkpt>
      <trkpt lat="46.20178" lon="4.67572">
        <ele>467</ele>
        <time>2021-04-25T13:28:06.000Z</time>
      </trkpt>
      <trkpt lat="46.20149" lon="4.67456">
        <ele>462.79998779297</ele>
        <time>2021-04-25T13:28:23.000Z</time>
      </trkpt>
      <trkpt lat="46.20128" lon="4.67406">
        <ele>462.20001220703</ele>
        <time>2021-04-25T13:28:32.000Z</time>
      </trkpt>
      <trkpt lat="46.2012" lon="4.67363">
        <ele>461.79998779297</ele>
        <time>2021-04-25T13:28:41.000Z</time>
      </trkpt>
      <trkpt lat="46.20117" lon="4.67322">
        <ele>463.60000610352</ele>
        <time>2021-04-25T13:28:47.000Z</time>
      </trkpt>
      <trkpt lat="46.20115" lon="4.67303">
        <ele>464</ele>
        <time>2021-04-25T13:28:50.000Z</time>
      </trkpt>
      <trkpt lat="46.20091" lon="4.67268">
        <ele>468.60000610352</ele>
        <time>2021-04-25T13:28:58.000Z</time>
      </trkpt>
      <trkpt lat="46.19998" lon="4.6723">
        <ele>476.39999389648</ele>
        <time>2021-04-25T13:29:17.000Z</time>
      </trkpt>
      <trkpt lat="46.19942" lon="4.67184">
        <ele>481.39999389648</ele>
        <time>2021-04-25T13:29:30.000Z</time>
      </trkpt>
      <trkpt lat="46.19938" lon="4.6718">
        <ele>482</ele>
        <time>2021-04-25T13:29:31.000Z</time>
      </trkpt>
      <trkpt lat="46.19917" lon="4.67161">
        <ele>484.39999389648</ele>
        <time>2021-04-25T13:29:36.000Z</time>
      </trkpt>
      <trkpt lat="46.19908" lon="4.67155">
        <ele>485</ele>
        <time>2021-04-25T13:29:38.000Z</time>
      </trkpt>
      <trkpt lat="46.19848" lon="4.67141">
        <ele>489.20001220703</ele>
        <time>2021-04-25T13:29:51.000Z</time>
      </trkpt>
      <trkpt lat="46.19824" lon="4.67148">
        <ele>488.20001220703</ele>
        <time>2021-04-25T13:29:57.000Z</time>
      </trkpt>
      <trkpt lat="46.19796" lon="4.67167">
        <ele>486</ele>
        <time>2021-04-25T13:30:04.000Z</time>
      </trkpt>
      <trkpt lat="46.19736" lon="4.67194">
        <ele>489.79998779297</ele>
        <time>2021-04-25T13:30:16.000Z</time>
      </trkpt>
      <trkpt lat="46.19673" lon="4.67224">
        <ele>486.39999389648</ele>
        <time>2021-04-25T13:30:30.000Z</time>
      </trkpt>
      <trkpt lat="46.19621" lon="4.67244">
        <ele>484.20001220703</ele>
        <time>2021-04-25T13:30:43.000Z</time>
      </trkpt>
      <trkpt lat="46.19583" lon="4.67265">
        <ele>484</ele>
        <time>2021-04-25T13:30:56.000Z</time>
      </trkpt>
      <trkpt lat="46.1957" lon="4.67268">
        <ele>484.79998779297</ele>
        <time>2021-04-25T13:31:06.000Z</time>
      </trkpt>
      <trkpt lat="46.19565" lon="4.67271">
        <ele>485.20001220703</ele>
        <time>2021-04-25T13:33:16.000Z</time>
      </trkpt>
      <trkpt lat="46.19515" lon="4.67284">
        <ele>483.20001220703</ele>
        <time>2021-04-25T13:33:30.000Z</time>
      </trkpt>
      <trkpt lat="46.19468" lon="4.67306">
        <ele>479.60000610352</ele>
        <time>2021-04-25T13:33:41.000Z</time>
      </trkpt>
      <trkpt lat="46.19438" lon="4.67303">
        <ele>477.60000610352</ele>
        <time>2021-04-25T13:33:47.000Z</time>
      </trkpt>
      <trkpt lat="46.19418" lon="4.67292">
        <ele>477.20001220703</ele>
        <time>2021-04-25T13:33:51.000Z</time>
      </trkpt>
      <trkpt lat="46.19402" lon="4.67288">
        <ele>476.39999389648</ele>
        <time>2021-04-25T13:33:55.000Z</time>
      </trkpt>
      <trkpt lat="46.19384" lon="4.67289">
        <ele>475</ele>
        <time>2021-04-25T13:33:59.000Z</time>
      </trkpt>
      <trkpt lat="46.19356" lon="4.67299">
        <ele>472.60000610352</ele>
        <time>2021-04-25T13:34:04.000Z</time>
      </trkpt>
      <trkpt lat="46.1935" lon="4.67302">
        <ele>472</ele>
        <time>2021-04-25T13:34:05.000Z</time>
      </trkpt>
      <trkpt lat="46.19315" lon="4.67331">
        <ele>469.20001220703</ele>
        <time>2021-04-25T13:34:11.000Z</time>
      </trkpt>
      <trkpt lat="46.19298" lon="4.67346">
        <ele>468.79998779297</ele>
        <time>2021-04-25T13:34:14.000Z</time>
      </trkpt>
      <trkpt lat="46.1925" lon="4.67382">
        <ele>463.39999389648</ele>
        <time>2021-04-25T13:34:23.000Z</time>
      </trkpt>
      <trkpt lat="46.19229" lon="4.67402">
        <ele>461.79998779297</ele>
        <time>2021-04-25T13:34:27.000Z</time>
      </trkpt>
      <trkpt lat="46.19217" lon="4.6742">
        <ele>461.20001220703</ele>
        <time>2021-04-25T13:34:30.000Z</time>
      </trkpt>
      <trkpt lat="46.19165" lon="4.6748">
        <ele>452.79998779297</ele>
        <time>2021-04-25T13:34:41.000Z</time>
      </trkpt>
      <trkpt lat="46.19135" lon="4.67528">
        <ele>449.79998779297</ele>
        <time>2021-04-25T13:34:48.000Z</time>
      </trkpt>
      <trkpt lat="46.1912" lon="4.67552">
        <ele>448.20001220703</ele>
        <time>2021-04-25T13:34:51.000Z</time>
      </trkpt>
      <trkpt lat="46.19103" lon="4.67601">
        <ele>446.60000610352</ele>
        <time>2021-04-25T13:34:56.000Z</time>
      </trkpt>
      <trkpt lat="46.19098" lon="4.67643">
        <ele>443.39999389648</ele>
        <time>2021-04-25T13:35:00.000Z</time>
      </trkpt>
      <trkpt lat="46.19096" lon="4.67681">
        <ele>439.39999389648</ele>
        <time>2021-04-25T13:35:04.000Z</time>
      </trkpt>
      <trkpt lat="46.19075" lon="4.67747">
        <ele>431.39999389648</ele>
        <time>2021-04-25T13:35:12.000Z</time>
      </trkpt>
      <trkpt lat="46.19079" lon="4.67808">
        <ele>421.60000610352</ele>
        <time>2021-04-25T13:35:18.000Z</time>
      </trkpt>
      <trkpt lat="46.19088" lon="4.67825">
        <ele>417.60000610352</ele>
        <time>2021-04-25T13:35:20.000Z</time>
      </trkpt>
      <trkpt lat="46.19096" lon="4.67849">
        <ele>413</ele>
        <time>2021-04-25T13:35:23.000Z</time>
      </trkpt>
      <trkpt lat="46.19096" lon="4.67855">
        <ele>412.20001220703</ele>
        <time>2021-04-25T13:35:24.000Z</time>
      </trkpt>
      <trkpt lat="46.19093" lon="4.67866">
        <ele>411.79998779297</ele>
        <time>2021-04-25T13:35:26.000Z</time>
      </trkpt>
      <trkpt lat="46.19085" lon="4.6788">
        <ele>410.60000610352</ele>
        <time>2021-04-25T13:35:29.000Z</time>
      </trkpt>
      <trkpt lat="46.19077" lon="4.6789">
        <ele>410.39999389648</ele>
        <time>2021-04-25T13:35:32.000Z</time>
      </trkpt>
      <trkpt lat="46.19054" lon="4.67908">
        <ele>410.60000610352</ele>
        <time>2021-04-25T13:35:40.000Z</time>
      </trkpt>
      <trkpt lat="46.19048" lon="4.67923">
        <ele>407.20001220703</ele>
        <time>2021-04-25T13:35:45.000Z</time>
      </trkpt>
      <trkpt lat="46.19046" lon="4.67929">
        <ele>406</ele>
        <time>2021-04-25T13:35:47.000Z</time>
      </trkpt>
      <trkpt lat="46.19041" lon="4.67946">
        <ele>402.79998779297</ele>
        <time>2021-04-25T13:35:52.000Z</time>
      </trkpt>
      <trkpt lat="46.19031" lon="4.67979">
        <ele>395.79998779297</ele>
        <time>2021-04-25T13:35:58.000Z</time>
      </trkpt>
      <trkpt lat="46.19027" lon="4.67996">
        <ele>392.20001220703</ele>
        <time>2021-04-25T13:36:00.000Z</time>
      </trkpt>
      <trkpt lat="46.19023" lon="4.68034">
        <ele>388</ele>
        <time>2021-04-25T13:36:07.000Z</time>
      </trkpt>
      <trkpt lat="46.19023" lon="4.68036">
        <ele>387.79998779297</ele>
        <time>2021-04-25T13:36:10.000Z</time>
      </trkpt>
      <trkpt lat="46.19023" lon="4.68036">
        <ele>387.79998779297</ele>
        <time>2021-04-25T13:36:12.000Z</time>
      </trkpt>
      <trkpt lat="46.19023" lon="4.68044">
        <ele>386</ele>
        <time>2021-04-25T13:37:03.000Z</time>
      </trkpt>
      <trkpt lat="46.19022" lon="4.68074">
        <ele>378.79998779297</ele>
        <time>2021-04-25T13:37:07.000Z</time>
      </trkpt>
      <trkpt lat="46.19021" lon="4.68083">
        <ele>377.39999389648</ele>
        <time>2021-04-25T13:37:08.000Z</time>
      </trkpt>
      <trkpt lat="46.1901" lon="4.68132">
        <ele>374.39999389648</ele>
        <time>2021-04-25T13:37:14.000Z</time>
      </trkpt>
      <trkpt lat="46.19005" lon="4.68146">
        <ele>373</ele>
        <time>2021-04-25T13:37:16.000Z</time>
      </trkpt>
      <trkpt lat="46.18976" lon="4.68199">
        <ele>370.20001220703</ele>
        <time>2021-04-25T13:37:22.000Z</time>
      </trkpt>
      <trkpt lat="46.1897" lon="4.68209">
        <ele>368.60000610352</ele>
        <time>2021-04-25T13:37:23.000Z</time>
      </trkpt>
      <trkpt lat="46.18959" lon="4.68227">
        <ele>365</ele>
        <time>2021-04-25T13:37:25.000Z</time>
      </trkpt>
      <trkpt lat="46.18936" lon="4.6825">
        <ele>360.60000610352</ele>
        <time>2021-04-25T13:37:29.000Z</time>
      </trkpt>
      <trkpt lat="46.18922" lon="4.68251">
        <ele>361</ele>
        <time>2021-04-25T13:37:31.000Z</time>
      </trkpt>
      <trkpt lat="46.18906" lon="4.68248">
        <ele>361.79998779297</ele>
        <time>2021-04-25T13:37:33.000Z</time>
      </trkpt>
      <trkpt lat="46.18877" lon="4.68224">
        <ele>360.39999389648</ele>
        <time>2021-04-25T13:37:38.000Z</time>
      </trkpt>
      <trkpt lat="46.18867" lon="4.68184">
        <ele>361.20001220703</ele>
        <time>2021-04-25T13:37:42.000Z</time>
      </trkpt>
      <trkpt lat="46.18866" lon="4.68174">
        <ele>361.60000610352</ele>
        <time>2021-04-25T13:37:43.000Z</time>
      </trkpt>
      <trkpt lat="46.18863" lon="4.6815">
        <ele>362</ele>
        <time>2021-04-25T13:37:47.000Z</time>
      </trkpt>
      <trkpt lat="46.18853" lon="4.68154">
        <ele>359.79998779297</ele>
        <time>2021-04-25T13:37:52.000Z</time>
      </trkpt>
      <trkpt lat="46.18851" lon="4.68159">
        <ele>359.20001220703</ele>
        <time>2021-04-25T13:37:53.000Z</time>
      </trkpt>
      <trkpt lat="46.1882" lon="4.68253">
        <ele>347.60000610352</ele>
        <time>2021-04-25T13:38:02.000Z</time>
      </trkpt>
      <trkpt lat="46.18813" lon="4.68279">
        <ele>345.60000610352</ele>
        <time>2021-04-25T13:38:04.000Z</time>
      </trkpt>
      <trkpt lat="46.18791" lon="4.68327">
        <ele>337.79998779297</ele>
        <time>2021-04-25T13:38:08.000Z</time>
      </trkpt>
      <trkpt lat="46.18778" lon="4.68349">
        <ele>334.39999389648</ele>
        <time>2021-04-25T13:38:10.000Z</time>
      </trkpt>
      <trkpt lat="46.18764" lon="4.68373">
        <ele>332.20001220703</ele>
        <time>2021-04-25T13:38:13.000Z</time>
      </trkpt>
      <trkpt lat="46.18761" lon="4.68378">
        <ele>331.39999389648</ele>
        <time>2021-04-25T13:38:14.000Z</time>
      </trkpt>
      <trkpt lat="46.18755" lon="4.68389">
        <ele>329.60000610352</ele>
        <time>2021-04-25T13:38:16.000Z</time>
      </trkpt>
      <trkpt lat="46.18742" lon="4.68411">
        <ele>327.79998779297</ele>
        <time>2021-04-25T13:38:19.000Z</time>
      </trkpt>
      <trkpt lat="46.18737" lon="4.68419">
        <ele>327.20001220703</ele>
        <time>2021-04-25T13:38:20.000Z</time>
      </trkpt>
      <trkpt lat="46.18731" lon="4.68427">
        <ele>326.60000610352</ele>
        <time>2021-04-25T13:38:21.000Z</time>
      </trkpt>
      <trkpt lat="46.18722" lon="4.68448">
        <ele>324.60000610352</ele>
        <time>2021-04-25T13:38:23.000Z</time>
      </trkpt>
      <trkpt lat="46.1871" lon="4.68496">
        <ele>318.60000610352</ele>
        <time>2021-04-25T13:38:27.000Z</time>
      </trkpt>
      <trkpt lat="46.18689" lon="4.68526">
        <ele>314.79998779297</ele>
        <time>2021-04-25T13:38:32.000Z</time>
      </trkpt>
      <trkpt lat="46.18681" lon="4.68524">
        <ele>314.60000610352</ele>
        <time>2021-04-25T13:38:33.000Z</time>
      </trkpt>
      <trkpt lat="46.18658" lon="4.68511">
        <ele>314.20001220703</ele>
        <time>2021-04-25T13:38:36.000Z</time>
      </trkpt>
      <trkpt lat="46.18623" lon="4.68496">
        <ele>310.60000610352</ele>
        <time>2021-04-25T13:38:40.000Z</time>
      </trkpt>
      <trkpt lat="46.18562" lon="4.68487">
        <ele>302.60000610352</ele>
        <time>2021-04-25T13:38:46.000Z</time>
      </trkpt>
      <trkpt lat="46.18545" lon="4.68486">
        <ele>301.39999389648</ele>
        <time>2021-04-25T13:38:48.000Z</time>
      </trkpt>
      <trkpt lat="46.18539" lon="4.68487">
        <ele>301</ele>
        <time>2021-04-25T13:38:49.000Z</time>
      </trkpt>
      <trkpt lat="46.18533" lon="4.68488">
        <ele>300.60000610352</ele>
        <time>2021-04-25T13:38:50.000Z</time>
      </trkpt>
      <trkpt lat="46.18529" lon="4.68488">
        <ele>300.20001220703</ele>
        <time>2021-04-25T13:38:51.000Z</time>
      </trkpt>
      <trkpt lat="46.18521" lon="4.68473">
        <ele>299.79998779297</ele>
        <time>2021-04-25T13:38:55.000Z</time>
      </trkpt>
      <trkpt lat="46.18516" lon="4.68411">
        <ele>302.20001220703</ele>
        <time>2021-04-25T13:39:03.000Z</time>
      </trkpt>
      <trkpt lat="46.18498" lon="4.68378">
        <ele>302.60000610352</ele>
        <time>2021-04-25T13:39:09.000Z</time>
      </trkpt>
      <trkpt lat="46.18482" lon="4.68369">
        <ele>302.20001220703</ele>
        <time>2021-04-25T13:39:12.000Z</time>
      </trkpt>
      <trkpt lat="46.18466" lon="4.68349">
        <ele>305</ele>
        <time>2021-04-25T13:39:16.000Z</time>
      </trkpt>
      <trkpt lat="46.18438" lon="4.68275">
        <ele>315.20001220703</ele>
        <time>2021-04-25T13:39:27.000Z</time>
      </trkpt>
      <trkpt lat="46.18436" lon="4.68268">
        <ele>316</ele>
        <time>2021-04-25T13:39:28.000Z</time>
      </trkpt>
      <trkpt lat="46.18427" lon="4.68234">
        <ele>320</ele>
        <time>2021-04-25T13:39:33.000Z</time>
      </trkpt>
      <trkpt lat="46.18425" lon="4.68228">
        <ele>320.79998779297</ele>
        <time>2021-04-25T13:39:34.000Z</time>
      </trkpt>
      <trkpt lat="46.18404" lon="4.68214">
        <ele>322.60000610352</ele>
        <time>2021-04-25T13:39:40.000Z</time>
      </trkpt>
      <trkpt lat="46.18398" lon="4.68222">
        <ele>321.79998779297</ele>
        <time>2021-04-25T13:39:42.000Z</time>
      </trkpt>
      <trkpt lat="46.18382" lon="4.68241">
        <ele>321.39999389648</ele>
        <time>2021-04-25T13:39:47.000Z</time>
      </trkpt>
      <trkpt lat="46.18364" lon="4.68259">
        <ele>321.39999389648</ele>
        <time>2021-04-25T13:39:52.000Z</time>
      </trkpt>
      <trkpt lat="46.1835" lon="4.68273">
        <ele>322</ele>
        <time>2021-04-25T13:39:56.000Z</time>
      </trkpt>
      <trkpt lat="46.18325" lon="4.68278">
        <ele>325</ele>
        <time>2021-04-25T13:40:02.000Z</time>
      </trkpt>
      <trkpt lat="46.18312" lon="4.68273">
        <ele>327</ele>
        <time>2021-04-25T13:40:05.000Z</time>
      </trkpt>
      <trkpt lat="46.18285" lon="4.68259">
        <ele>330.20001220703</ele>
        <time>2021-04-25T13:40:12.000Z</time>
      </trkpt>
      <trkpt lat="46.18257" lon="4.68244">
        <ele>333.39999389648</ele>
        <time>2021-04-25T13:40:19.000Z</time>
      </trkpt>
      <trkpt lat="46.18204" lon="4.68237">
        <ele>335.79998779297</ele>
        <time>2021-04-25T13:40:31.000Z</time>
      </trkpt>
      <trkpt lat="46.18147" lon="4.68239">
        <ele>335</ele>
        <time>2021-04-25T13:40:41.000Z</time>
      </trkpt>
      <trkpt lat="46.1806" lon="4.68202">
        <ele>335.79998779297</ele>
        <time>2021-04-25T13:40:58.000Z</time>
      </trkpt>
      <trkpt lat="46.1803" lon="4.68204">
        <ele>333.20001220703</ele>
        <time>2021-04-25T13:41:05.000Z</time>
      </trkpt>
      <trkpt lat="46.18003" lon="4.68227">
        <ele>329.20001220703</ele>
        <time>2021-04-25T13:41:09.000Z</time>
      </trkpt>
      <trkpt lat="46.17964" lon="4.68272">
        <ele>322.39999389648</ele>
        <time>2021-04-25T13:41:14.000Z</time>
      </trkpt>
      <trkpt lat="46.17946" lon="4.68291">
        <ele>320.20001220703</ele>
        <time>2021-04-25T13:41:16.000Z</time>
      </trkpt>
      <trkpt lat="46.17921" lon="4.68318">
        <ele>317</ele>
        <time>2021-04-25T13:41:19.000Z</time>
      </trkpt>
      <trkpt lat="46.17914" lon="4.68326">
        <ele>316.39999389648</ele>
        <time>2021-04-25T13:41:20.000Z</time>
      </trkpt>
      <trkpt lat="46.17894" lon="4.68354">
        <ele>313.79998779297</ele>
        <time>2021-04-25T13:41:23.000Z</time>
      </trkpt>
      <trkpt lat="46.17874" lon="4.68381">
        <ele>312</ele>
        <time>2021-04-25T13:41:26.000Z</time>
      </trkpt>
      <trkpt lat="46.17859" lon="4.68402">
        <ele>310.60000610352</ele>
        <time>2021-04-25T13:41:29.000Z</time>
      </trkpt>
      <trkpt lat="46.17846" lon="4.68443">
        <ele>308.79998779297</ele>
        <time>2021-04-25T13:41:34.000Z</time>
      </trkpt>
      <trkpt lat="46.17845" lon="4.68515">
        <ele>305</ele>
        <time>2021-04-25T13:41:42.000Z</time>
      </trkpt>
      <trkpt lat="46.17831" lon="4.68515">
        <ele>304.79998779297</ele>
        <time>2021-04-25T13:41:48.000Z</time>
      </trkpt>
      <trkpt lat="46.17801" lon="4.68508">
        <ele>304.79998779297</ele>
        <time>2021-04-25T13:41:54.000Z</time>
      </trkpt>
      <trkpt lat="46.1778" lon="4.68503">
        <ele>305</ele>
        <time>2021-04-25T13:41:58.000Z</time>
      </trkpt>
      <trkpt lat="46.17759" lon="4.68502">
        <ele>305.60000610352</ele>
        <time>2021-04-25T13:42:02.000Z</time>
      </trkpt>
      <trkpt lat="46.17733" lon="4.68499">
        <ele>306.79998779297</ele>
        <time>2021-04-25T13:42:07.000Z</time>
      </trkpt>
      <trkpt lat="46.17714" lon="4.68532">
        <ele>306</ele>
        <time>2021-04-25T13:42:15.000Z</time>
      </trkpt>
      <trkpt lat="46.1771" lon="4.68535">
        <ele>305.79998779297</ele>
        <time>2021-04-25T13:42:16.000Z</time>
      </trkpt>
      <trkpt lat="46.17678" lon="4.68541">
        <ele>305.20001220703</ele>
        <time>2021-04-25T13:42:22.000Z</time>
      </trkpt>
      <trkpt lat="46.17602" lon="4.68529">
        <ele>304.60000610352</ele>
        <time>2021-04-25T13:42:36.000Z</time>
      </trkpt>
      <trkpt lat="46.1758" lon="4.68525">
        <ele>304.39999389648</ele>
        <time>2021-04-25T13:42:40.000Z</time>
      </trkpt>
      <trkpt lat="46.17489" lon="4.68506">
        <ele>303.79998779297</ele>
        <time>2021-04-25T13:42:57.000Z</time>
      </trkpt>
      <trkpt lat="46.1741" lon="4.68495">
        <ele>302.20001220703</ele>
        <time>2021-04-25T13:43:12.000Z</time>
      </trkpt>
      <trkpt lat="46.17375" lon="4.68478">
        <ele>301</ele>
        <time>2021-04-25T13:43:19.000Z</time>
      </trkpt>
      <trkpt lat="46.17352" lon="4.6846">
        <ele>300</ele>
        <time>2021-04-25T13:43:24.000Z</time>
      </trkpt>
      <trkpt lat="46.17345" lon="4.68452">
        <ele>299.60000610352</ele>
        <time>2021-04-25T13:43:26.000Z</time>
      </trkpt>
      <trkpt lat="46.17306" lon="4.68433">
        <ele>296.20001220703</ele>
        <time>2021-04-25T13:43:35.000Z</time>
      </trkpt>
      <trkpt lat="46.17258" lon="4.68409">
        <ele>291.39999389648</ele>
        <time>2021-04-25T13:43:46.000Z</time>
      </trkpt>
      <trkpt lat="46.17256" lon="4.68407">
        <ele>291.20001220703</ele>
        <time>2021-04-25T13:43:47.000Z</time>
      </trkpt>
      <trkpt lat="46.17254" lon="4.68406">
        <ele>291</ele>
        <time>2021-04-25T13:43:48.000Z</time>
      </trkpt>
      <trkpt lat="46.17265" lon="4.68394">
        <ele>291</ele>
        <time>2021-04-25T13:43:56.000Z</time>
      </trkpt>
      <trkpt lat="46.1727" lon="4.68393">
        <ele>291.20001220703</ele>
        <time>2021-04-25T13:43:58.000Z</time>
      </trkpt>
      <trkpt lat="46.17275" lon="4.68393">
        <ele>291.39999389648</ele>
        <time>2021-04-25T13:44:00.000Z</time>
      </trkpt>
      <trkpt lat="46.17274" lon="4.6839">
        <ele>291.20001220703</ele>
        <time>2021-04-25T13:44:05.000Z</time>
      </trkpt>
      <trkpt lat="46.17255" lon="4.68399">
        <ele>290.79998779297</ele>
        <time>2021-04-25T13:44:13.000Z</time>
      </trkpt>
      <trkpt lat="46.17255" lon="4.68388">
        <ele>290</ele>
        <time>2021-04-25T13:44:19.000Z</time>
      </trkpt>
      <trkpt lat="46.17291" lon="4.68326">
        <ele>287.79998779297</ele>
        <time>2021-04-25T13:44:31.000Z</time>
      </trkpt>
      <trkpt lat="46.17314" lon="4.68287">
        <ele>285.20001220703</ele>
        <time>2021-04-25T13:44:37.000Z</time>
      </trkpt>
      <trkpt lat="46.17319" lon="4.6828">
        <ele>285.20001220703</ele>
        <time>2021-04-25T13:44:39.000Z</time>
      </trkpt>
      <trkpt lat="46.17311" lon="4.68262">
        <ele>283.79998779297</ele>
        <time>2021-04-25T13:44:45.000Z</time>
      </trkpt>
      <trkpt lat="46.17254" lon="4.68212">
        <ele>277.39999389648</ele>
        <time>2021-04-25T13:44:56.000Z</time>
      </trkpt>
      <trkpt lat="46.17239" lon="4.682">
        <ele>275.60000610352</ele>
        <time>2021-04-25T13:45:00.000Z</time>
      </trkpt>
      <trkpt lat="46.17226" lon="4.68214">
        <ele>275.79998779297</ele>
        <time>2021-04-25T13:45:05.000Z</time>
      </trkpt>
      <trkpt lat="46.17217" lon="4.68249">
        <ele>278.20001220703</ele>
        <time>2021-04-25T13:45:10.000Z</time>
      </trkpt>
      <trkpt lat="46.1719" lon="4.68347">
        <ele>281.60000610352</ele>
        <time>2021-04-25T13:45:26.000Z</time>
      </trkpt>
      <trkpt lat="46.17187" lon="4.6835">
        <ele>281.60000610352</ele>
        <time>2021-04-25T13:45:27.000Z</time>
      </trkpt>
      <trkpt lat="46.17138" lon="4.68394">
        <ele>278.79998779297</ele>
        <time>2021-04-25T13:45:39.000Z</time>
      </trkpt>
      <trkpt lat="46.17134" lon="4.68397">
        <ele>278.39999389648</ele>
        <time>2021-04-25T13:45:40.000Z</time>
      </trkpt>
      <trkpt lat="46.17119" lon="4.68411">
        <ele>276.39999389648</ele>
        <time>2021-04-25T13:45:44.000Z</time>
      </trkpt>
      <trkpt lat="46.17102" lon="4.68426">
        <ele>274.20001220703</ele>
        <time>2021-04-25T13:45:50.000Z</time>
      </trkpt>
      <trkpt lat="46.17095" lon="4.68432">
        <ele>273.20001220703</ele>
        <time>2021-04-25T13:45:54.000Z</time>
      </trkpt>
      <trkpt lat="46.17091" lon="4.68418">
        <ele>272</ele>
        <time>2021-04-25T13:45:59.000Z</time>
      </trkpt>
      <trkpt lat="46.17086" lon="4.68316">
        <ele>267.39999389648</ele>
        <time>2021-04-25T13:46:11.000Z</time>
      </trkpt>
      <trkpt lat="46.17088" lon="4.68268">
        <ele>264.60000610352</ele>
        <time>2021-04-25T13:46:15.000Z</time>
      </trkpt>
      <trkpt lat="46.17103" lon="4.68218">
        <ele>263.20001220703</ele>
        <time>2021-04-25T13:46:19.000Z</time>
      </trkpt>
      <trkpt lat="46.17134" lon="4.68153">
        <ele>262</ele>
        <time>2021-04-25T13:46:25.000Z</time>
      </trkpt>
      <trkpt lat="46.17132" lon="4.68103">
        <ele>260</ele>
        <time>2021-04-25T13:46:31.000Z</time>
      </trkpt>
      <trkpt lat="46.17127" lon="4.68086">
        <ele>259.79998779297</ele>
        <time>2021-04-25T13:46:35.000Z</time>
      </trkpt>
      <trkpt lat="46.17123" lon="4.68054">
        <ele>259.20001220703</ele>
        <time>2021-04-25T13:46:40.000Z</time>
      </trkpt>
      <trkpt lat="46.17124" lon="4.68027">
        <ele>259.39999389648</ele>
        <time>2021-04-25T13:46:45.000Z</time>
      </trkpt>
      <trkpt lat="46.17129" lon="4.67985">
        <ele>260.60000610352</ele>
        <time>2021-04-25T13:46:51.000Z</time>
      </trkpt>
      <trkpt lat="46.17139" lon="4.67957">
        <ele>260.39999389648</ele>
        <time>2021-04-25T13:46:56.000Z</time>
      </trkpt>
      <trkpt lat="46.17153" lon="4.67924">
        <ele>261.79998779297</ele>
        <time>2021-04-25T13:47:03.000Z</time>
      </trkpt>
      <trkpt lat="46.17162" lon="4.67905">
        <ele>263.20001220703</ele>
        <time>2021-04-25T13:47:07.000Z</time>
      </trkpt>
      <trkpt lat="46.17166" lon="4.67894">
        <ele>264</ele>
        <time>2021-04-25T13:47:09.000Z</time>
      </trkpt>
      <trkpt lat="46.1718" lon="4.67857">
        <ele>264.60000610352</ele>
        <time>2021-04-25T13:47:16.000Z</time>
      </trkpt>
      <trkpt lat="46.17203" lon="4.67807">
        <ele>268</ele>
        <time>2021-04-25T13:47:26.000Z</time>
      </trkpt>
      <trkpt lat="46.17209" lon="4.67783">
        <ele>269.79998779297</ele>
        <time>2021-04-25T13:47:30.000Z</time>
      </trkpt>
      <trkpt lat="46.1721" lon="4.67765">
        <ele>270.60000610352</ele>
        <time>2021-04-25T13:47:33.000Z</time>
      </trkpt>
      <trkpt lat="46.17217" lon="4.6771">
        <ele>273.79998779297</ele>
        <time>2021-04-25T13:47:42.000Z</time>
      </trkpt>
      <trkpt lat="46.1722" lon="4.67684">
        <ele>275.39999389648</ele>
        <time>2021-04-25T13:47:46.000Z</time>
      </trkpt>
      <trkpt lat="46.17223" lon="4.67652">
        <ele>278.60000610352</ele>
        <time>2021-04-25T13:47:51.000Z</time>
      </trkpt>
      <trkpt lat="46.17247" lon="4.67599">
        <ele>283.60000610352</ele>
        <time>2021-04-25T13:48:03.000Z</time>
      </trkpt>
      <trkpt lat="46.17249" lon="4.67591">
        <ele>284.20001220703</ele>
        <time>2021-04-25T13:48:05.000Z</time>
      </trkpt>
      <trkpt lat="46.17249" lon="4.67567">
        <ele>285.20001220703</ele>
        <time>2021-04-25T13:48:10.000Z</time>
      </trkpt>
      <trkpt lat="46.1725" lon="4.67542">
        <ele>287</ele>
        <time>2021-04-25T13:48:15.000Z</time>
      </trkpt>
      <trkpt lat="46.17258" lon="4.67525">
        <ele>288.39999389648</ele>
        <time>2021-04-25T13:48:19.000Z</time>
      </trkpt>
      <trkpt lat="46.17284" lon="4.67465">
        <ele>294.39999389648</ele>
        <time>2021-04-25T13:48:33.000Z</time>
      </trkpt>
      <trkpt lat="46.17299" lon="4.67426">
        <ele>298.79998779297</ele>
        <time>2021-04-25T13:48:42.000Z</time>
      </trkpt>
      <trkpt lat="46.17308" lon="4.67387">
        <ele>303.20001220703</ele>
        <time>2021-04-25T13:48:51.000Z</time>
      </trkpt>
      <trkpt lat="46.17308" lon="4.67383">
        <ele>303.39999389648</ele>
        <time>2021-04-25T13:48:52.000Z</time>
      </trkpt>
      <trkpt lat="46.17286" lon="4.67356">
        <ele>302.39999389648</ele>
        <time>2021-04-25T13:49:01.000Z</time>
      </trkpt>
      <trkpt lat="46.17283" lon="4.67352">
        <ele>302.20001220703</ele>
        <time>2021-04-25T13:49:02.000Z</time>
      </trkpt>
      <trkpt lat="46.17228" lon="4.67289">
        <ele>297.79998779297</ele>
        <time>2021-04-25T13:49:19.000Z</time>
      </trkpt>
      <trkpt lat="46.1721" lon="4.67262">
        <ele>294.79998779297</ele>
        <time>2021-04-25T13:49:26.000Z</time>
      </trkpt>
      <trkpt lat="46.17206" lon="4.6725">
        <ele>294</ele>
        <time>2021-04-25T13:49:28.000Z</time>
      </trkpt>
      <trkpt lat="46.17189" lon="4.67219">
        <ele>291</ele>
        <time>2021-04-25T13:49:34.000Z</time>
      </trkpt>
      <trkpt lat="46.17186" lon="4.67181">
        <ele>290.39999389648</ele>
        <time>2021-04-25T13:49:39.000Z</time>
      </trkpt>
      <trkpt lat="46.17188" lon="4.67141">
        <ele>290.20001220703</ele>
        <time>2021-04-25T13:49:44.000Z</time>
      </trkpt>
      <trkpt lat="46.17172" lon="4.67106">
        <ele>288.39999389648</ele>
        <time>2021-04-25T13:49:49.000Z</time>
      </trkpt>
      <trkpt lat="46.17142" lon="4.67083">
        <ele>286</ele>
        <time>2021-04-25T13:49:56.000Z</time>
      </trkpt>
      <trkpt lat="46.17127" lon="4.67092">
        <ele>287.60000610352</ele>
        <time>2021-04-25T13:50:01.000Z</time>
      </trkpt>
      <trkpt lat="46.17112" lon="4.67094">
        <ele>290.20001220703</ele>
        <time>2021-04-25T13:50:06.000Z</time>
      </trkpt>
      <trkpt lat="46.171" lon="4.67088">
        <ele>292.60000610352</ele>
        <time>2021-04-25T13:50:10.000Z</time>
      </trkpt>
      <trkpt lat="46.17085" lon="4.67084">
        <ele>295.39999389648</ele>
        <time>2021-04-25T13:50:14.000Z</time>
      </trkpt>
      <trkpt lat="46.17071" lon="4.67077">
        <ele>298.20001220703</ele>
        <time>2021-04-25T13:50:19.000Z</time>
      </trkpt>
      <trkpt lat="46.17069" lon="4.67076">
        <ele>298.60000610352</ele>
        <time>2021-04-25T13:50:20.000Z</time>
      </trkpt>
      <trkpt lat="46.17065" lon="4.67075">
        <ele>299.39999389648</ele>
        <time>2021-04-25T13:50:22.000Z</time>
      </trkpt>
      <trkpt lat="46.17053" lon="4.67092">
        <ele>300.39999389648</ele>
        <time>2021-04-25T13:50:28.000Z</time>
      </trkpt>
      <trkpt lat="46.17047" lon="4.67104">
        <ele>300.60000610352</ele>
        <time>2021-04-25T13:50:31.000Z</time>
      </trkpt>
      <trkpt lat="46.17003" lon="4.67158">
        <ele>301.79998779297</ele>
        <time>2021-04-25T13:50:47.000Z</time>
      </trkpt>
      <trkpt lat="46.16993" lon="4.6717">
        <ele>302.20001220703</ele>
        <time>2021-04-25T13:50:51.000Z</time>
      </trkpt>
      <trkpt lat="46.16984" lon="4.67162">
        <ele>303.39999389648</ele>
        <time>2021-04-25T13:50:55.000Z</time>
      </trkpt>
      <trkpt lat="46.16986" lon="4.67085">
        <ele>308.20001220703</ele>
        <time>2021-04-25T13:51:10.000Z</time>
      </trkpt>
      <trkpt lat="46.16989" lon="4.67027">
        <ele>312.39999389648</ele>
        <time>2021-04-25T13:51:21.000Z</time>
      </trkpt>
      <trkpt lat="46.16972" lon="4.66963">
        <ele>320.39999389648</ele>
        <time>2021-04-25T13:51:34.000Z</time>
      </trkpt>
      <trkpt lat="46.16957" lon="4.66934">
        <ele>324</ele>
        <time>2021-04-25T13:51:41.000Z</time>
      </trkpt>
      <trkpt lat="46.16945" lon="4.66912">
        <ele>327</ele>
        <time>2021-04-25T13:51:47.000Z</time>
      </trkpt>
      <trkpt lat="46.16935" lon="4.66887">
        <ele>330</ele>
        <time>2021-04-25T13:51:53.000Z</time>
      </trkpt>
      <trkpt lat="46.1693" lon="4.66864">
        <ele>332.60000610352</ele>
        <time>2021-04-25T13:51:58.000Z</time>
      </trkpt>
      <trkpt lat="46.16925" lon="4.66835">
        <ele>336.79998779297</ele>
        <time>2021-04-25T13:52:04.000Z</time>
      </trkpt>
      <trkpt lat="46.16918" lon="4.66804">
        <ele>341.20001220703</ele>
        <time>2021-04-25T13:52:11.000Z</time>
      </trkpt>
      <trkpt lat="46.16913" lon="4.66777">
        <ele>344.39999389648</ele>
        <time>2021-04-25T13:52:17.000Z</time>
      </trkpt>
      <trkpt lat="46.1691" lon="4.66754">
        <ele>346.60000610352</ele>
        <time>2021-04-25T13:52:22.000Z</time>
      </trkpt>
      <trkpt lat="46.16909" lon="4.66749">
        <ele>347</ele>
        <time>2021-04-25T13:52:23.000Z</time>
      </trkpt>
      <trkpt lat="46.16908" lon="4.66723">
        <ele>349.39999389648</ele>
        <time>2021-04-25T13:52:29.000Z</time>
      </trkpt>
      <trkpt lat="46.16906" lon="4.66696">
        <ele>352</ele>
        <time>2021-04-25T13:52:35.000Z</time>
      </trkpt>
      <trkpt lat="46.16911" lon="4.66665">
        <ele>354.39999389648</ele>
        <time>2021-04-25T13:52:42.000Z</time>
      </trkpt>
      <trkpt lat="46.16918" lon="4.6663">
        <ele>357</ele>
        <time>2021-04-25T13:52:50.000Z</time>
      </trkpt>
      <trkpt lat="46.16924" lon="4.666">
        <ele>359.60000610352</ele>
        <time>2021-04-25T13:52:57.000Z</time>
      </trkpt>
      <trkpt lat="46.16934" lon="4.66561">
        <ele>363.39999389648</ele>
        <time>2021-04-25T13:53:06.000Z</time>
      </trkpt>
      <trkpt lat="46.16947" lon="4.66528">
        <ele>366.20001220703</ele>
        <time>2021-04-25T13:53:14.000Z</time>
      </trkpt>
      <trkpt lat="46.1697" lon="4.66468">
        <ele>370.79998779297</ele>
        <time>2021-04-25T13:53:28.000Z</time>
      </trkpt>
      <trkpt lat="46.16977" lon="4.66436">
        <ele>373.79998779297</ele>
        <time>2021-04-25T13:53:36.000Z</time>
      </trkpt>
      <trkpt lat="46.16981" lon="4.66411">
        <ele>375.60000610352</ele>
        <time>2021-04-25T13:53:42.000Z</time>
      </trkpt>
      <trkpt lat="46.16981" lon="4.66399">
        <ele>376.60000610352</ele>
        <time>2021-04-25T13:53:45.000Z</time>
      </trkpt>
      <trkpt lat="46.1694" lon="4.6638">
        <ele>381.20001220703</ele>
        <time>2021-04-25T13:53:58.000Z</time>
      </trkpt>
      <trkpt lat="46.16892" lon="4.66362">
        <ele>385.60000610352</ele>
        <time>2021-04-25T13:54:12.000Z</time>
      </trkpt>
      <trkpt lat="46.16844" lon="4.66336">
        <ele>386.79998779297</ele>
        <time>2021-04-25T13:54:24.000Z</time>
      </trkpt>
      <trkpt lat="46.16821" lon="4.66335">
        <ele>385.60000610352</ele>
        <time>2021-04-25T13:54:29.000Z</time>
      </trkpt>
      <trkpt lat="46.16764" lon="4.66345">
        <ele>382.60000610352</ele>
        <time>2021-04-25T13:54:40.000Z</time>
      </trkpt>
      <trkpt lat="46.16711" lon="4.66325">
        <ele>384.20001220703</ele>
        <time>2021-04-25T13:54:53.000Z</time>
      </trkpt>
      <trkpt lat="46.16703" lon="4.66322">
        <ele>384.39999389648</ele>
        <time>2021-04-25T13:54:55.000Z</time>
      </trkpt>
      <trkpt lat="46.16668" lon="4.66307">
        <ele>384.79998779297</ele>
        <time>2021-04-25T13:55:04.000Z</time>
      </trkpt>
      <trkpt lat="46.16654" lon="4.66323">
        <ele>383.79998779297</ele>
        <time>2021-04-25T13:55:09.000Z</time>
      </trkpt>
      <trkpt lat="46.16645" lon="4.66341">
        <ele>382.60000610352</ele>
        <time>2021-04-25T13:55:13.000Z</time>
      </trkpt>
      <trkpt lat="46.16619" lon="4.66329">
        <ele>382.20001220703</ele>
        <time>2021-04-25T13:55:20.000Z</time>
      </trkpt>
      <trkpt lat="46.16596" lon="4.66314">
        <ele>382</ele>
        <time>2021-04-25T13:55:25.000Z</time>
      </trkpt>
      <trkpt lat="46.1658" lon="4.66302">
        <ele>382</ele>
        <time>2021-04-25T13:55:28.000Z</time>
      </trkpt>
      <trkpt lat="46.1651" lon="4.66249">
        <ele>376.20001220703</ele>
        <time>2021-04-25T13:55:38.000Z</time>
      </trkpt>
      <trkpt lat="46.16486" lon="4.6623">
        <ele>373.39999389648</ele>
        <time>2021-04-25T13:55:41.000Z</time>
      </trkpt>
      <trkpt lat="46.16452" lon="4.66204">
        <ele>370.39999389648</ele>
        <time>2021-04-25T13:55:46.000Z</time>
      </trkpt>
      <trkpt lat="46.16434" lon="4.6619">
        <ele>368.60000610352</ele>
        <time>2021-04-25T13:55:52.000Z</time>
      </trkpt>
      <trkpt lat="46.16433" lon="4.66189">
        <ele>368.60000610352</ele>
        <time>2021-04-25T13:55:53.000Z</time>
      </trkpt>
      <trkpt lat="46.16403" lon="4.66178">
        <ele>365.60000610352</ele>
        <time>2021-04-25T13:56:02.000Z</time>
      </trkpt>
      <trkpt lat="46.16328" lon="4.66166">
        <ele>363.39999389648</ele>
        <time>2021-04-25T13:56:16.000Z</time>
      </trkpt>
      <trkpt lat="46.1626" lon="4.66139">
        <ele>361.79998779297</ele>
        <time>2021-04-25T13:56:29.000Z</time>
      </trkpt>
      <trkpt lat="46.16232" lon="4.66138">
        <ele>361.39999389648</ele>
        <time>2021-04-25T13:56:34.000Z</time>
      </trkpt>
      <trkpt lat="46.16191" lon="4.6612">
        <ele>360.60000610352</ele>
        <time>2021-04-25T13:56:42.000Z</time>
      </trkpt>
      <trkpt lat="46.16109" lon="4.66105">
        <ele>357.60000610352</ele>
        <time>2021-04-25T13:56:53.000Z</time>
      </trkpt>
      <trkpt lat="46.161" lon="4.66102">
        <ele>357.20001220703</ele>
        <time>2021-04-25T13:56:56.000Z</time>
      </trkpt>
      <trkpt lat="46.16095" lon="4.66106">
        <ele>357.20001220703</ele>
        <time>2021-04-25T13:56:59.000Z</time>
      </trkpt>
      <trkpt lat="46.16093" lon="4.66115">
        <ele>357.79998779297</ele>
        <time>2021-04-25T13:57:01.000Z</time>
      </trkpt>
      <trkpt lat="46.16088" lon="4.66151">
        <ele>358.20001220703</ele>
        <time>2021-04-25T13:57:07.000Z</time>
      </trkpt>
      <trkpt lat="46.16105" lon="4.66245">
        <ele>355.60000610352</ele>
        <time>2021-04-25T13:57:20.000Z</time>
      </trkpt>
      <trkpt lat="46.16106" lon="4.66251">
        <ele>355.39999389648</ele>
        <time>2021-04-25T13:57:21.000Z</time>
      </trkpt>
      <trkpt lat="46.16106" lon="4.66278">
        <ele>353.60000610352</ele>
        <time>2021-04-25T13:57:25.000Z</time>
      </trkpt>
      <trkpt lat="46.16093" lon="4.66359">
        <ele>347.60000610352</ele>
        <time>2021-04-25T13:57:34.000Z</time>
      </trkpt>
      <trkpt lat="46.16085" lon="4.66388">
        <ele>344.79998779297</ele>
        <time>2021-04-25T13:57:37.000Z</time>
      </trkpt>
      <trkpt lat="46.16073" lon="4.66432">
        <ele>341.60000610352</ele>
        <time>2021-04-25T13:57:42.000Z</time>
      </trkpt>
      <trkpt lat="46.16069" lon="4.6645">
        <ele>340.39999389648</ele>
        <time>2021-04-25T13:57:44.000Z</time>
      </trkpt>
      <trkpt lat="46.16059" lon="4.6649">
        <ele>338</ele>
        <time>2021-04-25T13:57:48.000Z</time>
      </trkpt>
      <trkpt lat="46.16051" lon="4.6652">
        <ele>336</ele>
        <time>2021-04-25T13:57:51.000Z</time>
      </trkpt>
      <trkpt lat="46.16038" lon="4.66557">
        <ele>333.79998779297</ele>
        <time>2021-04-25T13:57:56.000Z</time>
      </trkpt>
      <trkpt lat="46.16023" lon="4.66582">
        <ele>332.20001220703</ele>
        <time>2021-04-25T13:58:03.000Z</time>
      </trkpt>
      <trkpt lat="46.1601" lon="4.6665">
        <ele>329.20001220703</ele>
        <time>2021-04-25T13:58:13.000Z</time>
      </trkpt>
      <trkpt lat="46.16004" lon="4.66694">
        <ele>327.79998779297</ele>
        <time>2021-04-25T13:58:18.000Z</time>
      </trkpt>
      <trkpt lat="46.15993" lon="4.66776">
        <ele>324</ele>
        <time>2021-04-25T13:58:27.000Z</time>
      </trkpt>
      <trkpt lat="46.15981" lon="4.66879">
        <ele>323</ele>
        <time>2021-04-25T13:58:38.000Z</time>
      </trkpt>
      <trkpt lat="46.15964" lon="4.67029">
        <ele>318.60000610352</ele>
        <time>2021-04-25T13:58:54.000Z</time>
      </trkpt>
      <trkpt lat="46.15946" lon="4.67187">
        <ele>318.39999389648</ele>
        <time>2021-04-25T13:59:13.000Z</time>
      </trkpt>
      <trkpt lat="46.15935" lon="4.67296">
        <ele>321.60000610352</ele>
        <time>2021-04-25T13:59:30.000Z</time>
      </trkpt>
      <trkpt lat="46.15933" lon="4.67299">
        <ele>321.60000610352</ele>
        <time>2021-04-25T13:59:33.000Z</time>
      </trkpt>
      <trkpt lat="46.15926" lon="4.67291">
        <ele>321.20001220703</ele>
        <time>2021-04-25T13:59:42.000Z</time>
      </trkpt>
      <trkpt lat="46.15932" lon="4.67297">
        <ele>321.60000610352</ele>
        <time>2021-04-25T14:00:02.000Z</time>
      </trkpt>
      <trkpt lat="46.1592" lon="4.67325">
        <ele>322</ele>
        <time>2021-04-25T14:00:11.000Z</time>
      </trkpt>
      <trkpt lat="46.15886" lon="4.6735">
        <ele>322</ele>
        <time>2021-04-25T14:00:21.000Z</time>
      </trkpt>
      <trkpt lat="46.15865" lon="4.67365">
        <ele>321.79998779297</ele>
        <time>2021-04-25T14:00:29.000Z</time>
      </trkpt>
      <trkpt lat="46.15861" lon="4.67367">
        <ele>321.79998779297</ele>
        <time>2021-04-25T14:00:32.000Z</time>
      </trkpt>
      <trkpt lat="46.15856" lon="4.67362">
        <ele>321.39999389648</ele>
        <time>2021-04-25T14:00:35.000Z</time>
      </trkpt>
      <trkpt lat="46.15855" lon="4.67357">
        <ele>321.20001220703</ele>
        <time>2021-04-25T14:00:36.000Z</time>
      </trkpt>
      <trkpt lat="46.15855" lon="4.67352">
        <ele>321.20001220703</ele>
        <time>2021-04-25T14:00:37.000Z</time>
      </trkpt>
      <trkpt lat="46.15854" lon="4.67346">
        <ele>321</ele>
        <time>2021-04-25T14:00:38.000Z</time>
      </trkpt>
      <trkpt lat="46.15854" lon="4.6734">
        <ele>320.79998779297</ele>
        <time>2021-04-25T14:00:39.000Z</time>
      </trkpt>
      <trkpt lat="46.15852" lon="4.67309">
        <ele>319.79998779297</ele>
        <time>2021-04-25T14:00:44.000Z</time>
      </trkpt>
      <trkpt lat="46.15846" lon="4.67164">
        <ele>316</ele>
        <time>2021-04-25T14:01:04.000Z</time>
      </trkpt>
      <trkpt lat="46.15828" lon="4.67119">
        <ele>314.60000610352</ele>
        <time>2021-04-25T14:01:10.000Z</time>
      </trkpt>
      <trkpt lat="46.15767" lon="4.67048">
        <ele>311.79998779297</ele>
        <time>2021-04-25T14:01:20.000Z</time>
      </trkpt>
      <trkpt lat="46.1575" lon="4.67018">
        <ele>310.79998779297</ele>
        <time>2021-04-25T14:01:23.000Z</time>
      </trkpt>
      <trkpt lat="46.15726" lon="4.66929">
        <ele>310</ele>
        <time>2021-04-25T14:01:30.000Z</time>
      </trkpt>
      <trkpt lat="46.15703" lon="4.66842">
        <ele>314.60000610352</ele>
        <time>2021-04-25T14:01:39.000Z</time>
      </trkpt>
      <trkpt lat="46.15674" lon="4.66758">
        <ele>320.20001220703</ele>
        <time>2021-04-25T14:01:50.000Z</time>
      </trkpt>
      <trkpt lat="46.15656" lon="4.66717">
        <ele>323.60000610352</ele>
        <time>2021-04-25T14:01:56.000Z</time>
      </trkpt>
      <trkpt lat="46.15635" lon="4.66672">
        <ele>325.60000610352</ele>
        <time>2021-04-25T14:02:03.000Z</time>
      </trkpt>
      <trkpt lat="46.15609" lon="4.66624">
        <ele>326.39999389648</ele>
        <time>2021-04-25T14:02:11.000Z</time>
      </trkpt>
      <trkpt lat="46.15599" lon="4.66605">
        <ele>326.39999389648</ele>
        <time>2021-04-25T14:02:14.000Z</time>
      </trkpt>
      <trkpt lat="46.15572" lon="4.66554">
        <ele>326.20001220703</ele>
        <time>2021-04-25T14:02:23.000Z</time>
      </trkpt>
      <trkpt lat="46.15568" lon="4.66486">
        <ele>326.39999389648</ele>
        <time>2021-04-25T14:02:33.000Z</time>
      </trkpt>
      <trkpt lat="46.15572" lon="4.66415">
        <ele>324.39999389648</ele>
        <time>2021-04-25T14:02:41.000Z</time>
      </trkpt>
      <trkpt lat="46.15564" lon="4.66353">
        <ele>320.20001220703</ele>
        <time>2021-04-25T14:02:48.000Z</time>
      </trkpt>
      <trkpt lat="46.15582" lon="4.66284">
        <ele>318</ele>
        <time>2021-04-25T14:02:54.000Z</time>
      </trkpt>
      <trkpt lat="46.15601" lon="4.66257">
        <ele>321</ele>
        <time>2021-04-25T14:02:57.000Z</time>
      </trkpt>
      <trkpt lat="46.15607" lon="4.6621">
        <ele>321.20001220703</ele>
        <time>2021-04-25T14:03:02.000Z</time>
      </trkpt>
      <trkpt lat="46.15601" lon="4.66177">
        <ele>323.20001220703</ele>
        <time>2021-04-25T14:03:06.000Z</time>
      </trkpt>
      <trkpt lat="46.156" lon="4.66169">
        <ele>323.79998779297</ele>
        <time>2021-04-25T14:03:07.000Z</time>
      </trkpt>
      <trkpt lat="46.15569" lon="4.66129">
        <ele>327.20001220703</ele>
        <time>2021-04-25T14:03:15.000Z</time>
      </trkpt>
      <trkpt lat="46.15563" lon="4.66131">
        <ele>327</ele>
        <time>2021-04-25T14:03:16.000Z</time>
      </trkpt>
      <trkpt lat="46.15547" lon="4.66138">
        <ele>326.60000610352</ele>
        <time>2021-04-25T14:03:19.000Z</time>
      </trkpt>
      <trkpt lat="46.15522" lon="4.66129">
        <ele>327.60000610352</ele>
        <time>2021-04-25T14:03:25.000Z</time>
      </trkpt>
      <trkpt lat="46.15508" lon="4.66113">
        <ele>328.79998779297</ele>
        <time>2021-04-25T14:03:29.000Z</time>
      </trkpt>
      <trkpt lat="46.15489" lon="4.66089">
        <ele>330</ele>
        <time>2021-04-25T14:03:34.000Z</time>
      </trkpt>
      <trkpt lat="46.15485" lon="4.66084">
        <ele>330.20001220703</ele>
        <time>2021-04-25T14:03:35.000Z</time>
      </trkpt>
      <trkpt lat="46.15472" lon="4.66072">
        <ele>330.60000610352</ele>
        <time>2021-04-25T14:03:38.000Z</time>
      </trkpt>
      <trkpt lat="46.15419" lon="4.65971">
        <ele>330.60000610352</ele>
        <time>2021-04-25T14:03:54.000Z</time>
      </trkpt>
      <trkpt lat="46.15359" lon="4.65878">
        <ele>328.79998779297</ele>
        <time>2021-04-25T14:04:09.000Z</time>
      </trkpt>
      <trkpt lat="46.15302" lon="4.65778">
        <ele>326.60000610352</ele>
        <time>2021-04-25T14:04:23.000Z</time>
      </trkpt>
      <trkpt lat="46.15268" lon="4.65721">
        <ele>325.20001220703</ele>
        <time>2021-04-25T14:04:30.000Z</time>
      </trkpt>
      <trkpt lat="46.15251" lon="4.65691">
        <ele>324.60000610352</ele>
        <time>2021-04-25T14:04:34.000Z</time>
      </trkpt>
      <trkpt lat="46.1521" lon="4.65617">
        <ele>324.60000610352</ele>
        <time>2021-04-25T14:04:45.000Z</time>
      </trkpt>
      <trkpt lat="46.15196" lon="4.65528">
        <ele>325.60000610352</ele>
        <time>2021-04-25T14:04:56.000Z</time>
      </trkpt>
      <trkpt lat="46.15188" lon="4.65348">
        <ele>325.79998779297</ele>
        <time>2021-04-25T14:05:19.000Z</time>
      </trkpt>
      <trkpt lat="46.15182" lon="4.65276">
        <ele>323.79998779297</ele>
        <time>2021-04-25T14:05:28.000Z</time>
      </trkpt>
      <trkpt lat="46.15183" lon="4.65149">
        <ele>318</ele>
        <time>2021-04-25T14:05:42.000Z</time>
      </trkpt>
      <trkpt lat="46.15182" lon="4.6507">
        <ele>314.39999389648</ele>
        <time>2021-04-25T14:05:51.000Z</time>
      </trkpt>
      <trkpt lat="46.15187" lon="4.65036">
        <ele>313</ele>
        <time>2021-04-25T14:05:56.000Z</time>
      </trkpt>
      <trkpt lat="46.15207" lon="4.65013">
        <ele>314.60000610352</ele>
        <time>2021-04-25T14:06:01.000Z</time>
      </trkpt>
      <trkpt lat="46.152" lon="4.64964">
        <ele>315.39999389648</ele>
        <time>2021-04-25T14:06:08.000Z</time>
      </trkpt>
      <trkpt lat="46.15196" lon="4.64959">
        <ele>315.39999389648</ele>
        <time>2021-04-25T14:06:09.000Z</time>
      </trkpt>
      <trkpt lat="46.15173" lon="4.64932">
        <ele>316.20001220703</ele>
        <time>2021-04-25T14:06:15.000Z</time>
      </trkpt>
      <trkpt lat="46.15135" lon="4.64904">
        <ele>316.79998779297</ele>
        <time>2021-04-25T14:06:23.000Z</time>
      </trkpt>
      <trkpt lat="46.15112" lon="4.64897">
        <ele>316.60000610352</ele>
        <time>2021-04-25T14:06:27.000Z</time>
      </trkpt>
      <trkpt lat="46.15081" lon="4.64895">
        <ele>315.60000610352</ele>
        <time>2021-04-25T14:06:33.000Z</time>
      </trkpt>
      <trkpt lat="46.15056" lon="4.64895">
        <ele>314.60000610352</ele>
        <time>2021-04-25T14:06:38.000Z</time>
      </trkpt>
      <trkpt lat="46.14984" lon="4.64872">
        <ele>313</ele>
        <time>2021-04-25T14:06:53.000Z</time>
      </trkpt>
      <trkpt lat="46.14924" lon="4.64848">
        <ele>311.79998779297</ele>
        <time>2021-04-25T14:07:05.000Z</time>
      </trkpt>
      <trkpt lat="46.14865" lon="4.64825">
        <ele>310</ele>
        <time>2021-04-25T14:07:17.000Z</time>
      </trkpt>
      <trkpt lat="46.14843" lon="4.64815">
        <ele>309.20001220703</ele>
        <time>2021-04-25T14:07:23.000Z</time>
      </trkpt>
      <trkpt lat="46.14766" lon="4.64798">
        <ele>306.39999389648</ele>
        <time>2021-04-25T14:07:38.000Z</time>
      </trkpt>
      <trkpt lat="46.1469" lon="4.64779">
        <ele>301.79998779297</ele>
        <time>2021-04-25T14:07:51.000Z</time>
      </trkpt>
      <trkpt lat="46.14644" lon="4.64763">
        <ele>297.39999389648</ele>
        <time>2021-04-25T14:08:01.000Z</time>
      </trkpt>
      <trkpt lat="46.14623" lon="4.64748">
        <ele>294.60000610352</ele>
        <time>2021-04-25T14:08:10.000Z</time>
      </trkpt>
      <trkpt lat="46.1462" lon="4.64743">
        <ele>294.20001220703</ele>
        <time>2021-04-25T14:08:12.000Z</time>
      </trkpt>
      <trkpt lat="46.14618" lon="4.64741">
        <ele>293.79998779297</ele>
        <time>2021-04-25T14:08:13.000Z</time>
      </trkpt>
      <trkpt lat="46.14613" lon="4.64749">
        <ele>293.39999389648</ele>
        <time>2021-04-25T14:08:16.000Z</time>
      </trkpt>
      <trkpt lat="46.14613" lon="4.64754">
        <ele>293.39999389648</ele>
        <time>2021-04-25T14:08:17.000Z</time>
      </trkpt>
      <trkpt lat="46.14612" lon="4.64759">
        <ele>293.60000610352</ele>
        <time>2021-04-25T14:08:18.000Z</time>
      </trkpt>
      <trkpt lat="46.14612" lon="4.64764">
        <ele>293.79998779297</ele>
        <time>2021-04-25T14:08:19.000Z</time>
      </trkpt>
      <trkpt lat="46.1461" lon="4.64782">
        <ele>294.20001220703</ele>
        <time>2021-04-25T14:08:22.000Z</time>
      </trkpt>
      <trkpt lat="46.14611" lon="4.6481">
        <ele>294.39999389648</ele>
        <time>2021-04-25T14:08:27.000Z</time>
      </trkpt>
      <trkpt lat="46.146" lon="4.64864">
        <ele>294.20001220703</ele>
        <time>2021-04-25T14:08:35.000Z</time>
      </trkpt>
      <trkpt lat="46.14586" lon="4.64921">
        <ele>292.60000610352</ele>
        <time>2021-04-25T14:08:43.000Z</time>
      </trkpt>
      <trkpt lat="46.14569" lon="4.64924">
        <ele>292</ele>
        <time>2021-04-25T14:08:49.000Z</time>
      </trkpt>
      <trkpt lat="46.14549" lon="4.64915">
        <ele>290.20001220703</ele>
        <time>2021-04-25T14:08:54.000Z</time>
      </trkpt>
      <trkpt lat="46.14547" lon="4.64917">
        <ele>290</ele>
        <time>2021-04-25T14:08:55.000Z</time>
      </trkpt>
      <trkpt lat="46.14545" lon="4.64922">
        <ele>289.79998779297</ele>
        <time>2021-04-25T14:08:56.000Z</time>
      </trkpt>
      <trkpt lat="46.14531" lon="4.64975">
        <ele>287.60000610352</ele>
        <time>2021-04-25T14:09:06.000Z</time>
      </trkpt>
      <trkpt lat="46.14528" lon="4.64978">
        <ele>287.20001220703</ele>
        <time>2021-04-25T14:09:07.000Z</time>
      </trkpt>
      <trkpt lat="46.14525" lon="4.6498">
        <ele>286.60000610352</ele>
        <time>2021-04-25T14:09:08.000Z</time>
      </trkpt>
      <trkpt lat="46.14521" lon="4.6498">
        <ele>286.20001220703</ele>
        <time>2021-04-25T14:09:09.000Z</time>
      </trkpt>
      <trkpt lat="46.14517" lon="4.6498">
        <ele>285.79998779297</ele>
        <time>2021-04-25T14:09:10.000Z</time>
      </trkpt>
      <trkpt lat="46.14475" lon="4.64973">
        <ele>282.20001220703</ele>
        <time>2021-04-25T14:09:18.000Z</time>
      </trkpt>
      <trkpt lat="46.14441" lon="4.64968">
        <ele>280.39999389648</ele>
        <time>2021-04-25T14:09:24.000Z</time>
      </trkpt>
      <trkpt lat="46.14403" lon="4.64963">
        <ele>278.60000610352</ele>
        <time>2021-04-25T14:09:31.000Z</time>
      </trkpt>
      <trkpt lat="46.14379" lon="4.64958">
        <ele>278.39999389648</ele>
        <time>2021-04-25T14:09:37.000Z</time>
      </trkpt>
      <trkpt lat="46.14364" lon="4.6495">
        <ele>279</ele>
        <time>2021-04-25T14:09:42.000Z</time>
      </trkpt>
      <trkpt lat="46.1436" lon="4.64951">
        <ele>279</ele>
        <time>2021-04-25T14:09:43.000Z</time>
      </trkpt>
      <trkpt lat="46.14342" lon="4.64955">
        <ele>279.20001220703</ele>
        <time>2021-04-25T14:09:47.000Z</time>
      </trkpt>
      <trkpt lat="46.14285" lon="4.64961">
        <ele>279.79998779297</ele>
        <time>2021-04-25T14:10:01.000Z</time>
      </trkpt>
      <trkpt lat="46.14281" lon="4.64982">
        <ele>278.60000610352</ele>
        <time>2021-04-25T14:10:06.000Z</time>
      </trkpt>
      <trkpt lat="46.14286" lon="4.64996">
        <ele>277.60000610352</ele>
        <time>2021-04-25T14:10:08.000Z</time>
      </trkpt>
      <trkpt lat="46.14312" lon="4.65115">
        <ele>275</ele>
        <time>2021-04-25T14:10:25.000Z</time>
      </trkpt>
      <trkpt lat="46.14299" lon="4.65138">
        <ele>276.20001220703</ele>
        <time>2021-04-25T14:10:30.000Z</time>
      </trkpt>
      <trkpt lat="46.14288" lon="4.65152">
        <ele>276.79998779297</ele>
        <time>2021-04-25T14:10:33.000Z</time>
      </trkpt>
      <trkpt lat="46.14269" lon="4.65192">
        <ele>278</ele>
        <time>2021-04-25T14:10:40.000Z</time>
      </trkpt>
      <trkpt lat="46.14265" lon="4.65232">
        <ele>280</ele>
        <time>2021-04-25T14:10:46.000Z</time>
      </trkpt>
      <trkpt lat="46.14295" lon="4.65305">
        <ele>284.60000610352</ele>
        <time>2021-04-25T14:10:59.000Z</time>
      </trkpt>
      <trkpt lat="46.14341" lon="4.65386">
        <ele>288.79998779297</ele>
        <time>2021-04-25T14:11:15.000Z</time>
      </trkpt>
      <trkpt lat="46.14358" lon="4.65429">
        <ele>289.79998779297</ele>
        <time>2021-04-25T14:11:28.000Z</time>
      </trkpt>
      <trkpt lat="46.14363" lon="4.65474">
        <ele>289.20001220703</ele>
        <time>2021-04-25T14:11:37.000Z</time>
      </trkpt>
      <trkpt lat="46.14356" lon="4.65546">
        <ele>286.39999389648</ele>
        <time>2021-04-25T14:11:47.000Z</time>
      </trkpt>
      <trkpt lat="46.14365" lon="4.65578">
        <ele>285.60000610352</ele>
        <time>2021-04-25T14:11:53.000Z</time>
      </trkpt>
      <trkpt lat="46.14395" lon="4.65598">
        <ele>287</ele>
        <time>2021-04-25T14:12:00.000Z</time>
      </trkpt>
      <trkpt lat="46.14411" lon="4.65621">
        <ele>286.79998779297</ele>
        <time>2021-04-25T14:12:05.000Z</time>
      </trkpt>
      <trkpt lat="46.14403" lon="4.65652">
        <ele>285.39999389648</ele>
        <time>2021-04-25T14:12:11.000Z</time>
      </trkpt>
      <trkpt lat="46.1436" lon="4.6567">
        <ele>282.39999389648</ele>
        <time>2021-04-25T14:12:19.000Z</time>
      </trkpt>
      <trkpt lat="46.14346" lon="4.65683">
        <ele>282.39999389648</ele>
        <time>2021-04-25T14:12:22.000Z</time>
      </trkpt>
      <trkpt lat="46.14332" lon="4.65722">
        <ele>283.60000610352</ele>
        <time>2021-04-25T14:12:28.000Z</time>
      </trkpt>
      <trkpt lat="46.14327" lon="4.65798">
        <ele>287.60000610352</ele>
        <time>2021-04-25T14:12:38.000Z</time>
      </trkpt>
      <trkpt lat="46.14328" lon="4.6586">
        <ele>293.60000610352</ele>
        <time>2021-04-25T14:12:47.000Z</time>
      </trkpt>
      <trkpt lat="46.14328" lon="4.65879">
        <ele>295.39999389648</ele>
        <time>2021-04-25T14:12:50.000Z</time>
      </trkpt>
      <trkpt lat="46.14323" lon="4.659">
        <ele>297.79998779297</ele>
        <time>2021-04-25T14:12:54.000Z</time>
      </trkpt>
      <trkpt lat="46.14317" lon="4.6591">
        <ele>299</ele>
        <time>2021-04-25T14:12:56.000Z</time>
      </trkpt>
      <trkpt lat="46.14306" lon="4.65928">
        <ele>300.79998779297</ele>
        <time>2021-04-25T14:13:00.000Z</time>
      </trkpt>
      <trkpt lat="46.14292" lon="4.6595">
        <ele>302.20001220703</ele>
        <time>2021-04-25T14:13:05.000Z</time>
      </trkpt>
      <trkpt lat="46.14269" lon="4.65988">
        <ele>303.39999389648</ele>
        <time>2021-04-25T14:13:14.000Z</time>
      </trkpt>
      <trkpt lat="46.14259" lon="4.65985">
        <ele>302.39999389648</ele>
        <time>2021-04-25T14:13:18.000Z</time>
      </trkpt>
      <trkpt lat="46.14247" lon="4.6598">
        <ele>301</ele>
        <time>2021-04-25T14:13:21.000Z</time>
      </trkpt>
      <trkpt lat="46.14186" lon="4.65949">
        <ele>295.20001220703</ele>
        <time>2021-04-25T14:13:35.000Z</time>
      </trkpt>
      <trkpt lat="46.14158" lon="4.65937">
        <ele>293.20001220703</ele>
        <time>2021-04-25T14:13:45.000Z</time>
      </trkpt>
      <trkpt lat="46.14128" lon="4.65925">
        <ele>291</ele>
        <time>2021-04-25T14:13:57.000Z</time>
      </trkpt>
      <trkpt lat="46.14126" lon="4.65925">
        <ele>291</ele>
        <time>2021-04-25T14:13:58.000Z</time>
      </trkpt>
      <trkpt lat="46.14123" lon="4.65944">
        <ele>292</ele>
        <time>2021-04-25T14:14:03.000Z</time>
      </trkpt>
      <trkpt lat="46.14122" lon="4.65991">
        <ele>293.79998779297</ele>
        <time>2021-04-25T14:14:11.000Z</time>
      </trkpt>
      <trkpt lat="46.14086" lon="4.65991">
        <ele>291.39999389648</ele>
        <time>2021-04-25T14:14:20.000Z</time>
      </trkpt>
      <trkpt lat="46.14006" lon="4.65968">
        <ele>285.39999389648</ele>
        <time>2021-04-25T14:14:34.000Z</time>
      </trkpt>
      <trkpt lat="46.13997" lon="4.65967">
        <ele>284.79998779297</ele>
        <time>2021-04-25T14:14:36.000Z</time>
      </trkpt>
      <trkpt lat="46.13989" lon="4.65966">
        <ele>284.39999389648</ele>
        <time>2021-04-25T14:14:38.000Z</time>
      </trkpt>
      <trkpt lat="46.13958" lon="4.65963">
        <ele>281.60000610352</ele>
        <time>2021-04-25T14:14:46.000Z</time>
      </trkpt>
      <trkpt lat="46.13953" lon="4.65983">
        <ele>282.20001220703</ele>
        <time>2021-04-25T14:14:51.000Z</time>
      </trkpt>
      <trkpt lat="46.13947" lon="4.66087">
        <ele>286</ele>
        <time>2021-04-25T14:15:07.000Z</time>
      </trkpt>
      <trkpt lat="46.1395" lon="4.66136">
        <ele>287.20001220703</ele>
        <time>2021-04-25T14:15:17.000Z</time>
      </trkpt>
      <trkpt lat="46.13946" lon="4.66153">
        <ele>286.60000610352</ele>
        <time>2021-04-25T14:15:21.000Z</time>
      </trkpt>
      <trkpt lat="46.13926" lon="4.66191">
        <ele>285.60000610352</ele>
        <time>2021-04-25T14:15:31.000Z</time>
      </trkpt>
      <trkpt lat="46.13921" lon="4.6619">
        <ele>285.20001220703</ele>
        <time>2021-04-25T14:15:32.000Z</time>
      </trkpt>
      <trkpt lat="46.13836" lon="4.66159">
        <ele>280.39999389648</ele>
        <time>2021-04-25T14:15:47.000Z</time>
      </trkpt>
      <trkpt lat="46.13803" lon="4.66148">
        <ele>278.79998779297</ele>
        <time>2021-04-25T14:15:55.000Z</time>
      </trkpt>
      <trkpt lat="46.13769" lon="4.66219">
        <ele>281.39999389648</ele>
        <time>2021-04-25T14:16:08.000Z</time>
      </trkpt>
      <trkpt lat="46.13767" lon="4.66225">
        <ele>281.60000610352</ele>
        <time>2021-04-25T14:16:09.000Z</time>
      </trkpt>
      <trkpt lat="46.1375" lon="4.66283">
        <ele>280.20001220703</ele>
        <time>2021-04-25T14:16:17.000Z</time>
      </trkpt>
      <trkpt lat="46.13739" lon="4.66301">
        <ele>279.60000610352</ele>
        <time>2021-04-25T14:16:23.000Z</time>
      </trkpt>
      <trkpt lat="46.13673" lon="4.6629">
        <ele>273</ele>
        <time>2021-04-25T14:16:37.000Z</time>
      </trkpt>
      <trkpt lat="46.13643" lon="4.66285">
        <ele>269.79998779297</ele>
        <time>2021-04-25T14:16:44.000Z</time>
      </trkpt>
      <trkpt lat="46.13636" lon="4.66285">
        <ele>268.79998779297</ele>
        <time>2021-04-25T14:16:49.000Z</time>
      </trkpt>
      <trkpt lat="46.13637" lon="4.66285">
        <ele>269</ele>
        <time>2021-04-25T14:16:53.000Z</time>
      </trkpt>
      <trkpt lat="46.13632" lon="4.66297">
        <ele>268.39999389648</ele>
        <time>2021-04-25T14:17:01.000Z</time>
      </trkpt>
      <trkpt lat="46.136" lon="4.66376">
        <ele>264.60000610352</ele>
        <time>2021-04-25T14:17:16.000Z</time>
      </trkpt>
      <trkpt lat="46.13597" lon="4.66384">
        <ele>264.20001220703</ele>
        <time>2021-04-25T14:17:18.000Z</time>
      </trkpt>
      <trkpt lat="46.13586" lon="4.66386">
        <ele>262.79998779297</ele>
        <time>2021-04-25T14:17:22.000Z</time>
      </trkpt>
      <trkpt lat="46.13514" lon="4.66371">
        <ele>256</ele>
        <time>2021-04-25T14:17:36.000Z</time>
      </trkpt>
      <trkpt lat="46.13507" lon="4.66367">
        <ele>255.39999389648</ele>
        <time>2021-04-25T14:17:38.000Z</time>
      </trkpt>
      <trkpt lat="46.13487" lon="4.66358">
        <ele>253.39999389648</ele>
        <time>2021-04-25T14:17:42.000Z</time>
      </trkpt>
      <trkpt lat="46.13475" lon="4.66355">
        <ele>252.19999694824</ele>
        <time>2021-04-25T14:17:44.000Z</time>
      </trkpt>
      <trkpt lat="46.13422" lon="4.66346">
        <ele>249</ele>
        <time>2021-04-25T14:17:52.000Z</time>
      </trkpt>
      <trkpt lat="46.13394" lon="4.66341">
        <ele>247.19999694824</ele>
        <time>2021-04-25T14:17:57.000Z</time>
      </trkpt>
      <trkpt lat="46.13375" lon="4.66335">
        <ele>245.80000305176</ele>
        <time>2021-04-25T14:18:01.000Z</time>
      </trkpt>
      <trkpt lat="46.13347" lon="4.66378">
        <ele>245.19999694824</ele>
        <time>2021-04-25T14:18:10.000Z</time>
      </trkpt>
      <trkpt lat="46.13324" lon="4.66421">
        <ele>245.19999694824</ele>
        <time>2021-04-25T14:18:18.000Z</time>
      </trkpt>
      <trkpt lat="46.13312" lon="4.66423">
        <ele>244.80000305176</ele>
        <time>2021-04-25T14:18:21.000Z</time>
      </trkpt>
      <trkpt lat="46.13296" lon="4.66431">
        <ele>244.80000305176</ele>
        <time>2021-04-25T14:18:25.000Z</time>
      </trkpt>
      <trkpt lat="46.1329" lon="4.66438">
        <ele>245.19999694824</ele>
        <time>2021-04-25T14:18:27.000Z</time>
      </trkpt>
      <trkpt lat="46.13281" lon="4.66446">
        <ele>245.80000305176</ele>
        <time>2021-04-25T14:18:30.000Z</time>
      </trkpt>
      <trkpt lat="46.1328" lon="4.66464">
        <ele>246.80000305176</ele>
        <time>2021-04-25T14:18:34.000Z</time>
      </trkpt>
      <trkpt lat="46.13269" lon="4.66475">
        <ele>247.19999694824</ele>
        <time>2021-04-25T14:18:39.000Z</time>
      </trkpt>
      <trkpt lat="46.13244" lon="4.66479">
        <ele>247.60000610352</ele>
        <time>2021-04-25T14:18:45.000Z</time>
      </trkpt>
      <trkpt lat="46.13226" lon="4.66486">
        <ele>247.80000305176</ele>
        <time>2021-04-25T14:18:49.000Z</time>
      </trkpt>
      <trkpt lat="46.1317" lon="4.66547">
        <ele>248.60000610352</ele>
        <time>2021-04-25T14:19:03.000Z</time>
      </trkpt>
      <trkpt lat="46.13124" lon="4.6661">
        <ele>250</ele>
        <time>2021-04-25T14:19:16.000Z</time>
      </trkpt>
      <trkpt lat="46.13101" lon="4.66645">
        <ele>250.80000305176</ele>
        <time>2021-04-25T14:19:23.000Z</time>
      </trkpt>
      <trkpt lat="46.13082" lon="4.66676">
        <ele>251.60000610352</ele>
        <time>2021-04-25T14:19:29.000Z</time>
      </trkpt>
      <trkpt lat="46.13079" lon="4.66682">
        <ele>251.60000610352</ele>
        <time>2021-04-25T14:19:30.000Z</time>
      </trkpt>
      <trkpt lat="46.13076" lon="4.66694">
        <ele>252</ele>
        <time>2021-04-25T14:19:32.000Z</time>
      </trkpt>
      <trkpt lat="46.1307" lon="4.66741">
        <ele>253</ele>
        <time>2021-04-25T14:19:39.000Z</time>
      </trkpt>
      <trkpt lat="46.13037" lon="4.66867">
        <ele>253.60000610352</ele>
        <time>2021-04-25T14:19:59.000Z</time>
      </trkpt>
      <trkpt lat="46.12992" lon="4.66977">
        <ele>253.80000305176</ele>
        <time>2021-04-25T14:20:18.000Z</time>
      </trkpt>
      <trkpt lat="46.12987" lon="4.6699">
        <ele>253.80000305176</ele>
        <time>2021-04-25T14:20:20.000Z</time>
      </trkpt>
      <trkpt lat="46.1296" lon="4.67077">
        <ele>251.80000305176</ele>
        <time>2021-04-25T14:20:34.000Z</time>
      </trkpt>
      <trkpt lat="46.12948" lon="4.67146">
        <ele>248.60000610352</ele>
        <time>2021-04-25T14:20:44.000Z</time>
      </trkpt>
      <trkpt lat="46.12946" lon="4.67154">
        <ele>248.19999694824</ele>
        <time>2021-04-25T14:20:45.000Z</time>
      </trkpt>
      <trkpt lat="46.12938" lon="4.67169">
        <ele>247.39999389648</ele>
        <time>2021-04-25T14:20:47.000Z</time>
      </trkpt>
      <trkpt lat="46.12929" lon="4.67182">
        <ele>247</ele>
        <time>2021-04-25T14:20:49.000Z</time>
      </trkpt>
      <trkpt lat="46.12878" lon="4.67228">
        <ele>241.39999389648</ele>
        <time>2021-04-25T14:20:57.000Z</time>
      </trkpt>
      <trkpt lat="46.12871" lon="4.67234">
        <ele>240</ele>
        <time>2021-04-25T14:20:58.000Z</time>
      </trkpt>
      <trkpt lat="46.12851" lon="4.67249">
        <ele>236.19999694824</ele>
        <time>2021-04-25T14:21:01.000Z</time>
      </trkpt>
      <trkpt lat="46.12845" lon="4.67254">
        <ele>235.39999389648</ele>
        <time>2021-04-25T14:21:02.000Z</time>
      </trkpt>
      <trkpt lat="46.12835" lon="4.67262">
        <ele>234.19999694824</ele>
        <time>2021-04-25T14:21:04.000Z</time>
      </trkpt>
      <trkpt lat="46.12831" lon="4.67267">
        <ele>233.60000610352</ele>
        <time>2021-04-25T14:21:05.000Z</time>
      </trkpt>
      <trkpt lat="46.12829" lon="4.67274">
        <ele>233</ele>
        <time>2021-04-25T14:21:06.000Z</time>
      </trkpt>
      <trkpt lat="46.12829" lon="4.67282">
        <ele>232.60000610352</ele>
        <time>2021-04-25T14:21:07.000Z</time>
      </trkpt>
      <trkpt lat="46.1283" lon="4.67291">
        <ele>232</ele>
        <time>2021-04-25T14:21:08.000Z</time>
      </trkpt>
      <trkpt lat="46.12833" lon="4.673">
        <ele>231.60000610352</ele>
        <time>2021-04-25T14:21:09.000Z</time>
      </trkpt>
      <trkpt lat="46.12847" lon="4.67319">
        <ele>231.19999694824</ele>
        <time>2021-04-25T14:21:12.000Z</time>
      </trkpt>
      <trkpt lat="46.12868" lon="4.67349">
        <ele>230.60000610352</ele>
        <time>2021-04-25T14:21:17.000Z</time>
      </trkpt>
      <trkpt lat="46.1288" lon="4.67377">
        <ele>230.19999694824</ele>
        <time>2021-04-25T14:21:21.000Z</time>
      </trkpt>
      <trkpt lat="46.12902" lon="4.67495">
        <ele>234.39999389648</ele>
        <time>2021-04-25T14:21:39.000Z</time>
      </trkpt>
      <trkpt lat="46.12904" lon="4.67534">
        <ele>237</ele>
        <time>2021-04-25T14:21:46.000Z</time>
      </trkpt>
      <trkpt lat="46.12907" lon="4.67598">
        <ele>238.80000305176</ele>
        <time>2021-04-25T14:21:58.000Z</time>
      </trkpt>
      <trkpt lat="46.12912" lon="4.6767">
        <ele>240</ele>
        <time>2021-04-25T14:22:12.000Z</time>
      </trkpt>
      <trkpt lat="46.12937" lon="4.67738">
        <ele>243</ele>
        <time>2021-04-25T14:22:28.000Z</time>
      </trkpt>
      <trkpt lat="46.12985" lon="4.67737">
        <ele>246.80000305176</ele>
        <time>2021-04-25T14:22:42.000Z</time>
      </trkpt>
      <trkpt lat="46.13028" lon="4.67722">
        <ele>248.39999389648</ele>
        <time>2021-04-25T14:22:55.000Z</time>
      </trkpt>
      <trkpt lat="46.1303" lon="4.67724">
        <ele>248.60000610352</ele>
        <time>2021-04-25T14:22:56.000Z</time>
      </trkpt>
      <trkpt lat="46.13032" lon="4.67728">
        <ele>248.60000610352</ele>
        <time>2021-04-25T14:22:57.000Z</time>
      </trkpt>
      <trkpt lat="46.13033" lon="4.67737">
        <ele>248.60000610352</ele>
        <time>2021-04-25T14:22:59.000Z</time>
      </trkpt>
      <trkpt lat="46.13035" lon="4.67813">
        <ele>249.39999389648</ele>
        <time>2021-04-25T14:23:13.000Z</time>
      </trkpt>
      <trkpt lat="46.13034" lon="4.67858">
        <ele>249.80000305176</ele>
        <time>2021-04-25T14:23:22.000Z</time>
      </trkpt>
      <trkpt lat="46.1305" lon="4.67875">
        <ele>250.60000610352</ele>
        <time>2021-04-25T14:23:28.000Z</time>
      </trkpt>
      <trkpt lat="46.13143" lon="4.67895">
        <ele>251.60000610352</ele>
        <time>2021-04-25T14:23:50.000Z</time>
      </trkpt>
      <trkpt lat="46.13229" lon="4.67916">
        <ele>252.39999389648</ele>
        <time>2021-04-25T14:24:11.000Z</time>
      </trkpt>
      <trkpt lat="46.1332" lon="4.67944">
        <ele>254.39999389648</ele>
        <time>2021-04-25T14:24:34.000Z</time>
      </trkpt>
      <trkpt lat="46.13333" lon="4.67949">
        <ele>254.39999389648</ele>
        <time>2021-04-25T14:24:38.000Z</time>
      </trkpt>
      <trkpt lat="46.13334" lon="4.67963">
        <ele>254.19999694824</ele>
        <time>2021-04-25T14:24:42.000Z</time>
      </trkpt>
      <trkpt lat="46.13314" lon="4.6802">
        <ele>253.19999694824</ele>
        <time>2021-04-25T14:24:52.000Z</time>
      </trkpt>
      <trkpt lat="46.1329" lon="4.68095">
        <ele>252</ele>
        <time>2021-04-25T14:25:06.000Z</time>
      </trkpt>
      <trkpt lat="46.13295" lon="4.68109">
        <ele>252</ele>
        <time>2021-04-25T14:25:10.000Z</time>
      </trkpt>
      <trkpt lat="46.13324" lon="4.68114">
        <ele>252</ele>
        <time>2021-04-25T14:25:17.000Z</time>
      </trkpt>
      <trkpt lat="46.1333" lon="4.68134">
        <ele>251</ele>
        <time>2021-04-25T14:25:22.000Z</time>
      </trkpt>
      <trkpt lat="46.13328" lon="4.68159">
        <ele>250.39999389648</ele>
        <time>2021-04-25T14:25:32.000Z</time>
      </trkpt>
      <trkpt lat="46.13327" lon="4.68159">
        <ele>250.39999389648</ele>
        <time>2021-04-25T14:25:34.000Z</time>
      </trkpt>
      <trkpt lat="46.13329" lon="4.68146">
        <ele>250.80000305176</ele>
        <time>2021-04-25T14:25:51.000Z</time>
      </trkpt>
      <trkpt lat="46.13334" lon="4.68133">
        <ele>251</ele>
        <time>2021-04-25T14:25:56.000Z</time>
      </trkpt>
      <trkpt lat="46.1339" lon="4.68125">
        <ele>250.80000305176</ele>
        <time>2021-04-25T14:26:12.000Z</time>
      </trkpt>
      <trkpt lat="46.13459" lon="4.68118">
        <ele>246.39999389648</ele>
        <time>2021-04-25T14:26:27.000Z</time>
      </trkpt>
      <trkpt lat="46.13473" lon="4.68117">
        <ele>245.39999389648</ele>
        <time>2021-04-25T14:26:31.000Z</time>
      </trkpt>
      <trkpt lat="46.13511" lon="4.68129">
        <ele>241.60000610352</ele>
        <time>2021-04-25T14:26:42.000Z</time>
      </trkpt>
      <trkpt lat="46.13529" lon="4.68106">
        <ele>241.60000610352</ele>
        <time>2021-04-25T14:26:48.000Z</time>
      </trkpt>
      <trkpt lat="46.13536" lon="4.68098">
        <ele>241.60000610352</ele>
        <time>2021-04-25T14:26:50.000Z</time>
      </trkpt>
      <trkpt lat="46.13551" lon="4.68085">
        <ele>241</ele>
        <time>2021-04-25T14:26:54.000Z</time>
      </trkpt>
      <trkpt lat="46.13559" lon="4.68081">
        <ele>240.39999389648</ele>
        <time>2021-04-25T14:26:56.000Z</time>
      </trkpt>
      <trkpt lat="46.13583" lon="4.68086">
        <ele>240</ele>
        <time>2021-04-25T14:27:01.000Z</time>
      </trkpt>
      <trkpt lat="46.13598" lon="4.68096">
        <ele>239.39999389648</ele>
        <time>2021-04-25T14:27:04.000Z</time>
      </trkpt>
      <trkpt lat="46.13618" lon="4.6811">
        <ele>238.60000610352</ele>
        <time>2021-04-25T14:27:10.000Z</time>
      </trkpt>
      <trkpt lat="46.13622" lon="4.68112">
        <ele>238.39999389648</ele>
        <time>2021-04-25T14:27:11.000Z</time>
      </trkpt>
      <trkpt lat="46.1369" lon="4.68152">
        <ele>242.80000305176</ele>
        <time>2021-04-25T14:27:28.000Z</time>
      </trkpt>
      <trkpt lat="46.13725" lon="4.68191">
        <ele>246.60000610352</ele>
        <time>2021-04-25T14:27:39.000Z</time>
      </trkpt>
      <trkpt lat="46.13752" lon="4.6822">
        <ele>247.80000305176</ele>
        <time>2021-04-25T14:27:48.000Z</time>
      </trkpt>
      <trkpt lat="46.13795" lon="4.68232">
        <ele>250</ele>
        <time>2021-04-25T14:27:59.000Z</time>
      </trkpt>
      <trkpt lat="46.13824" lon="4.68242">
        <ele>251.39999389648</ele>
        <time>2021-04-25T14:28:07.000Z</time>
      </trkpt>
      <trkpt lat="46.13865" lon="4.68249">
        <ele>253.60000610352</ele>
        <time>2021-04-25T14:28:18.000Z</time>
      </trkpt>
      <trkpt lat="46.13884" lon="4.68247">
        <ele>254.80000305176</ele>
        <time>2021-04-25T14:28:23.000Z</time>
      </trkpt>
      <trkpt lat="46.13902" lon="4.68242">
        <ele>256</ele>
        <time>2021-04-25T14:28:27.000Z</time>
      </trkpt>
      <trkpt lat="46.13959" lon="4.68192">
        <ele>259.60000610352</ele>
        <time>2021-04-25T14:28:43.000Z</time>
      </trkpt>
      <trkpt lat="46.14003" lon="4.68144">
        <ele>260.39999389648</ele>
        <time>2021-04-25T14:28:57.000Z</time>
      </trkpt>
      <trkpt lat="46.14008" lon="4.6814">
        <ele>260.39999389648</ele>
        <time>2021-04-25T14:28:59.000Z</time>
      </trkpt>
      <trkpt lat="46.14018" lon="4.68152">
        <ele>260.39999389648</ele>
        <time>2021-04-25T14:29:04.000Z</time>
      </trkpt>
      <trkpt lat="46.14016" lon="4.68212">
        <ele>260.20001220703</ele>
        <time>2021-04-25T14:29:13.000Z</time>
      </trkpt>
      <trkpt lat="46.14031" lon="4.68299">
        <ele>258.39999389648</ele>
        <time>2021-04-25T14:29:25.000Z</time>
      </trkpt>
      <trkpt lat="46.14042" lon="4.68317">
        <ele>258</ele>
        <time>2021-04-25T14:29:31.000Z</time>
      </trkpt>
      <trkpt lat="46.14089" lon="4.68345">
        <ele>257</ele>
        <time>2021-04-25T14:29:43.000Z</time>
      </trkpt>
      <trkpt lat="46.14133" lon="4.68374">
        <ele>255.19999694824</ele>
        <time>2021-04-25T14:29:54.000Z</time>
      </trkpt>
      <trkpt lat="46.14131" lon="4.68408">
        <ele>254.80000305176</ele>
        <time>2021-04-25T14:30:01.000Z</time>
      </trkpt>
      <trkpt lat="46.14105" lon="4.68529">
        <ele>253.39999389648</ele>
        <time>2021-04-25T14:30:19.000Z</time>
      </trkpt>
      <trkpt lat="46.14098" lon="4.68555">
        <ele>253</ele>
        <time>2021-04-25T14:30:24.000Z</time>
      </trkpt>
      <trkpt lat="46.14117" lon="4.6856">
        <ele>252.19999694824</ele>
        <time>2021-04-25T14:30:31.000Z</time>
      </trkpt>
      <trkpt lat="46.14148" lon="4.68551">
        <ele>251.39999389648</ele>
        <time>2021-04-25T14:30:38.000Z</time>
      </trkpt>
      <trkpt lat="46.14153" lon="4.68569">
        <ele>250.60000610352</ele>
        <time>2021-04-25T14:30:43.000Z</time>
      </trkpt>
      <trkpt lat="46.14144" lon="4.68665">
        <ele>248.39999389648</ele>
        <time>2021-04-25T14:30:57.000Z</time>
      </trkpt>
      <trkpt lat="46.14142" lon="4.68677">
        <ele>248.39999389648</ele>
        <time>2021-04-25T14:30:59.000Z</time>
      </trkpt>
      <trkpt lat="46.14139" lon="4.68713">
        <ele>248</ele>
        <time>2021-04-25T14:31:05.000Z</time>
      </trkpt>
      <trkpt lat="46.14128" lon="4.68801">
        <ele>246.39999389648</ele>
        <time>2021-04-25T14:31:18.000Z</time>
      </trkpt>
      <trkpt lat="46.14095" lon="4.68898">
        <ele>245.60000610352</ele>
        <time>2021-04-25T14:31:34.000Z</time>
      </trkpt>
      <trkpt lat="46.14092" lon="4.68928">
        <ele>245.19999694824</ele>
        <time>2021-04-25T14:31:39.000Z</time>
      </trkpt>
      <trkpt lat="46.14096" lon="4.68995">
        <ele>243.19999694824</ele>
        <time>2021-04-25T14:31:49.000Z</time>
      </trkpt>
      <trkpt lat="46.14098" lon="4.69041">
        <ele>241.60000610352</ele>
        <time>2021-04-25T14:31:56.000Z</time>
      </trkpt>
      <trkpt lat="46.14101" lon="4.6906">
        <ele>241.60000610352</ele>
        <time>2021-04-25T14:31:59.000Z</time>
      </trkpt>
      <trkpt lat="46.14105" lon="4.69126">
        <ele>240.39999389648</ele>
        <time>2021-04-25T14:32:09.000Z</time>
      </trkpt>
      <trkpt lat="46.14105" lon="4.69138">
        <ele>240.19999694824</ele>
        <time>2021-04-25T14:32:11.000Z</time>
      </trkpt>
      <trkpt lat="46.14123" lon="4.69174">
        <ele>239.60000610352</ele>
        <time>2021-04-25T14:32:18.000Z</time>
      </trkpt>
      <trkpt lat="46.14137" lon="4.69188">
        <ele>239.19999694824</ele>
        <time>2021-04-25T14:32:23.000Z</time>
      </trkpt>
      <trkpt lat="46.14159" lon="4.69191">
        <ele>238.60000610352</ele>
        <time>2021-04-25T14:32:28.000Z</time>
      </trkpt>
      <trkpt lat="46.1417" lon="4.69192">
        <ele>238.19999694824</ele>
        <time>2021-04-25T14:32:30.000Z</time>
      </trkpt>
      <trkpt lat="46.14232" lon="4.6919">
        <ele>235.80000305176</ele>
        <time>2021-04-25T14:32:43.000Z</time>
      </trkpt>
      <trkpt lat="46.1425" lon="4.69192">
        <ele>234.60000610352</ele>
        <time>2021-04-25T14:32:48.000Z</time>
      </trkpt>
      <trkpt lat="46.14255" lon="4.69207">
        <ele>234.39999389648</ele>
        <time>2021-04-25T14:32:53.000Z</time>
      </trkpt>
      <trkpt lat="46.14259" lon="4.69212">
        <ele>234.19999694824</ele>
        <time>2021-04-25T14:33:04.000Z</time>
      </trkpt>
      <trkpt lat="46.14259" lon="4.69227">
        <ele>234.39999389648</ele>
        <time>2021-04-25T14:38:53.000Z</time>
      </trkpt>
      <trkpt lat="46.14256" lon="4.69242">
        <ele>234.60000610352</ele>
        <time>2021-04-25T14:38:57.000Z</time>
      </trkpt>
      <trkpt lat="46.14248" lon="4.69282">
        <ele>235</ele>
        <time>2021-04-25T14:39:07.000Z</time>
      </trkpt>
      <trkpt lat="46.14229" lon="4.69347">
        <ele>236.60000610352</ele>
        <time>2021-04-25T14:39:19.000Z</time>
      </trkpt>
      <trkpt lat="46.14221" lon="4.69378">
        <ele>237.80000305176</ele>
        <time>2021-04-25T14:39:24.000Z</time>
      </trkpt>
      <trkpt lat="46.14203" lon="4.69445">
        <ele>239.80000305176</ele>
        <time>2021-04-25T14:39:35.000Z</time>
      </trkpt>
      <trkpt lat="46.14195" lon="4.69471">
        <ele>240</ele>
        <time>2021-04-25T14:39:40.000Z</time>
      </trkpt>
      <trkpt lat="46.14192" lon="4.69483">
        <ele>240</ele>
        <time>2021-04-25T14:39:44.000Z</time>
      </trkpt>
      <trkpt lat="46.14174" lon="4.69541">
        <ele>239.39999389648</ele>
        <time>2021-04-25T14:39:54.000Z</time>
      </trkpt>
      <trkpt lat="46.14161" lon="4.69596">
        <ele>240.60000610352</ele>
        <time>2021-04-25T14:40:03.000Z</time>
      </trkpt>
      <trkpt lat="46.14139" lon="4.69667">
        <ele>242.60000610352</ele>
        <time>2021-04-25T14:40:15.000Z</time>
      </trkpt>
      <trkpt lat="46.14129" lon="4.69705">
        <ele>243.80000305176</ele>
        <time>2021-04-25T14:40:21.000Z</time>
      </trkpt>
      <trkpt lat="46.14119" lon="4.69734">
        <ele>245.80000305176</ele>
        <time>2021-04-25T14:40:25.000Z</time>
      </trkpt>
      <trkpt lat="46.14107" lon="4.6978">
        <ele>247</ele>
        <time>2021-04-25T14:40:33.000Z</time>
      </trkpt>
      <trkpt lat="46.14095" lon="4.6982">
        <ele>246.60000610352</ele>
        <time>2021-04-25T14:40:39.000Z</time>
      </trkpt>
      <trkpt lat="46.14088" lon="4.69846">
        <ele>245.80000305176</ele>
        <time>2021-04-25T14:40:43.000Z</time>
      </trkpt>
      <trkpt lat="46.14078" lon="4.69884">
        <ele>245.19999694824</ele>
        <time>2021-04-25T14:40:49.000Z</time>
      </trkpt>
      <trkpt lat="46.14073" lon="4.69903">
        <ele>245.19999694824</ele>
        <time>2021-04-25T14:40:52.000Z</time>
      </trkpt>
      <trkpt lat="46.14061" lon="4.6994">
        <ele>245.19999694824</ele>
        <time>2021-04-25T14:40:57.000Z</time>
      </trkpt>
      <trkpt lat="46.14047" lon="4.69988">
        <ele>245.60000610352</ele>
        <time>2021-04-25T14:41:04.000Z</time>
      </trkpt>
      <trkpt lat="46.1404" lon="4.70011">
        <ele>246</ele>
        <time>2021-04-25T14:41:08.000Z</time>
      </trkpt>
      <trkpt lat="46.14033" lon="4.70037">
        <ele>246.39999389648</ele>
        <time>2021-04-25T14:41:12.000Z</time>
      </trkpt>
      <trkpt lat="46.1402" lon="4.70076">
        <ele>248</ele>
        <time>2021-04-25T14:41:18.000Z</time>
      </trkpt>
      <trkpt lat="46.13997" lon="4.70171">
        <ele>243.80000305176</ele>
        <time>2021-04-25T14:41:32.000Z</time>
      </trkpt>
      <trkpt lat="46.13998" lon="4.70173">
        <ele>243.80000305176</ele>
        <time>2021-04-25T14:41:33.000Z</time>
      </trkpt>
      <trkpt lat="46.14012" lon="4.70193">
        <ele>243</ele>
        <time>2021-04-25T14:41:39.000Z</time>
      </trkpt>
      <trkpt lat="46.14033" lon="4.70216">
        <ele>241.60000610352</ele>
        <time>2021-04-25T14:41:45.000Z</time>
      </trkpt>
      <trkpt lat="46.14044" lon="4.70236">
        <ele>240</ele>
        <time>2021-04-25T14:41:49.000Z</time>
      </trkpt>
      <trkpt lat="46.14052" lon="4.70244">
        <ele>239.39999389648</ele>
        <time>2021-04-25T14:41:51.000Z</time>
      </trkpt>
      <trkpt lat="46.14068" lon="4.70262">
        <ele>237.80000305176</ele>
        <time>2021-04-25T14:42:01.000Z</time>
      </trkpt>
      <trkpt lat="46.14069" lon="4.70259">
        <ele>238</ele>
        <time>2021-04-25T14:42:09.000Z</time>
      </trkpt>
      <trkpt lat="46.14064" lon="4.70254">
        <ele>238.60000610352</ele>
        <time>2021-04-25T14:42:13.000Z</time>
      </trkpt>
      <trkpt lat="46.14059" lon="4.70248">
        <ele>239.19999694824</ele>
        <time>2021-04-25T14:42:17.000Z</time>
      </trkpt>
      <trkpt lat="46.14048" lon="4.70235">
        <ele>240.19999694824</ele>
        <time>2021-04-25T14:42:22.000Z</time>
      </trkpt>
      <trkpt lat="46.14045" lon="4.70229">
        <ele>240.60000610352</ele>
        <time>2021-04-25T14:42:25.000Z</time>
      </trkpt>
      <trkpt lat="46.14062" lon="4.70235">
        <ele>240.19999694824</ele>
        <time>2021-04-25T14:42:33.000Z</time>
      </trkpt>
      <trkpt lat="46.14076" lon="4.70234">
        <ele>239.60000610352</ele>
        <time>2021-04-25T14:42:36.000Z</time>
      </trkpt>
      <trkpt lat="46.14098" lon="4.70226">
        <ele>238.80000305176</ele>
        <time>2021-04-25T14:42:40.000Z</time>
      </trkpt>
      <trkpt lat="46.1412" lon="4.70213">
        <ele>237.60000610352</ele>
        <time>2021-04-25T14:42:44.000Z</time>
      </trkpt>
      <trkpt lat="46.14156" lon="4.7021">
        <ele>234.60000610352</ele>
        <time>2021-04-25T14:42:53.000Z</time>
      </trkpt>
      <trkpt lat="46.14178" lon="4.70218">
        <ele>231.80000305176</ele>
        <time>2021-04-25T14:42:58.000Z</time>
      </trkpt>
      <trkpt lat="46.14212" lon="4.7022">
        <ele>227.80000305176</ele>
        <time>2021-04-25T14:43:06.000Z</time>
      </trkpt>
      <trkpt lat="46.14233" lon="4.7022">
        <ele>225.80000305176</ele>
        <time>2021-04-25T14:43:10.000Z</time>
      </trkpt>
      <trkpt lat="46.14302" lon="4.70241">
        <ele>223.80000305176</ele>
        <time>2021-04-25T14:43:24.000Z</time>
      </trkpt>
      <trkpt lat="46.14311" lon="4.70248">
        <ele>223.39999389648</ele>
        <time>2021-04-25T14:43:27.000Z</time>
      </trkpt>
      <trkpt lat="46.14314" lon="4.70275">
        <ele>223</ele>
        <time>2021-04-25T14:43:31.000Z</time>
      </trkpt>
      <trkpt lat="46.14316" lon="4.70338">
        <ele>220.39999389648</ele>
        <time>2021-04-25T14:43:41.000Z</time>
      </trkpt>
      <trkpt lat="46.14328" lon="4.70367">
        <ele>218.80000305176</ele>
        <time>2021-04-25T14:43:48.000Z</time>
      </trkpt>
      <trkpt lat="46.14327" lon="4.70382">
        <ele>218.60000610352</ele>
        <time>2021-04-25T14:43:50.000Z</time>
      </trkpt>
      <trkpt lat="46.14327" lon="4.70449">
        <ele>217.80000305176</ele>
        <time>2021-04-25T14:43:59.000Z</time>
      </trkpt>
      <trkpt lat="46.14327" lon="4.70482">
        <ele>217.60000610352</ele>
        <time>2021-04-25T14:44:03.000Z</time>
      </trkpt>
      <trkpt lat="46.14328" lon="4.70575">
        <ele>216.80000305176</ele>
        <time>2021-04-25T14:44:14.000Z</time>
      </trkpt>
      <trkpt lat="46.14352" lon="4.70598">
        <ele>216</ele>
        <time>2021-04-25T14:44:22.000Z</time>
      </trkpt>
      <trkpt lat="46.14421" lon="4.70572">
        <ele>215.19999694824</ele>
        <time>2021-04-25T14:44:35.000Z</time>
      </trkpt>
      <trkpt lat="46.14444" lon="4.7058">
        <ele>214.80000305176</ele>
        <time>2021-04-25T14:44:40.000Z</time>
      </trkpt>
      <trkpt lat="46.14512" lon="4.70675">
        <ele>213.19999694824</ele>
        <time>2021-04-25T14:44:57.000Z</time>
      </trkpt>
      <trkpt lat="46.14537" lon="4.70714">
        <ele>212.39999389648</ele>
        <time>2021-04-25T14:45:04.000Z</time>
      </trkpt>
      <trkpt lat="46.1457" lon="4.70779">
        <ele>211</ele>
        <time>2021-04-25T14:45:14.000Z</time>
      </trkpt>
      <trkpt lat="46.14608" lon="4.70852">
        <ele>210.39999389648</ele>
        <time>2021-04-25T14:45:28.000Z</time>
      </trkpt>
      <trkpt lat="46.14642" lon="4.70914">
        <ele>210</ele>
        <time>2021-04-25T14:45:41.000Z</time>
      </trkpt>
      <trkpt lat="46.14645" lon="4.70936">
        <ele>210</ele>
        <time>2021-04-25T14:45:48.000Z</time>
      </trkpt>
      <trkpt lat="46.14636" lon="4.70941">
        <ele>210</ele>
        <time>2021-04-25T14:45:52.000Z</time>
      </trkpt>
      <trkpt lat="46.14567" lon="4.70958">
        <ele>210.80000305176</ele>
        <time>2021-04-25T14:46:11.000Z</time>
      </trkpt>
      <trkpt lat="46.14563" lon="4.70959">
        <ele>211</ele>
        <time>2021-04-25T14:46:18.000Z</time>
      </trkpt>
      <trkpt lat="46.1457" lon="4.70958">
        <ele>210.80000305176</ele>
        <time>2021-04-25T14:46:29.000Z</time>
      </trkpt>
      <trkpt lat="46.14575" lon="4.70955">
        <ele>210.80000305176</ele>
        <time>2021-04-25T14:46:31.000Z</time>
      </trkpt>
      <trkpt lat="46.14624" lon="4.70941">
        <ele>210.19999694824</ele>
        <time>2021-04-25T14:46:47.000Z</time>
      </trkpt>
      <trkpt lat="46.14647" lon="4.70934">
        <ele>210</ele>
        <time>2021-04-25T14:46:57.000Z</time>
      </trkpt>
      <trkpt lat="46.14651" lon="4.70934">
        <ele>209.80000305176</ele>
        <time>2021-04-25T14:47:05.000Z</time>
      </trkpt>
      <trkpt lat="46.14642" lon="4.70948">
        <ele>210</ele>
        <time>2021-04-25T14:47:11.000Z</time>
      </trkpt>
      <trkpt lat="46.14655" lon="4.70953">
        <ele>209.80000305176</ele>
        <time>2021-04-25T14:47:17.000Z</time>
      </trkpt>
      <trkpt lat="46.1469" lon="4.71021">
        <ele>208.60000610352</ele>
        <time>2021-04-25T14:47:29.000Z</time>
      </trkpt>
      <trkpt lat="46.14695" lon="4.7104">
        <ele>208.39999389648</ele>
        <time>2021-04-25T14:47:32.000Z</time>
      </trkpt>
      <trkpt lat="46.14707" lon="4.71149">
        <ele>209</ele>
        <time>2021-04-25T14:47:47.000Z</time>
      </trkpt>
      <trkpt lat="46.1471" lon="4.71177">
        <ele>208</ele>
        <time>2021-04-25T14:47:51.000Z</time>
      </trkpt>
      <trkpt lat="46.14728" lon="4.71284">
        <ele>207</ele>
        <time>2021-04-25T14:48:05.000Z</time>
      </trkpt>
      <trkpt lat="46.14743" lon="4.71346">
        <ele>207.19999694824</ele>
        <time>2021-04-25T14:48:14.000Z</time>
      </trkpt>
      <trkpt lat="46.14749" lon="4.7137">
        <ele>207.19999694824</ele>
        <time>2021-04-25T14:48:18.000Z</time>
      </trkpt>
      <trkpt lat="46.14768" lon="4.71471">
        <ele>205.60000610352</ele>
        <time>2021-04-25T14:48:31.000Z</time>
      </trkpt>
      <trkpt lat="46.14778" lon="4.71527">
        <ele>204.60000610352</ele>
        <time>2021-04-25T14:48:38.000Z</time>
      </trkpt>
      <trkpt lat="46.14782" lon="4.71603">
        <ele>202.80000305176</ele>
        <time>2021-04-25T14:48:46.000Z</time>
      </trkpt>
      <trkpt lat="46.14794" lon="4.71631">
        <ele>202.19999694824</ele>
        <time>2021-04-25T14:48:52.000Z</time>
      </trkpt>
      <trkpt lat="46.14853" lon="4.71654">
        <ele>202</ele>
        <time>2021-04-25T14:49:03.000Z</time>
      </trkpt>
      <trkpt lat="46.14876" lon="4.71675">
        <ele>202</ele>
        <time>2021-04-25T14:49:08.000Z</time>
      </trkpt>
      <trkpt lat="46.14907" lon="4.71688">
        <ele>202.80000305176</ele>
        <time>2021-04-25T14:49:14.000Z</time>
      </trkpt>
      <trkpt lat="46.14917" lon="4.71686">
        <ele>203.39999389648</ele>
        <time>2021-04-25T14:49:16.000Z</time>
      </trkpt>
      <trkpt lat="46.1496" lon="4.7169">
        <ele>206</ele>
        <time>2021-04-25T14:49:24.000Z</time>
      </trkpt>
      <trkpt lat="46.1498" lon="4.71701">
        <ele>207</ele>
        <time>2021-04-25T14:49:28.000Z</time>
      </trkpt>
      <trkpt lat="46.14988" lon="4.71709">
        <ele>207.39999389648</ele>
        <time>2021-04-25T14:49:30.000Z</time>
      </trkpt>
      <trkpt lat="46.14996" lon="4.71718">
        <ele>207.80000305176</ele>
        <time>2021-04-25T14:49:32.000Z</time>
      </trkpt>
      <trkpt lat="46.15037" lon="4.71789">
        <ele>210.19999694824</ele>
        <time>2021-04-25T14:49:45.000Z</time>
      </trkpt>
      <trkpt lat="46.15081" lon="4.71869">
        <ele>212</ele>
        <time>2021-04-25T14:49:59.000Z</time>
      </trkpt>
      <trkpt lat="46.15105" lon="4.71909">
        <ele>212.39999389648</ele>
        <time>2021-04-25T14:50:06.000Z</time>
      </trkpt>
      <trkpt lat="46.15145" lon="4.71937">
        <ele>212.80000305176</ele>
        <time>2021-04-25T14:50:16.000Z</time>
      </trkpt>
      <trkpt lat="46.15154" lon="4.71918">
        <ele>212.60000610352</ele>
        <time>2021-04-25T14:50:21.000Z</time>
      </trkpt>
      <trkpt lat="46.15164" lon="4.71806">
        <ele>213</ele>
        <time>2021-04-25T14:50:36.000Z</time>
      </trkpt>
      <trkpt lat="46.15181" lon="4.71699">
        <ele>213.19999694824</ele>
        <time>2021-04-25T14:50:51.000Z</time>
      </trkpt>
      <trkpt lat="46.15198" lon="4.71609">
        <ele>212.80000305176</ele>
        <time>2021-04-25T14:51:05.000Z</time>
      </trkpt>
      <trkpt lat="46.15164" lon="4.71538">
        <ele>212.39999389648</ele>
        <time>2021-04-25T14:51:17.000Z</time>
      </trkpt>
      <trkpt lat="46.15159" lon="4.71491">
        <ele>211.80000305176</ele>
        <time>2021-04-25T14:51:24.000Z</time>
      </trkpt>
      <trkpt lat="46.15178" lon="4.71397">
        <ele>211.60000610352</ele>
        <time>2021-04-25T14:51:37.000Z</time>
      </trkpt>
      <trkpt lat="46.15188" lon="4.71368">
        <ele>212.19999694824</ele>
        <time>2021-04-25T14:51:43.000Z</time>
      </trkpt>
      <trkpt lat="46.15207" lon="4.713">
        <ele>213.19999694824</ele>
        <time>2021-04-25T14:51:55.000Z</time>
      </trkpt>
      <trkpt lat="46.15222" lon="4.71269">
        <ele>214</ele>
        <time>2021-04-25T14:52:03.000Z</time>
      </trkpt>
      <trkpt lat="46.1524" lon="4.71276">
        <ele>214.39999389648</ele>
        <time>2021-04-25T14:52:07.000Z</time>
      </trkpt>
      <trkpt lat="46.15335" lon="4.71306">
        <ele>216.60000610352</ele>
        <time>2021-04-25T14:52:25.000Z</time>
      </trkpt>
      <trkpt lat="46.1539" lon="4.71326">
        <ele>218</ele>
        <time>2021-04-25T14:52:36.000Z</time>
      </trkpt>
      <trkpt lat="46.15437" lon="4.71333">
        <ele>218</ele>
        <time>2021-04-25T14:52:49.000Z</time>
      </trkpt>
      <trkpt lat="46.15439" lon="4.71332">
        <ele>218</ele>
        <time>2021-04-25T14:52:50.000Z</time>
      </trkpt>
      <trkpt lat="46.15455" lon="4.71336">
        <ele>218.19999694824</ele>
        <time>2021-04-25T14:52:54.000Z</time>
      </trkpt>
      <trkpt lat="46.15521" lon="4.71356">
        <ele>218.60000610352</ele>
        <time>2021-04-25T14:53:07.000Z</time>
      </trkpt>
      <trkpt lat="46.15581" lon="4.71381">
        <ele>219.60000610352</ele>
        <time>2021-04-25T14:53:19.000Z</time>
      </trkpt>
      <trkpt lat="46.15601" lon="4.7139">
        <ele>220.19999694824</ele>
        <time>2021-04-25T14:53:24.000Z</time>
      </trkpt>
      <trkpt lat="46.15613" lon="4.71402">
        <ele>220.60000610352</ele>
        <time>2021-04-25T14:53:27.000Z</time>
      </trkpt>
      <trkpt lat="46.15622" lon="4.71412">
        <ele>220.80000305176</ele>
        <time>2021-04-25T14:53:29.000Z</time>
      </trkpt>
      <trkpt lat="46.15662" lon="4.71466">
        <ele>220.80000305176</ele>
        <time>2021-04-25T14:53:39.000Z</time>
      </trkpt>
      <trkpt lat="46.15666" lon="4.71496">
        <ele>220.19999694824</ele>
        <time>2021-04-25T14:53:44.000Z</time>
      </trkpt>
      <trkpt lat="46.15647" lon="4.71563">
        <ele>220</ele>
        <time>2021-04-25T14:53:53.000Z</time>
      </trkpt>
      <trkpt lat="46.15663" lon="4.71609">
        <ele>219.80000305176</ele>
        <time>2021-04-25T14:54:01.000Z</time>
      </trkpt>
      <trkpt lat="46.15661" lon="4.71636">
        <ele>219.80000305176</ele>
        <time>2021-04-25T14:54:08.000Z</time>
      </trkpt>
      <trkpt lat="46.1567" lon="4.71641">
        <ele>219.60000610352</ele>
        <time>2021-04-25T14:54:11.000Z</time>
      </trkpt>
      <trkpt lat="46.15746" lon="4.7164">
        <ele>219.19999694824</ele>
        <time>2021-04-25T14:54:25.000Z</time>
      </trkpt>
      <trkpt lat="46.15775" lon="4.7164">
        <ele>219.19999694824</ele>
        <time>2021-04-25T14:54:30.000Z</time>
      </trkpt>
      <trkpt lat="46.15829" lon="4.71639">
        <ele>219.19999694824</ele>
        <time>2021-04-25T14:54:39.000Z</time>
      </trkpt>
      <trkpt lat="46.1591" lon="4.71637">
        <ele>219.19999694824</ele>
        <time>2021-04-25T14:54:53.000Z</time>
      </trkpt>
      <trkpt lat="46.15989" lon="4.71637">
        <ele>221.19999694824</ele>
        <time>2021-04-25T14:55:08.000Z</time>
      </trkpt>
      <trkpt lat="46.1607" lon="4.71635">
        <ele>223.80000305176</ele>
        <time>2021-04-25T14:55:23.000Z</time>
      </trkpt>
      <trkpt lat="46.16076" lon="4.71635">
        <ele>223.80000305176</ele>
        <time>2021-04-25T14:55:24.000Z</time>
      </trkpt>
      <trkpt lat="46.16091" lon="4.71665">
        <ele>223.39999389648</ele>
        <time>2021-04-25T14:55:30.000Z</time>
      </trkpt>
      <trkpt lat="46.16085" lon="4.71753">
        <ele>221</ele>
        <time>2021-04-25T14:55:41.000Z</time>
      </trkpt>
      <trkpt lat="46.16104" lon="4.71778">
        <ele>219.80000305176</ele>
        <time>2021-04-25T14:55:48.000Z</time>
      </trkpt>
      <trkpt lat="46.16177" lon="4.71772">
        <ele>218.19999694824</ele>
        <time>2021-04-25T14:56:01.000Z</time>
      </trkpt>
      <trkpt lat="46.16247" lon="4.71815">
        <ele>211.80000305176</ele>
        <time>2021-04-25T14:56:13.000Z</time>
      </trkpt>
      <trkpt lat="46.16279" lon="4.71836">
        <ele>207.80000305176</ele>
        <time>2021-04-25T14:56:18.000Z</time>
      </trkpt>
      <trkpt lat="46.16319" lon="4.71812">
        <ele>206.60000610352</ele>
        <time>2021-04-25T14:56:26.000Z</time>
      </trkpt>
      <trkpt lat="46.16325" lon="4.71796">
        <ele>207.19999694824</ele>
        <time>2021-04-25T14:56:28.000Z</time>
      </trkpt>
      <trkpt lat="46.16332" lon="4.71784">
        <ele>207</ele>
        <time>2021-04-25T14:56:30.000Z</time>
      </trkpt>
      <trkpt lat="46.16365" lon="4.71758">
        <ele>206.19999694824</ele>
        <time>2021-04-25T14:56:38.000Z</time>
      </trkpt>
      <trkpt lat="46.16405" lon="4.71765">
        <ele>204</ele>
        <time>2021-04-25T14:56:45.000Z</time>
      </trkpt>
      <trkpt lat="46.16442" lon="4.71766">
        <ele>204</ele>
        <time>2021-04-25T14:56:52.000Z</time>
      </trkpt>
      <trkpt lat="46.16455" lon="4.7177">
        <ele>204</ele>
        <time>2021-04-25T14:56:55.000Z</time>
      </trkpt>
      <trkpt lat="46.16515" lon="4.71811">
        <ele>206.19999694824</ele>
        <time>2021-04-25T14:57:08.000Z</time>
      </trkpt>
      <trkpt lat="46.16525" lon="4.71808">
        <ele>206.80000305176</ele>
        <time>2021-04-25T14:57:11.000Z</time>
      </trkpt>
      <trkpt lat="46.16539" lon="4.71744">
        <ele>208.39999389648</ele>
        <time>2021-04-25T14:57:20.000Z</time>
      </trkpt>
      <trkpt lat="46.16554" lon="4.71673">
        <ele>210.60000610352</ele>
        <time>2021-04-25T14:57:29.000Z</time>
      </trkpt>
      <trkpt lat="46.16594" lon="4.71594">
        <ele>216</ele>
        <time>2021-04-25T14:57:43.000Z</time>
      </trkpt>
      <trkpt lat="46.16605" lon="4.71572">
        <ele>218.19999694824</ele>
        <time>2021-04-25T14:57:48.000Z</time>
      </trkpt>
      <trkpt lat="46.16617" lon="4.71541">
        <ele>221.80000305176</ele>
        <time>2021-04-25T14:57:55.000Z</time>
      </trkpt>
      <trkpt lat="46.16624" lon="4.71502">
        <ele>223.19999694824</ele>
        <time>2021-04-25T14:58:02.000Z</time>
      </trkpt>
      <trkpt lat="46.16631" lon="4.7145">
        <ele>223.60000610352</ele>
        <time>2021-04-25T14:58:11.000Z</time>
      </trkpt>
      <trkpt lat="46.16633" lon="4.7144">
        <ele>223.80000305176</ele>
        <time>2021-04-25T14:58:13.000Z</time>
      </trkpt>
      <trkpt lat="46.16645" lon="4.71435">
        <ele>225.39999389648</ele>
        <time>2021-04-25T14:58:17.000Z</time>
      </trkpt>
      <trkpt lat="46.16661" lon="4.71442">
        <ele>228.19999694824</ele>
        <time>2021-04-25T14:58:23.000Z</time>
      </trkpt>
      <trkpt lat="46.16665" lon="4.71459">
        <ele>229</ele>
        <time>2021-04-25T14:58:28.000Z</time>
      </trkpt>
      <trkpt lat="46.16673" lon="4.71546">
        <ele>229</ele>
        <time>2021-04-25T14:58:44.000Z</time>
      </trkpt>
      <trkpt lat="46.16675" lon="4.71561">
        <ele>227.80000305176</ele>
        <time>2021-04-25T14:58:47.000Z</time>
      </trkpt>
      <trkpt lat="46.16686" lon="4.71568">
        <ele>228.39999389648</ele>
        <time>2021-04-25T14:58:51.000Z</time>
      </trkpt>
      <trkpt lat="46.16762" lon="4.71554">
        <ele>232.60000610352</ele>
        <time>2021-04-25T14:59:09.000Z</time>
      </trkpt>
      <trkpt lat="46.16773" lon="4.71545">
        <ele>233</ele>
        <time>2021-04-25T14:59:12.000Z</time>
      </trkpt>
      <trkpt lat="46.16784" lon="4.71535">
        <ele>233.80000305176</ele>
        <time>2021-04-25T14:59:15.000Z</time>
      </trkpt>
      <trkpt lat="46.1682" lon="4.71487">
        <ele>235</ele>
        <time>2021-04-25T14:59:27.000Z</time>
      </trkpt>
      <trkpt lat="46.16826" lon="4.7148">
        <ele>235</ele>
        <time>2021-04-25T14:59:29.000Z</time>
      </trkpt>
      <trkpt lat="46.1686" lon="4.71435">
        <ele>236.19999694824</ele>
        <time>2021-04-25T14:59:43.000Z</time>
      </trkpt>
      <trkpt lat="46.16864" lon="4.71431">
        <ele>236.19999694824</ele>
        <time>2021-04-25T14:59:45.000Z</time>
      </trkpt>
      <trkpt lat="46.16867" lon="4.71431">
        <ele>236.19999694824</ele>
        <time>2021-04-25T14:59:46.000Z</time>
      </trkpt>
      <trkpt lat="46.16885" lon="4.7143">
        <ele>236.19999694824</ele>
        <time>2021-04-25T14:59:51.000Z</time>
      </trkpt>
      <trkpt lat="46.16898" lon="4.71428">
        <ele>236.19999694824</ele>
        <time>2021-04-25T14:59:54.000Z</time>
      </trkpt>
      <trkpt lat="46.16929" lon="4.71425">
        <ele>236.80000305176</ele>
        <time>2021-04-25T15:00:00.000Z</time>
      </trkpt>
      <trkpt lat="46.16932" lon="4.71427">
        <ele>236.80000305176</ele>
        <time>2021-04-25T15:00:01.000Z</time>
      </trkpt>
      <trkpt lat="46.16935" lon="4.71431">
        <ele>236.60000610352</ele>
        <time>2021-04-25T15:00:02.000Z</time>
      </trkpt>
      <trkpt lat="46.16938" lon="4.71437">
        <ele>236.39999389648</ele>
        <time>2021-04-25T15:00:03.000Z</time>
      </trkpt>
      <trkpt lat="46.16942" lon="4.71453">
        <ele>235.60000610352</ele>
        <time>2021-04-25T15:00:05.000Z</time>
      </trkpt>
      <trkpt lat="46.16958" lon="4.71552">
        <ele>227.60000610352</ele>
        <time>2021-04-25T15:00:14.000Z</time>
      </trkpt>
      <trkpt lat="46.16963" lon="4.7159">
        <ele>224</ele>
        <time>2021-04-25T15:00:17.000Z</time>
      </trkpt>
      <trkpt lat="46.16971" lon="4.71645">
        <ele>220.19999694824</ele>
        <time>2021-04-25T15:00:21.000Z</time>
      </trkpt>
      <trkpt lat="46.1698" lon="4.71702">
        <ele>218</ele>
        <time>2021-04-25T15:00:25.000Z</time>
      </trkpt>
      <trkpt lat="46.16986" lon="4.71743">
        <ele>216.60000610352</ele>
        <time>2021-04-25T15:00:28.000Z</time>
      </trkpt>
      <trkpt lat="46.16993" lon="4.71786">
        <ele>215</ele>
        <time>2021-04-25T15:00:32.000Z</time>
      </trkpt>
      <trkpt lat="46.16996" lon="4.71807">
        <ele>214.80000305176</ele>
        <time>2021-04-25T15:00:36.000Z</time>
      </trkpt>
      <trkpt lat="46.16996" lon="4.71811">
        <ele>214.80000305176</ele>
        <time>2021-04-25T15:00:37.000Z</time>
      </trkpt>
      <trkpt lat="46.16949" lon="4.71875">
        <ele>213.60000610352</ele>
        <time>2021-04-25T15:00:49.000Z</time>
      </trkpt>
      <trkpt lat="46.16924" lon="4.71895">
        <ele>212.80000305176</ele>
        <time>2021-04-25T15:00:55.000Z</time>
      </trkpt>
      <trkpt lat="46.16914" lon="4.71917">
        <ele>212.39999389648</ele>
        <time>2021-04-25T15:00:59.000Z</time>
      </trkpt>
      <trkpt lat="46.16896" lon="4.72055">
        <ele>210.80000305176</ele>
        <time>2021-04-25T15:01:16.000Z</time>
      </trkpt>
      <trkpt lat="46.16888" lon="4.72138">
        <ele>210</ele>
        <time>2021-04-25T15:01:26.000Z</time>
      </trkpt>
      <trkpt lat="46.16904" lon="4.72244">
        <ele>209.60000610352</ele>
        <time>2021-04-25T15:01:39.000Z</time>
      </trkpt>
      <trkpt lat="46.16906" lon="4.72334">
        <ele>208</ele>
        <time>2021-04-25T15:01:51.000Z</time>
      </trkpt>
      <trkpt lat="46.16921" lon="4.72354">
        <ele>207.80000305176</ele>
        <time>2021-04-25T15:01:56.000Z</time>
      </trkpt>
      <trkpt lat="46.17008" lon="4.72386">
        <ele>208.39999389648</ele>
        <time>2021-04-25T15:02:12.000Z</time>
      </trkpt>
      <trkpt lat="46.17029" lon="4.72386">
        <ele>208.80000305176</ele>
        <time>2021-04-25T15:02:16.000Z</time>
      </trkpt>
      <trkpt lat="46.1704" lon="4.72383">
        <ele>209.19999694824</ele>
        <time>2021-04-25T15:02:18.000Z</time>
      </trkpt>
      <trkpt lat="46.17056" lon="4.72386">
        <ele>209.39999389648</ele>
        <time>2021-04-25T15:02:21.000Z</time>
      </trkpt>
      <trkpt lat="46.17071" lon="4.72389">
        <ele>209</ele>
        <time>2021-04-25T15:02:24.000Z</time>
      </trkpt>
      <trkpt lat="46.1715" lon="4.72418">
        <ele>205.60000610352</ele>
        <time>2021-04-25T15:02:39.000Z</time>
      </trkpt>
      <trkpt lat="46.17176" lon="4.72427">
        <ele>204.19999694824</ele>
        <time>2021-04-25T15:02:45.000Z</time>
      </trkpt>
      <trkpt lat="46.17193" lon="4.72434">
        <ele>203.19999694824</ele>
        <time>2021-04-25T15:02:49.000Z</time>
      </trkpt>
      <trkpt lat="46.17208" lon="4.7244">
        <ele>202.39999389648</ele>
        <time>2021-04-25T15:02:55.000Z</time>
      </trkpt>
      <trkpt lat="46.17275" lon="4.72472">
        <ele>199.60000610352</ele>
        <time>2021-04-25T15:03:08.000Z</time>
      </trkpt>
      <trkpt lat="46.17292" lon="4.7248">
        <ele>199.19999694824</ele>
        <time>2021-04-25T15:03:11.000Z</time>
      </trkpt>
      <trkpt lat="46.17342" lon="4.72506">
        <ele>197</ele>
        <time>2021-04-25T15:03:20.000Z</time>
      </trkpt>
      <trkpt lat="46.17361" lon="4.72522">
        <ele>195.80000305176</ele>
        <time>2021-04-25T15:03:23.000Z</time>
      </trkpt>
      <trkpt lat="46.17413" lon="4.72576">
        <ele>194.19999694824</ele>
        <time>2021-04-25T15:03:31.000Z</time>
      </trkpt>
      <trkpt lat="46.17429" lon="4.72594">
        <ele>194.19999694824</ele>
        <time>2021-04-25T15:03:34.000Z</time>
      </trkpt>
      <trkpt lat="46.17448" lon="4.72626">
        <ele>194.19999694824</ele>
        <time>2021-04-25T15:03:39.000Z</time>
      </trkpt>
      <trkpt lat="46.17456" lon="4.72639">
        <ele>193.80000305176</ele>
        <time>2021-04-25T15:03:41.000Z</time>
      </trkpt>
      <trkpt lat="46.17476" lon="4.72659">
        <ele>193.19999694824</ele>
        <time>2021-04-25T15:03:45.000Z</time>
      </trkpt>
      <trkpt lat="46.17484" lon="4.72669">
        <ele>193.39999389648</ele>
        <time>2021-04-25T15:03:47.000Z</time>
      </trkpt>
      <trkpt lat="46.17486" lon="4.72674">
        <ele>193.39999389648</ele>
        <time>2021-04-25T15:03:48.000Z</time>
      </trkpt>
      <trkpt lat="46.17488" lon="4.7268">
        <ele>193.39999389648</ele>
        <time>2021-04-25T15:03:49.000Z</time>
      </trkpt>
      <trkpt lat="46.1749" lon="4.72686">
        <ele>193.39999389648</ele>
        <time>2021-04-25T15:03:50.000Z</time>
      </trkpt>
      <trkpt lat="46.17493" lon="4.72691">
        <ele>193.60000610352</ele>
        <time>2021-04-25T15:03:51.000Z</time>
      </trkpt>
      <trkpt lat="46.17497" lon="4.72695">
        <ele>193.80000305176</ele>
        <time>2021-04-25T15:03:52.000Z</time>
      </trkpt>
      <trkpt lat="46.17502" lon="4.72699">
        <ele>194.19999694824</ele>
        <time>2021-04-25T15:03:53.000Z</time>
      </trkpt>
      <trkpt lat="46.17513" lon="4.72702">
        <ele>195</ele>
        <time>2021-04-25T15:03:55.000Z</time>
      </trkpt>
      <trkpt lat="46.17524" lon="4.72707">
        <ele>195.80000305176</ele>
        <time>2021-04-25T15:03:57.000Z</time>
      </trkpt>
      <trkpt lat="46.17556" lon="4.72721">
        <ele>198.19999694824</ele>
        <time>2021-04-25T15:04:03.000Z</time>
      </trkpt>
      <trkpt lat="46.17572" lon="4.72722">
        <ele>199</ele>
        <time>2021-04-25T15:04:06.000Z</time>
      </trkpt>
      <trkpt lat="46.17585" lon="4.7274">
        <ele>199.19999694824</ele>
        <time>2021-04-25T15:04:11.000Z</time>
      </trkpt>
      <trkpt lat="46.17598" lon="4.72789">
        <ele>198.80000305176</ele>
        <time>2021-04-25T15:04:18.000Z</time>
      </trkpt>
      <trkpt lat="46.17633" lon="4.72876">
        <ele>198.39999389648</ele>
        <time>2021-04-25T15:04:31.000Z</time>
      </trkpt>
      <trkpt lat="46.17665" lon="4.72954">
        <ele>202</ele>
        <time>2021-04-25T15:04:44.000Z</time>
      </trkpt>
      <trkpt lat="46.17678" lon="4.7299">
        <ele>202.60000610352</ele>
        <time>2021-04-25T15:04:50.000Z</time>
      </trkpt>
      <trkpt lat="46.17682" lon="4.73003">
        <ele>203</ele>
        <time>2021-04-25T15:04:52.000Z</time>
      </trkpt>
      <trkpt lat="46.17704" lon="4.73073">
        <ele>204.80000305176</ele>
        <time>2021-04-25T15:05:03.000Z</time>
      </trkpt>
      <trkpt lat="46.17715" lon="4.73097">
        <ele>205.39999389648</ele>
        <time>2021-04-25T15:05:07.000Z</time>
      </trkpt>
      <trkpt lat="46.17718" lon="4.731">
        <ele>205.60000610352</ele>
        <time>2021-04-25T15:05:08.000Z</time>
      </trkpt>
      <trkpt lat="46.17722" lon="4.73102">
        <ele>205.60000610352</ele>
        <time>2021-04-25T15:05:09.000Z</time>
      </trkpt>
      <trkpt lat="46.17727" lon="4.73103">
        <ele>205.80000305176</ele>
        <time>2021-04-25T15:05:10.000Z</time>
      </trkpt>
      <trkpt lat="46.17732" lon="4.73103">
        <ele>205.80000305176</ele>
        <time>2021-04-25T15:05:11.000Z</time>
      </trkpt>
      <trkpt lat="46.17736" lon="4.73103">
        <ele>205.80000305176</ele>
        <time>2021-04-25T15:05:12.000Z</time>
      </trkpt>
      <trkpt lat="46.17756" lon="4.73104">
        <ele>205.80000305176</ele>
        <time>2021-04-25T15:05:17.000Z</time>
      </trkpt>
      <trkpt lat="46.17758" lon="4.73125">
        <ele>206</ele>
        <time>2021-04-25T15:05:21.000Z</time>
      </trkpt>
      <trkpt lat="46.17757" lon="4.73139">
        <ele>205.80000305176</ele>
        <time>2021-04-25T15:05:23.000Z</time>
      </trkpt>
      <trkpt lat="46.17767" lon="4.73157">
        <ele>205.60000610352</ele>
        <time>2021-04-25T15:05:27.000Z</time>
      </trkpt>
      <trkpt lat="46.17835" lon="4.73192">
        <ele>205.19999694824</ele>
        <time>2021-04-25T15:05:40.000Z</time>
      </trkpt>
      <trkpt lat="46.17908" lon="4.73207">
        <ele>205</ele>
        <time>2021-04-25T15:05:53.000Z</time>
      </trkpt>
      <trkpt lat="46.17935" lon="4.73211">
        <ele>205</ele>
        <time>2021-04-25T15:05:58.000Z</time>
      </trkpt>
      <trkpt lat="46.17972" lon="4.7321">
        <ele>205</ele>
        <time>2021-04-25T15:06:05.000Z</time>
      </trkpt>
      <trkpt lat="46.18006" lon="4.73211">
        <ele>205.39999389648</ele>
        <time>2021-04-25T15:06:12.000Z</time>
      </trkpt>
      <trkpt lat="46.18034" lon="4.73209">
        <ele>206.19999694824</ele>
        <time>2021-04-25T15:06:18.000Z</time>
      </trkpt>
      <trkpt lat="46.18071" lon="4.73225">
        <ele>206.60000610352</ele>
        <time>2021-04-25T15:06:28.000Z</time>
      </trkpt>
      <trkpt lat="46.18072" lon="4.73235">
        <ele>206.39999389648</ele>
        <time>2021-04-25T15:06:30.000Z</time>
      </trkpt>
      <trkpt lat="46.18109" lon="4.73267">
        <ele>206</ele>
        <time>2021-04-25T15:06:39.000Z</time>
      </trkpt>
      <trkpt lat="46.18123" lon="4.73276">
        <ele>206</ele>
        <time>2021-04-25T15:06:42.000Z</time>
      </trkpt>
      <trkpt lat="46.18176" lon="4.73309">
        <ele>205.39999389648</ele>
        <time>2021-04-25T15:06:55.000Z</time>
      </trkpt>
      <trkpt lat="46.18183" lon="4.73314">
        <ele>205.39999389648</ele>
        <time>2021-04-25T15:06:58.000Z</time>
      </trkpt>
      <trkpt lat="46.18197" lon="4.73314">
        <ele>205.39999389648</ele>
        <time>2021-04-25T15:07:02.000Z</time>
      </trkpt>
      <trkpt lat="46.18227" lon="4.73331">
        <ele>205</ele>
        <time>2021-04-25T15:07:08.000Z</time>
      </trkpt>
      <trkpt lat="46.18237" lon="4.73338">
        <ele>204.39999389648</ele>
        <time>2021-04-25T15:07:10.000Z</time>
      </trkpt>
      <trkpt lat="46.18281" lon="4.73391">
        <ele>201.60000610352</ele>
        <time>2021-04-25T15:07:20.000Z</time>
      </trkpt>
      <trkpt lat="46.1831" lon="4.73405">
        <ele>200.19999694824</ele>
        <time>2021-04-25T15:07:26.000Z</time>
      </trkpt>
      <trkpt lat="46.18349" lon="4.73409">
        <ele>199.19999694824</ele>
        <time>2021-04-25T15:07:35.000Z</time>
      </trkpt>
      <trkpt lat="46.18359" lon="4.7339">
        <ele>199.80000305176</ele>
        <time>2021-04-25T15:07:39.000Z</time>
      </trkpt>
      <trkpt lat="46.1837" lon="4.73365">
        <ele>200.39999389648</ele>
        <time>2021-04-25T15:07:45.000Z</time>
      </trkpt>
      <trkpt lat="46.18389" lon="4.73371">
        <ele>200</ele>
        <time>2021-04-25T15:07:51.000Z</time>
      </trkpt>
      <trkpt lat="46.18407" lon="4.7339">
        <ele>199.80000305176</ele>
        <time>2021-04-25T15:08:02.000Z</time>
      </trkpt>
      <trkpt lat="46.18418" lon="4.7342">
        <ele>199.39999389648</ele>
        <time>2021-04-25T15:08:07.000Z</time>
      </trkpt>
      <trkpt lat="46.18417" lon="4.73447">
        <ele>198.19999694824</ele>
        <time>2021-04-25T15:08:11.000Z</time>
      </trkpt>
      <trkpt lat="46.18396" lon="4.73487">
        <ele>196.39999389648</ele>
        <time>2021-04-25T15:08:17.000Z</time>
      </trkpt>
      <trkpt lat="46.184" lon="4.73505">
        <ele>196.19999694824</ele>
        <time>2021-04-25T15:08:21.000Z</time>
      </trkpt>
      <trkpt lat="46.18404" lon="4.73507">
        <ele>196.39999389648</ele>
        <time>2021-04-25T15:08:22.000Z</time>
      </trkpt>
      <trkpt lat="46.1841" lon="4.73508">
        <ele>196.80000305176</ele>
        <time>2021-04-25T15:08:23.000Z</time>
      </trkpt>
      <trkpt lat="46.18499" lon="4.73522">
        <ele>202.19999694824</ele>
        <time>2021-04-25T15:08:39.000Z</time>
      </trkpt>
      <trkpt lat="46.18531" lon="4.73536">
        <ele>204.19999694824</ele>
        <time>2021-04-25T15:08:49.000Z</time>
      </trkpt>
      <trkpt lat="46.18534" lon="4.73537">
        <ele>204.39999389648</ele>
        <time>2021-04-25T15:08:50.000Z</time>
      </trkpt>
      <trkpt lat="46.18554" lon="4.73536">
        <ele>205.60000610352</ele>
        <time>2021-04-25T15:08:55.000Z</time>
      </trkpt>
      <trkpt lat="46.18598" lon="4.73551">
        <ele>205.39999389648</ele>
        <time>2021-04-25T15:09:07.000Z</time>
      </trkpt>
      <trkpt lat="46.18602" lon="4.73556">
        <ele>205.19999694824</ele>
        <time>2021-04-25T15:09:08.000Z</time>
      </trkpt>
      <trkpt lat="46.18604" lon="4.73562">
        <ele>205.19999694824</ele>
        <time>2021-04-25T15:09:09.000Z</time>
      </trkpt>
      <trkpt lat="46.18609" lon="4.7357">
        <ele>205</ele>
        <time>2021-04-25T15:09:10.000Z</time>
      </trkpt>
      <trkpt lat="46.18616" lon="4.73598">
        <ele>204.60000610352</ele>
        <time>2021-04-25T15:09:14.000Z</time>
      </trkpt>
      <trkpt lat="46.18602" lon="4.73692">
        <ele>199.60000610352</ele>
        <time>2021-04-25T15:09:25.000Z</time>
      </trkpt>
      <trkpt lat="46.18599" lon="4.7371">
        <ele>198.80000305176</ele>
        <time>2021-04-25T15:09:27.000Z</time>
      </trkpt>
      <trkpt lat="46.18592" lon="4.73786">
        <ele>196.19999694824</ele>
        <time>2021-04-25T15:09:35.000Z</time>
      </trkpt>
      <trkpt lat="46.18594" lon="4.73824">
        <ele>195.39999389648</ele>
        <time>2021-04-25T15:09:39.000Z</time>
      </trkpt>
      <trkpt lat="46.18597" lon="4.73843">
        <ele>194.39999389648</ele>
        <time>2021-04-25T15:09:41.000Z</time>
      </trkpt>
      <trkpt lat="46.18609" lon="4.7389">
        <ele>192.60000610352</ele>
        <time>2021-04-25T15:09:46.000Z</time>
      </trkpt>
      <trkpt lat="46.18611" lon="4.7393">
        <ele>192</ele>
        <time>2021-04-25T15:09:50.000Z</time>
      </trkpt>
      <trkpt lat="46.18601" lon="4.73992">
        <ele>191.60000610352</ele>
        <time>2021-04-25T15:09:59.000Z</time>
      </trkpt>
      <trkpt lat="46.18612" lon="4.74003">
        <ele>191.39999389648</ele>
        <time>2021-04-25T15:10:03.000Z</time>
      </trkpt>
      <trkpt lat="46.18624" lon="4.74002">
        <ele>191.19999694824</ele>
        <time>2021-04-25T15:10:05.000Z</time>
      </trkpt>
      <trkpt lat="46.18681" lon="4.7401">
        <ele>190.60000610352</ele>
        <time>2021-04-25T15:10:15.000Z</time>
      </trkpt>
      <trkpt lat="46.18685" lon="4.74039">
        <ele>190.39999389648</ele>
        <time>2021-04-25T15:10:21.000Z</time>
      </trkpt>
      <trkpt lat="46.1867" lon="4.74062">
        <ele>189.80000305176</ele>
        <time>2021-04-25T15:10:25.000Z</time>
      </trkpt>
      <trkpt lat="46.18662" lon="4.74071">
        <ele>189.80000305176</ele>
        <time>2021-04-25T15:10:27.000Z</time>
      </trkpt>
      <trkpt lat="46.18645" lon="4.74094">
        <ele>189.60000610352</ele>
        <time>2021-04-25T15:10:32.000Z</time>
      </trkpt>
      <trkpt lat="46.18648" lon="4.7411">
        <ele>189.19999694824</ele>
        <time>2021-04-25T15:10:36.000Z</time>
      </trkpt>
      <trkpt lat="46.1872" lon="4.74146">
        <ele>186.80000305176</ele>
        <time>2021-04-25T15:10:49.000Z</time>
      </trkpt>
      <trkpt lat="46.18758" lon="4.74161">
        <ele>186.80000305176</ele>
        <time>2021-04-25T15:10:56.000Z</time>
      </trkpt>
      <trkpt lat="46.18773" lon="4.74168">
        <ele>187</ele>
        <time>2021-04-25T15:10:59.000Z</time>
      </trkpt>
      <trkpt lat="46.18807" lon="4.74179">
        <ele>187</ele>
        <time>2021-04-25T15:11:08.000Z</time>
      </trkpt>
      <trkpt lat="46.18902" lon="4.742">
        <ele>188</ele>
        <time>2021-04-25T15:11:25.000Z</time>
      </trkpt>
      <trkpt lat="46.19007" lon="4.74214">
        <ele>188.39999389648</ele>
        <time>2021-04-25T15:11:44.000Z</time>
      </trkpt>
      <trkpt lat="46.19088" lon="4.7422">
        <ele>186.39999389648</ele>
        <time>2021-04-25T15:11:59.000Z</time>
      </trkpt>
      <trkpt lat="46.19173" lon="4.7422">
        <ele>183.80000305176</ele>
        <time>2021-04-25T15:12:14.000Z</time>
      </trkpt>
      <trkpt lat="46.192" lon="4.74219">
        <ele>183.80000305176</ele>
        <time>2021-04-25T15:12:19.000Z</time>
      </trkpt>
      <trkpt lat="46.19204" lon="4.74216">
        <ele>183.80000305176</ele>
        <time>2021-04-25T15:12:20.000Z</time>
      </trkpt>
      <trkpt lat="46.19208" lon="4.74212">
        <ele>184</ele>
        <time>2021-04-25T15:12:21.000Z</time>
      </trkpt>
      <trkpt lat="46.19211" lon="4.74207">
        <ele>184</ele>
        <time>2021-04-25T15:12:22.000Z</time>
      </trkpt>
      <trkpt lat="46.19214" lon="4.74201">
        <ele>184</ele>
        <time>2021-04-25T15:12:23.000Z</time>
      </trkpt>
      <trkpt lat="46.19217" lon="4.74194">
        <ele>184.19999694824</ele>
        <time>2021-04-25T15:12:24.000Z</time>
      </trkpt>
      <trkpt lat="46.19219" lon="4.74187">
        <ele>184.19999694824</ele>
        <time>2021-04-25T15:12:25.000Z</time>
      </trkpt>
      <trkpt lat="46.19222" lon="4.74179">
        <ele>184.19999694824</ele>
        <time>2021-04-25T15:12:26.000Z</time>
      </trkpt>
      <trkpt lat="46.19228" lon="4.74147">
        <ele>184</ele>
        <time>2021-04-25T15:12:30.000Z</time>
      </trkpt>
      <trkpt lat="46.19226" lon="4.74114">
        <ele>184</ele>
        <time>2021-04-25T15:12:34.000Z</time>
      </trkpt>
      <trkpt lat="46.19218" lon="4.74012">
        <ele>184.19999694824</ele>
        <time>2021-04-25T15:12:47.000Z</time>
      </trkpt>
      <trkpt lat="46.19223" lon="4.73977">
        <ele>185.19999694824</ele>
        <time>2021-04-25T15:12:53.000Z</time>
      </trkpt>
      <trkpt lat="46.19225" lon="4.73975">
        <ele>185.39999389648</ele>
        <time>2021-04-25T15:12:54.000Z</time>
      </trkpt>
      <trkpt lat="46.19229" lon="4.73973">
        <ele>185.39999389648</ele>
        <time>2021-04-25T15:12:55.000Z</time>
      </trkpt>
      <trkpt lat="46.19238" lon="4.7399">
        <ele>185</ele>
        <time>2021-04-25T15:13:00.000Z</time>
      </trkpt>
      <trkpt lat="46.19231" lon="4.74038">
        <ele>183</ele>
        <time>2021-04-25T15:13:06.000Z</time>
      </trkpt>
      <trkpt lat="46.19238" lon="4.7408">
        <ele>183.60000610352</ele>
        <time>2021-04-25T15:13:11.000Z</time>
      </trkpt>
      <trkpt lat="46.1925" lon="4.74111">
        <ele>184.19999694824</ele>
        <time>2021-04-25T15:13:15.000Z</time>
      </trkpt>
      <trkpt lat="46.19257" lon="4.74136">
        <ele>184.19999694824</ele>
        <time>2021-04-25T15:13:18.000Z</time>
      </trkpt>
      <trkpt lat="46.19258" lon="4.74145">
        <ele>184</ele>
        <time>2021-04-25T15:13:19.000Z</time>
      </trkpt>
      <trkpt lat="46.19262" lon="4.74171">
        <ele>184</ele>
        <time>2021-04-25T15:13:22.000Z</time>
      </trkpt>
      <trkpt lat="46.19264" lon="4.7418">
        <ele>184</ele>
        <time>2021-04-25T15:13:23.000Z</time>
      </trkpt>
      <trkpt lat="46.19282" lon="4.74213">
        <ele>183.80000305176</ele>
        <time>2021-04-25T15:13:28.000Z</time>
      </trkpt>
      <trkpt lat="46.19292" lon="4.74223">
        <ele>183.80000305176</ele>
        <time>2021-04-25T15:13:30.000Z</time>
      </trkpt>
      <trkpt lat="46.19365" lon="4.74284">
        <ele>183</ele>
        <time>2021-04-25T15:13:44.000Z</time>
      </trkpt>
      <trkpt lat="46.19392" lon="4.74305">
        <ele>182.60000610352</ele>
        <time>2021-04-25T15:13:49.000Z</time>
      </trkpt>
      <trkpt lat="46.19411" lon="4.74345">
        <ele>181.80000305176</ele>
        <time>2021-04-25T15:13:55.000Z</time>
      </trkpt>
      <trkpt lat="46.19416" lon="4.7437">
        <ele>181.19999694824</ele>
        <time>2021-04-25T15:13:58.000Z</time>
      </trkpt>
      <trkpt lat="46.19416" lon="4.74403">
        <ele>180.60000610352</ele>
        <time>2021-04-25T15:14:02.000Z</time>
      </trkpt>
      <trkpt lat="46.19398" lon="4.74475">
        <ele>179.80000305176</ele>
        <time>2021-04-25T15:14:14.000Z</time>
      </trkpt>
      <trkpt lat="46.19398" lon="4.74475">
        <ele>179.80000305176</ele>
        <time>2021-04-25T15:14:18.000Z</time>
      </trkpt>
      <trkpt lat="46.19402" lon="4.74482">
        <ele>179.60000610352</ele>
        <time>2021-04-25T15:15:03.000Z</time>
      </trkpt>
      <trkpt lat="46.19406" lon="4.74486">
        <ele>179.39999389648</ele>
        <time>2021-04-25T15:15:11.000Z</time>
      </trkpt>
      <trkpt lat="46.19413" lon="4.74486">
        <ele>179.39999389648</ele>
        <time>2021-04-25T15:24:28.000Z</time>
      </trkpt>
      <trkpt lat="46.19454" lon="4.74504">
        <ele>178.80000305176</ele>
        <time>2021-04-25T15:24:41.000Z</time>
      </trkpt>
      <trkpt lat="46.19462" lon="4.74504">
        <ele>178.80000305176</ele>
        <time>2021-04-25T15:24:44.000Z</time>
      </trkpt>
      <trkpt lat="46.19465" lon="4.74502">
        <ele>178.80000305176</ele>
        <time>2021-04-25T15:24:45.000Z</time>
      </trkpt>
      <trkpt lat="46.19467" lon="4.74498">
        <ele>179</ele>
        <time>2021-04-25T15:24:46.000Z</time>
      </trkpt>
      <trkpt lat="46.19469" lon="4.74493">
        <ele>179</ele>
        <time>2021-04-25T15:24:47.000Z</time>
      </trkpt>
      <trkpt lat="46.1947" lon="4.74487">
        <ele>179.19999694824</ele>
        <time>2021-04-25T15:24:48.000Z</time>
      </trkpt>
      <trkpt lat="46.19497" lon="4.74384">
        <ele>183</ele>
        <time>2021-04-25T15:25:03.000Z</time>
      </trkpt>
      <trkpt lat="46.19504" lon="4.74363">
        <ele>184.60000610352</ele>
        <time>2021-04-25T15:25:06.000Z</time>
      </trkpt>
      <trkpt lat="46.19507" lon="4.74357">
        <ele>185.19999694824</ele>
        <time>2021-04-25T15:25:07.000Z</time>
      </trkpt>
      <trkpt lat="46.1951" lon="4.74351">
        <ele>185.80000305176</ele>
        <time>2021-04-25T15:25:08.000Z</time>
      </trkpt>
      <trkpt lat="46.19512" lon="4.74345">
        <ele>186.39999389648</ele>
        <time>2021-04-25T15:25:09.000Z</time>
      </trkpt>
      <trkpt lat="46.19514" lon="4.74339">
        <ele>186.80000305176</ele>
        <time>2021-04-25T15:25:10.000Z</time>
      </trkpt>
      <trkpt lat="46.19516" lon="4.74333">
        <ele>187.39999389648</ele>
        <time>2021-04-25T15:25:11.000Z</time>
      </trkpt>
      <trkpt lat="46.19526" lon="4.74308">
        <ele>189.39999389648</ele>
        <time>2021-04-25T15:25:16.000Z</time>
      </trkpt>
      <trkpt lat="46.19529" lon="4.74306">
        <ele>189.80000305176</ele>
        <time>2021-04-25T15:25:17.000Z</time>
      </trkpt>
      <trkpt lat="46.19532" lon="4.74307">
        <ele>190</ele>
        <time>2021-04-25T15:25:18.000Z</time>
      </trkpt>
      <trkpt lat="46.19535" lon="4.74309">
        <ele>190</ele>
        <time>2021-04-25T15:25:19.000Z</time>
      </trkpt>
      <trkpt lat="46.19538" lon="4.74313">
        <ele>190</ele>
        <time>2021-04-25T15:25:20.000Z</time>
      </trkpt>
      <trkpt lat="46.1954" lon="4.74317">
        <ele>190</ele>
        <time>2021-04-25T15:25:21.000Z</time>
      </trkpt>
      <trkpt lat="46.19543" lon="4.74321">
        <ele>190</ele>
        <time>2021-04-25T15:25:22.000Z</time>
      </trkpt>
      <trkpt lat="46.19559" lon="4.74351">
        <ele>189.80000305176</ele>
        <time>2021-04-25T15:25:29.000Z</time>
      </trkpt>
      <trkpt lat="46.19571" lon="4.7437">
        <ele>189.19999694824</ele>
        <time>2021-04-25T15:25:33.000Z</time>
      </trkpt>
      <trkpt lat="46.19574" lon="4.74373">
        <ele>189.19999694824</ele>
        <time>2021-04-25T15:25:34.000Z</time>
      </trkpt>
      <trkpt lat="46.19592" lon="4.74382">
        <ele>189</ele>
        <time>2021-04-25T15:25:40.000Z</time>
      </trkpt>
      <trkpt lat="46.19594" lon="4.74379">
        <ele>189.19999694824</ele>
        <time>2021-04-25T15:25:41.000Z</time>
      </trkpt>
      <trkpt lat="46.19596" lon="4.74363">
        <ele>190.19999694824</ele>
        <time>2021-04-25T15:25:44.000Z</time>
      </trkpt>
      <trkpt lat="46.19605" lon="4.74247">
        <ele>196</ele>
        <time>2021-04-25T15:26:00.000Z</time>
      </trkpt>
      <trkpt lat="46.19608" lon="4.74203">
        <ele>198.80000305176</ele>
        <time>2021-04-25T15:26:07.000Z</time>
      </trkpt>
      <trkpt lat="46.19608" lon="4.74195">
        <ele>199.39999389648</ele>
        <time>2021-04-25T15:26:09.000Z</time>
      </trkpt>
      <trkpt lat="46.19611" lon="4.74191">
        <ele>199.80000305176</ele>
        <time>2021-04-25T15:26:11.000Z</time>
      </trkpt>
      <trkpt lat="46.19651" lon="4.74196">
        <ele>200.19999694824</ele>
        <time>2021-04-25T15:26:22.000Z</time>
      </trkpt>
      <trkpt lat="46.19658" lon="4.74196">
        <ele>200.19999694824</ele>
        <time>2021-04-25T15:26:24.000Z</time>
      </trkpt>
      <trkpt lat="46.19663" lon="4.74176">
        <ele>200.60000610352</ele>
        <time>2021-04-25T15:26:29.000Z</time>
      </trkpt>
      <trkpt lat="46.19669" lon="4.74119">
        <ele>201.80000305176</ele>
        <time>2021-04-25T15:26:39.000Z</time>
      </trkpt>
      <trkpt lat="46.19707" lon="4.74122">
        <ele>201.19999694824</ele>
        <time>2021-04-25T15:26:50.000Z</time>
      </trkpt>
      <trkpt lat="46.19713" lon="4.74121">
        <ele>201.19999694824</ele>
        <time>2021-04-25T15:26:52.000Z</time>
      </trkpt>
      <trkpt lat="46.19715" lon="4.74119">
        <ele>201.19999694824</ele>
        <time>2021-04-25T15:26:53.000Z</time>
      </trkpt>
      <trkpt lat="46.19717" lon="4.74116">
        <ele>201.39999389648</ele>
        <time>2021-04-25T15:26:54.000Z</time>
      </trkpt>
      <trkpt lat="46.19718" lon="4.74111">
        <ele>201.60000610352</ele>
        <time>2021-04-25T15:26:55.000Z</time>
      </trkpt>
      <trkpt lat="46.19719" lon="4.74106">
        <ele>201.80000305176</ele>
        <time>2021-04-25T15:26:56.000Z</time>
      </trkpt>
      <trkpt lat="46.19719" lon="4.741">
        <ele>202.19999694824</ele>
        <time>2021-04-25T15:26:57.000Z</time>
      </trkpt>
      <trkpt lat="46.19725" lon="4.73982">
        <ele>207.39999389648</ele>
        <time>2021-04-25T15:27:14.000Z</time>
      </trkpt>
      <trkpt lat="46.19724" lon="4.73974">
        <ele>207.60000610352</ele>
        <time>2021-04-25T15:27:17.000Z</time>
      </trkpt>
      <trkpt lat="46.19725" lon="4.73972">
        <ele>207.60000610352</ele>
        <time>2021-04-25T15:27:18.000Z</time>
      </trkpt>
      <trkpt lat="46.1973" lon="4.73972">
        <ele>207.60000610352</ele>
        <time>2021-04-25T15:27:20.000Z</time>
      </trkpt>
      <trkpt lat="46.19763" lon="4.73975">
        <ele>207</ele>
        <time>2021-04-25T15:27:27.000Z</time>
      </trkpt>
      <trkpt lat="46.19811" lon="4.73983">
        <ele>206.39999389648</ele>
        <time>2021-04-25T15:27:41.000Z</time>
      </trkpt>
      <trkpt lat="46.19836" lon="4.73976">
        <ele>206.19999694824</ele>
        <time>2021-04-25T15:27:47.000Z</time>
      </trkpt>
      <trkpt lat="46.19888" lon="4.73991">
        <ele>205.60000610352</ele>
        <time>2021-04-25T15:27:56.000Z</time>
      </trkpt>
      <trkpt lat="46.19905" lon="4.73997">
        <ele>205.39999389648</ele>
        <time>2021-04-25T15:27:59.000Z</time>
      </trkpt>
      <trkpt lat="46.19988" lon="4.74032">
        <ele>203.80000305176</ele>
        <time>2021-04-25T15:28:13.000Z</time>
      </trkpt>
      <trkpt lat="46.20013" lon="4.74036">
        <ele>202</ele>
        <time>2021-04-25T15:28:17.000Z</time>
      </trkpt>
      <trkpt lat="46.20051" lon="4.74025">
        <ele>200.39999389648</ele>
        <time>2021-04-25T15:28:23.000Z</time>
      </trkpt>
      <trkpt lat="46.20087" lon="4.74035">
        <ele>198.39999389648</ele>
        <time>2021-04-25T15:28:28.000Z</time>
      </trkpt>
      <trkpt lat="46.20114" lon="4.74058">
        <ele>197</ele>
        <time>2021-04-25T15:28:32.000Z</time>
      </trkpt>
      <trkpt lat="46.20138" lon="4.74099">
        <ele>195</ele>
        <time>2021-04-25T15:28:37.000Z</time>
      </trkpt>
      <trkpt lat="46.20152" lon="4.74139">
        <ele>193.39999389648</ele>
        <time>2021-04-25T15:28:41.000Z</time>
      </trkpt>
      <trkpt lat="46.2016" lon="4.74158">
        <ele>192.80000305176</ele>
        <time>2021-04-25T15:28:43.000Z</time>
      </trkpt>
      <trkpt lat="46.20168" lon="4.74173">
        <ele>192.39999389648</ele>
        <time>2021-04-25T15:28:45.000Z</time>
      </trkpt>
      <trkpt lat="46.20168" lon="4.74187">
        <ele>191.80000305176</ele>
        <time>2021-04-25T15:28:51.000Z</time>
      </trkpt>
      <trkpt lat="46.20154" lon="4.74203">
        <ele>191.19999694824</ele>
        <time>2021-04-25T15:28:55.000Z</time>
      </trkpt>
      <trkpt lat="46.20145" lon="4.74227">
        <ele>190.80000305176</ele>
        <time>2021-04-25T15:28:59.000Z</time>
      </trkpt>
      <trkpt lat="46.20143" lon="4.74233">
        <ele>190.60000610352</ele>
        <time>2021-04-25T15:29:00.000Z</time>
      </trkpt>
      <trkpt lat="46.20143" lon="4.74239">
        <ele>190.60000610352</ele>
        <time>2021-04-25T15:29:01.000Z</time>
      </trkpt>
      <trkpt lat="46.20147" lon="4.74251">
        <ele>190.39999389648</ele>
        <time>2021-04-25T15:29:03.000Z</time>
      </trkpt>
      <trkpt lat="46.20165" lon="4.74293">
        <ele>190.39999389648</ele>
        <time>2021-04-25T15:29:09.000Z</time>
      </trkpt>
      <trkpt lat="46.20193" lon="4.74331">
        <ele>190.60000610352</ele>
        <time>2021-04-25T15:29:16.000Z</time>
      </trkpt>
      <trkpt lat="46.20208" lon="4.74391">
        <ele>190</ele>
        <time>2021-04-25T15:29:25.000Z</time>
      </trkpt>
      <trkpt lat="46.20196" lon="4.74401">
        <ele>189.39999389648</ele>
        <time>2021-04-25T15:29:30.000Z</time>
      </trkpt>
      <trkpt lat="46.20172" lon="4.74394">
        <ele>188.60000610352</ele>
        <time>2021-04-25T15:29:35.000Z</time>
      </trkpt>
      <trkpt lat="46.20165" lon="4.74415">
        <ele>188.19999694824</ele>
        <time>2021-04-25T15:29:40.000Z</time>
      </trkpt>
      <trkpt lat="46.20171" lon="4.74509">
        <ele>187.80000305176</ele>
        <time>2021-04-25T15:29:52.000Z</time>
      </trkpt>
      <trkpt lat="46.2017" lon="4.74537">
        <ele>187.39999389648</ele>
        <time>2021-04-25T15:29:56.000Z</time>
      </trkpt>
      <trkpt lat="46.20151" lon="4.74578">
        <ele>186.39999389648</ele>
        <time>2021-04-25T15:30:03.000Z</time>
      </trkpt>
      <trkpt lat="46.20112" lon="4.74623">
        <ele>184.80000305176</ele>
        <time>2021-04-25T15:30:12.000Z</time>
      </trkpt>
      <trkpt lat="46.20099" lon="4.74651">
        <ele>184.39999389648</ele>
        <time>2021-04-25T15:30:17.000Z</time>
      </trkpt>
      <trkpt lat="46.20122" lon="4.74668">
        <ele>185.19999694824</ele>
        <time>2021-04-25T15:30:25.000Z</time>
      </trkpt>
      <trkpt lat="46.20214" lon="4.74704">
        <ele>189.39999389648</ele>
        <time>2021-04-25T15:30:41.000Z</time>
      </trkpt>
      <trkpt lat="46.20226" lon="4.74707">
        <ele>189.80000305176</ele>
        <time>2021-04-25T15:30:43.000Z</time>
      </trkpt>
      <trkpt lat="46.2026" lon="4.74704">
        <ele>191.19999694824</ele>
        <time>2021-04-25T15:30:49.000Z</time>
      </trkpt>
      <trkpt lat="46.20271" lon="4.747">
        <ele>191.60000610352</ele>
        <time>2021-04-25T15:30:51.000Z</time>
      </trkpt>
      <trkpt lat="46.20315" lon="4.74705">
        <ele>193.19999694824</ele>
        <time>2021-04-25T15:30:59.000Z</time>
      </trkpt>
      <trkpt lat="46.20374" lon="4.74733">
        <ele>196.39999389648</ele>
        <time>2021-04-25T15:31:12.000Z</time>
      </trkpt>
      <trkpt lat="46.20377" lon="4.74735">
        <ele>196.60000610352</ele>
        <time>2021-04-25T15:31:13.000Z</time>
      </trkpt>
      <trkpt lat="46.20412" lon="4.7474">
        <ele>197.19999694824</ele>
        <time>2021-04-25T15:31:21.000Z</time>
      </trkpt>
      <trkpt lat="46.20466" lon="4.74742">
        <ele>197</ele>
        <time>2021-04-25T15:31:33.000Z</time>
      </trkpt>
      <trkpt lat="46.20493" lon="4.74739">
        <ele>197</ele>
        <time>2021-04-25T15:31:42.000Z</time>
      </trkpt>
      <trkpt lat="46.20529" lon="4.74799">
        <ele>193</ele>
        <time>2021-04-25T15:31:51.000Z</time>
      </trkpt>
      <trkpt lat="46.2055" lon="4.74831">
        <ele>190.60000610352</ele>
        <time>2021-04-25T15:31:55.000Z</time>
      </trkpt>
      <trkpt lat="46.20586" lon="4.74885">
        <ele>187.80000305176</ele>
        <time>2021-04-25T15:32:02.000Z</time>
      </trkpt>
      <trkpt lat="46.20644" lon="4.74966">
        <ele>187</ele>
        <time>2021-04-25T15:32:13.000Z</time>
      </trkpt>
      <trkpt lat="46.2074" lon="4.75075">
        <ele>188.60000610352</ele>
        <time>2021-04-25T15:32:31.000Z</time>
      </trkpt>
      <trkpt lat="46.20813" lon="4.75157">
        <ele>191.19999694824</ele>
        <time>2021-04-25T15:32:46.000Z</time>
      </trkpt>
      <trkpt lat="46.20882" lon="4.75254">
        <ele>192.60000610352</ele>
        <time>2021-04-25T15:33:02.000Z</time>
      </trkpt>
      <trkpt lat="46.209" lon="4.75277">
        <ele>193.39999389648</ele>
        <time>2021-04-25T15:33:06.000Z</time>
      </trkpt>
      <trkpt lat="46.2091" lon="4.75287">
        <ele>194.39999389648</ele>
        <time>2021-04-25T15:33:08.000Z</time>
      </trkpt>
      <trkpt lat="46.20957" lon="4.7532">
        <ele>199</ele>
        <time>2021-04-25T15:33:17.000Z</time>
      </trkpt>
      <trkpt lat="46.21004" lon="4.75349">
        <ele>202.60000610352</ele>
        <time>2021-04-25T15:33:26.000Z</time>
      </trkpt>
      <trkpt lat="46.21049" lon="4.75378">
        <ele>205.19999694824</ele>
        <time>2021-04-25T15:33:36.000Z</time>
      </trkpt>
      <trkpt lat="46.21091" lon="4.75417">
        <ele>205.60000610352</ele>
        <time>2021-04-25T15:33:46.000Z</time>
      </trkpt>
      <trkpt lat="46.21091" lon="4.75443">
        <ele>205.60000610352</ele>
        <time>2021-04-25T15:33:50.000Z</time>
      </trkpt>
      <trkpt lat="46.21088" lon="4.75503">
        <ele>204.19999694824</ele>
        <time>2021-04-25T15:33:58.000Z</time>
      </trkpt>
      <trkpt lat="46.211" lon="4.75528">
        <ele>203.39999389648</ele>
        <time>2021-04-25T15:34:02.000Z</time>
      </trkpt>
      <trkpt lat="46.21179" lon="4.75578">
        <ele>197</ele>
        <time>2021-04-25T15:34:14.000Z</time>
      </trkpt>
      <trkpt lat="46.21188" lon="4.75584">
        <ele>196.19999694824</ele>
        <time>2021-04-25T15:34:15.000Z</time>
      </trkpt>
      <trkpt lat="46.21238" lon="4.75618">
        <ele>191.80000305176</ele>
        <time>2021-04-25T15:34:21.000Z</time>
      </trkpt>
      <trkpt lat="46.21279" lon="4.75647">
        <ele>190.19999694824</ele>
        <time>2021-04-25T15:34:26.000Z</time>
      </trkpt>
      <trkpt lat="46.21316" lon="4.75672">
        <ele>189</ele>
        <time>2021-04-25T15:34:31.000Z</time>
      </trkpt>
      <trkpt lat="46.21322" lon="4.75676">
        <ele>189.19999694824</ele>
        <time>2021-04-25T15:34:32.000Z</time>
      </trkpt>
      <trkpt lat="46.21348" lon="4.75656">
        <ele>189.80000305176</ele>
        <time>2021-04-25T15:34:38.000Z</time>
      </trkpt>
      <trkpt lat="46.21431" lon="4.75497">
        <ele>192.19999694824</ele>
        <time>2021-04-25T15:36:37.000Z</time>
      </trkpt>
      <trkpt lat="46.21431" lon="4.75498">
        <ele>192.19999694824</ele>
        <time>2021-04-25T15:36:39.000Z</time>
      </trkpt>
    </trkseg>
  </trk>
</gpx>